<?xml version="1.0" encoding="UTF-8" standalone="no" ?>
<gpx xmlns="http://www.topografix.com/GPX/1/1" xmlns:xsi="http://www.w3.org/2001/XMLSchema-instance" xsi:schemaLocation="http://www.topografix.com/GPX/1/1 http://www.topografix.com/GPX/1/1/gpx.xsd" version="1.1" creator="VisuGPX - https://www.visugpx.com">
  <metadata>
    <name>Samoreau, d'une rive à l'autre 22km</name>
    <desc><![CDATA[Très belle randonnée en boucle depuis Samoreau, d'une rive à l'autre de la Seine. 
A retrouver aussi sur [url]htpp://trekkingzone.fr[/url]

]]></desc>
  </metadata>
  <trk>
    <name><![CDATA[12 juil. 2020 à 10:13:37]]></name>
    <cmt><![CDATA[12 juil. 2020 à 10:13:37]]></cmt>
    <trkseg>
      <trkpt lat="48.43042" lon="2.75306">
        <ele>47</ele>
        <time>2020-07-12T08:13:38Z</time>
      </trkpt>
      <trkpt lat="48.43048" lon="2.75309">
        <ele>47</ele>
        <time>2020-07-12T08:13:56Z</time>
      </trkpt>
      <trkpt lat="48.43046" lon="2.75316">
        <ele>46</ele>
        <time>2020-07-12T08:14:01Z</time>
      </trkpt>
      <trkpt lat="48.43043" lon="2.75319">
        <ele>47</ele>
        <time>2020-07-12T08:15:14Z</time>
      </trkpt>
      <trkpt lat="48.43041" lon="2.75328">
        <ele>48</ele>
        <time>2020-07-12T08:17:01Z</time>
      </trkpt>
      <trkpt lat="48.43026" lon="2.75339">
        <ele>48</ele>
        <time>2020-07-12T08:17:15Z</time>
      </trkpt>
      <trkpt lat="48.43022" lon="2.75339">
        <ele>48</ele>
        <time>2020-07-12T08:17:19Z</time>
      </trkpt>
      <trkpt lat="48.43017" lon="2.75339">
        <ele>48</ele>
        <time>2020-07-12T08:17:30Z</time>
      </trkpt>
      <trkpt lat="48.43012" lon="2.75338">
        <ele>48</ele>
        <time>2020-07-12T08:17:34Z</time>
      </trkpt>
      <trkpt lat="48.43007" lon="2.75339">
        <ele>48</ele>
        <time>2020-07-12T08:17:37Z</time>
      </trkpt>
      <trkpt lat="48.43002" lon="2.75337">
        <ele>48</ele>
        <time>2020-07-12T08:17:41Z</time>
      </trkpt>
      <trkpt lat="48.42999" lon="2.75332">
        <ele>48</ele>
        <time>2020-07-12T08:17:44Z</time>
      </trkpt>
      <trkpt lat="48.42978" lon="2.75323">
        <ele>49</ele>
        <time>2020-07-12T08:17:59Z</time>
      </trkpt>
      <trkpt lat="48.42973" lon="2.75322">
        <ele>49</ele>
        <time>2020-07-12T08:18:03Z</time>
      </trkpt>
      <trkpt lat="48.42959" lon="2.75308">
        <ele>49</ele>
        <time>2020-07-12T08:18:15Z</time>
      </trkpt>
      <trkpt lat="48.42947" lon="2.75291">
        <ele>49</ele>
        <time>2020-07-12T08:18:26Z</time>
      </trkpt>
      <trkpt lat="48.42943" lon="2.75289">
        <ele>49</ele>
        <time>2020-07-12T08:18:30Z</time>
      </trkpt>
      <trkpt lat="48.42898" lon="2.75284">
        <ele>50</ele>
        <time>2020-07-12T08:19:02Z</time>
      </trkpt>
      <trkpt lat="48.42854" lon="2.75284">
        <ele>51</ele>
        <time>2020-07-12T08:19:34Z</time>
      </trkpt>
      <trkpt lat="48.42811" lon="2.75287">
        <ele>52</ele>
        <time>2020-07-12T08:20:05Z</time>
      </trkpt>
      <trkpt lat="48.42785" lon="2.75291">
        <ele>53</ele>
        <time>2020-07-12T08:20:25Z</time>
      </trkpt>
      <trkpt lat="48.4278" lon="2.75289">
        <ele>53</ele>
        <time>2020-07-12T08:20:30Z</time>
      </trkpt>
      <trkpt lat="48.42775" lon="2.75284">
        <ele>53</ele>
        <time>2020-07-12T08:20:35Z</time>
      </trkpt>
      <trkpt lat="48.42755" lon="2.7529">
        <ele>53</ele>
        <time>2020-07-12T08:20:51Z</time>
      </trkpt>
      <trkpt lat="48.4275" lon="2.75295">
        <ele>53</ele>
        <time>2020-07-12T08:20:55Z</time>
      </trkpt>
      <trkpt lat="48.42731" lon="2.75297">
        <ele>54</ele>
        <time>2020-07-12T08:21:09Z</time>
      </trkpt>
      <trkpt lat="48.42721" lon="2.75303">
        <ele>54</ele>
        <time>2020-07-12T08:21:18Z</time>
      </trkpt>
      <trkpt lat="48.42676" lon="2.75314">
        <ele>55</ele>
        <time>2020-07-12T08:21:50Z</time>
      </trkpt>
      <trkpt lat="48.42628" lon="2.75328">
        <ele>57</ele>
        <time>2020-07-12T08:22:24Z</time>
      </trkpt>
      <trkpt lat="48.4259" lon="2.75338">
        <ele>58</ele>
        <time>2020-07-12T08:22:51Z</time>
      </trkpt>
      <trkpt lat="48.42581" lon="2.75341">
        <ele>58</ele>
        <time>2020-07-12T08:22:59Z</time>
      </trkpt>
      <trkpt lat="48.42533" lon="2.75358">
        <ele>60</ele>
        <time>2020-07-12T08:23:36Z</time>
      </trkpt>
      <trkpt lat="48.42487" lon="2.75371">
        <ele>62</ele>
        <time>2020-07-12T08:24:13Z</time>
      </trkpt>
      <trkpt lat="48.42441" lon="2.75373">
        <ele>63</ele>
        <time>2020-07-12T08:24:45Z</time>
      </trkpt>
      <trkpt lat="48.42398" lon="2.75362">
        <ele>63</ele>
        <time>2020-07-12T08:25:17Z</time>
      </trkpt>
      <trkpt lat="48.42382" lon="2.75361">
        <ele>62</ele>
        <time>2020-07-12T08:25:28Z</time>
      </trkpt>
      <trkpt lat="48.42372" lon="2.75362">
        <ele>60</ele>
        <time>2020-07-12T08:25:40Z</time>
      </trkpt>
      <trkpt lat="48.42362" lon="2.7537">
        <ele>60</ele>
        <time>2020-07-12T08:25:48Z</time>
      </trkpt>
      <trkpt lat="48.42352" lon="2.75375">
        <ele>61</ele>
        <time>2020-07-12T08:25:56Z</time>
      </trkpt>
      <trkpt lat="48.42347" lon="2.75376">
        <ele>61</ele>
        <time>2020-07-12T08:26:00Z</time>
      </trkpt>
      <trkpt lat="48.42337" lon="2.75383">
        <ele>62</ele>
        <time>2020-07-12T08:26:09Z</time>
      </trkpt>
      <trkpt lat="48.42325" lon="2.75399">
        <ele>64</ele>
        <time>2020-07-12T08:26:25Z</time>
      </trkpt>
      <trkpt lat="48.42319" lon="2.75419">
        <ele>65</ele>
        <time>2020-07-12T08:26:39Z</time>
      </trkpt>
      <trkpt lat="48.42318" lon="2.75446">
        <ele>66</ele>
        <time>2020-07-12T08:27:23Z</time>
      </trkpt>
      <trkpt lat="48.42315" lon="2.75489">
        <ele>68</ele>
        <time>2020-07-12T08:27:44Z</time>
      </trkpt>
      <trkpt lat="48.4232" lon="2.75517">
        <ele>70</ele>
        <time>2020-07-12T08:27:59Z</time>
      </trkpt>
      <trkpt lat="48.42318" lon="2.75532">
        <ele>71</ele>
        <time>2020-07-12T08:28:07Z</time>
      </trkpt>
      <trkpt lat="48.42313" lon="2.75544">
        <ele>71</ele>
        <time>2020-07-12T08:28:14Z</time>
      </trkpt>
      <trkpt lat="48.42309" lon="2.75606">
        <ele>74</ele>
        <time>2020-07-12T08:28:46Z</time>
      </trkpt>
      <trkpt lat="48.4231" lon="2.75634">
        <ele>75</ele>
        <time>2020-07-12T08:28:59Z</time>
      </trkpt>
      <trkpt lat="48.42304" lon="2.75646">
        <ele>75</ele>
        <time>2020-07-12T08:29:09Z</time>
      </trkpt>
      <trkpt lat="48.42285" lon="2.75646">
        <ele>75</ele>
        <time>2020-07-12T08:29:22Z</time>
      </trkpt>
      <trkpt lat="48.42275" lon="2.75649">
        <ele>76</ele>
        <time>2020-07-12T08:29:28Z</time>
      </trkpt>
      <trkpt lat="48.42233" lon="2.75652">
        <ele>76</ele>
        <time>2020-07-12T08:29:59Z</time>
      </trkpt>
      <trkpt lat="48.42225" lon="2.75661">
        <ele>76</ele>
        <time>2020-07-12T08:30:07Z</time>
      </trkpt>
      <trkpt lat="48.42223" lon="2.7571">
        <ele>77</ele>
        <time>2020-07-12T08:30:38Z</time>
      </trkpt>
      <trkpt lat="48.42221" lon="2.75725">
        <ele>78</ele>
        <time>2020-07-12T08:30:46Z</time>
      </trkpt>
      <trkpt lat="48.42223" lon="2.75733">
        <ele>78</ele>
        <time>2020-07-12T08:30:50Z</time>
      </trkpt>
      <trkpt lat="48.4222" lon="2.7575">
        <ele>79</ele>
        <time>2020-07-12T08:30:58Z</time>
      </trkpt>
      <trkpt lat="48.42221" lon="2.75764">
        <ele>79</ele>
        <time>2020-07-12T08:31:06Z</time>
      </trkpt>
      <trkpt lat="48.42216" lon="2.75792">
        <ele>80</ele>
        <time>2020-07-12T08:31:22Z</time>
      </trkpt>
      <trkpt lat="48.42214" lon="2.75835">
        <ele>81</ele>
        <time>2020-07-12T08:31:43Z</time>
      </trkpt>
      <trkpt lat="48.42212" lon="2.7585">
        <ele>82</ele>
        <time>2020-07-12T08:31:50Z</time>
      </trkpt>
      <trkpt lat="48.42212" lon="2.75878">
        <ele>83</ele>
        <time>2020-07-12T08:32:04Z</time>
      </trkpt>
      <trkpt lat="48.42211" lon="2.75884">
        <ele>83</ele>
        <time>2020-07-12T08:32:18Z</time>
      </trkpt>
      <trkpt lat="48.42206" lon="2.75882">
        <ele>83</ele>
        <time>2020-07-12T08:32:22Z</time>
      </trkpt>
      <trkpt lat="48.42202" lon="2.7588">
        <ele>83</ele>
        <time>2020-07-12T08:32:26Z</time>
      </trkpt>
      <trkpt lat="48.42191" lon="2.75884">
        <ele>84</ele>
        <time>2020-07-12T08:32:34Z</time>
      </trkpt>
      <trkpt lat="48.42181" lon="2.75886">
        <ele>84</ele>
        <time>2020-07-12T08:32:43Z</time>
      </trkpt>
      <trkpt lat="48.42178" lon="2.7589">
        <ele>84</ele>
        <time>2020-07-12T08:32:54Z</time>
      </trkpt>
      <trkpt lat="48.42173" lon="2.75884">
        <ele>84</ele>
        <time>2020-07-12T08:33:06Z</time>
      </trkpt>
      <trkpt lat="48.42145" lon="2.75881">
        <ele>85</ele>
        <time>2020-07-12T08:33:26Z</time>
      </trkpt>
      <trkpt lat="48.4214" lon="2.75876">
        <ele>84</ele>
        <time>2020-07-12T08:33:30Z</time>
      </trkpt>
      <trkpt lat="48.42138" lon="2.75869">
        <ele>84</ele>
        <time>2020-07-12T08:33:34Z</time>
      </trkpt>
      <trkpt lat="48.42138" lon="2.75844">
        <ele>83</ele>
        <time>2020-07-12T08:33:46Z</time>
      </trkpt>
      <trkpt lat="48.42135" lon="2.75838">
        <ele>83</ele>
        <time>2020-07-12T08:33:50Z</time>
      </trkpt>
      <trkpt lat="48.4213" lon="2.75835">
        <ele>83</ele>
        <time>2020-07-12T08:33:54Z</time>
      </trkpt>
      <trkpt lat="48.42086" lon="2.75841">
        <ele>83</ele>
        <time>2020-07-12T08:34:25Z</time>
      </trkpt>
      <trkpt lat="48.42081" lon="2.75842">
        <ele>83</ele>
        <time>2020-07-12T08:34:29Z</time>
      </trkpt>
      <trkpt lat="48.42067" lon="2.75849">
        <ele>84</ele>
        <time>2020-07-12T08:34:41Z</time>
      </trkpt>
      <trkpt lat="48.42047" lon="2.75853">
        <ele>84</ele>
        <time>2020-07-12T08:34:56Z</time>
      </trkpt>
      <trkpt lat="48.42016" lon="2.75875">
        <ele>86</ele>
        <time>2020-07-12T08:35:23Z</time>
      </trkpt>
      <trkpt lat="48.41999" lon="2.7589">
        <ele>86</ele>
        <time>2020-07-12T08:35:39Z</time>
      </trkpt>
      <trkpt lat="48.41989" lon="2.7589">
        <ele>87</ele>
        <time>2020-07-12T08:35:45Z</time>
      </trkpt>
      <trkpt lat="48.41979" lon="2.7589">
        <ele>86</ele>
        <time>2020-07-12T08:35:51Z</time>
      </trkpt>
      <trkpt lat="48.41971" lon="2.75893">
        <ele>87</ele>
        <time>2020-07-12T08:35:58Z</time>
      </trkpt>
      <trkpt lat="48.41949" lon="2.75888">
        <ele>87</ele>
        <time>2020-07-12T08:36:23Z</time>
      </trkpt>
      <trkpt lat="48.41952" lon="2.75889">
        <ele>87</ele>
        <time>2020-07-12T08:37:51Z</time>
      </trkpt>
      <trkpt lat="48.41953" lon="2.75902">
        <ele>87</ele>
        <time>2020-07-12T08:38:27Z</time>
      </trkpt>
      <trkpt lat="48.41947" lon="2.75896">
        <ele>87</ele>
        <time>2020-07-12T08:40:52Z</time>
      </trkpt>
      <trkpt lat="48.41929" lon="2.75906">
        <ele>88</ele>
        <time>2020-07-12T08:41:21Z</time>
      </trkpt>
      <trkpt lat="48.41912" lon="2.75903">
        <ele>89</ele>
        <time>2020-07-12T08:41:48Z</time>
      </trkpt>
      <trkpt lat="48.41904" lon="2.7591">
        <ele>89</ele>
        <time>2020-07-12T08:41:55Z</time>
      </trkpt>
      <trkpt lat="48.41896" lon="2.75915">
        <ele>90</ele>
        <time>2020-07-12T08:41:59Z</time>
      </trkpt>
      <trkpt lat="48.41856" lon="2.75918">
        <ele>93</ele>
        <time>2020-07-12T08:42:35Z</time>
      </trkpt>
      <trkpt lat="48.41838" lon="2.75925">
        <ele>92</ele>
        <time>2020-07-12T08:42:50Z</time>
      </trkpt>
      <trkpt lat="48.41829" lon="2.75952">
        <ele>93</ele>
        <time>2020-07-12T08:43:05Z</time>
      </trkpt>
      <trkpt lat="48.41827" lon="2.75966">
        <ele>94</ele>
        <time>2020-07-12T08:43:14Z</time>
      </trkpt>
      <trkpt lat="48.41821" lon="2.75979">
        <ele>94</ele>
        <time>2020-07-12T08:43:20Z</time>
      </trkpt>
      <trkpt lat="48.41806" lon="2.75995">
        <ele>94</ele>
        <time>2020-07-12T08:43:32Z</time>
      </trkpt>
      <trkpt lat="48.418" lon="2.76008">
        <ele>94</ele>
        <time>2020-07-12T08:43:40Z</time>
      </trkpt>
      <trkpt lat="48.41801" lon="2.76022">
        <ele>94</ele>
        <time>2020-07-12T08:43:48Z</time>
      </trkpt>
      <trkpt lat="48.41797" lon="2.76024">
        <ele>94</ele>
        <time>2020-07-12T08:44:26Z</time>
      </trkpt>
      <trkpt lat="48.41791" lon="2.76028">
        <ele>94</ele>
        <time>2020-07-12T08:44:31Z</time>
      </trkpt>
      <trkpt lat="48.41787" lon="2.76034">
        <ele>94</ele>
        <time>2020-07-12T08:44:35Z</time>
      </trkpt>
      <trkpt lat="48.41785" lon="2.7604">
        <ele>94</ele>
        <time>2020-07-12T08:44:39Z</time>
      </trkpt>
      <trkpt lat="48.41785" lon="2.76047">
        <ele>94</ele>
        <time>2020-07-12T08:44:43Z</time>
      </trkpt>
      <trkpt lat="48.41783" lon="2.76054">
        <ele>94</ele>
        <time>2020-07-12T08:44:47Z</time>
      </trkpt>
      <trkpt lat="48.41779" lon="2.76058">
        <ele>94</ele>
        <time>2020-07-12T08:44:50Z</time>
      </trkpt>
      <trkpt lat="48.41775" lon="2.76062">
        <ele>94</ele>
        <time>2020-07-12T08:44:55Z</time>
      </trkpt>
      <trkpt lat="48.41771" lon="2.76068">
        <ele>94</ele>
        <time>2020-07-12T08:44:59Z</time>
      </trkpt>
      <trkpt lat="48.41767" lon="2.76071">
        <ele>94</ele>
        <time>2020-07-12T08:45:03Z</time>
      </trkpt>
      <trkpt lat="48.41762" lon="2.76072">
        <ele>93</ele>
        <time>2020-07-12T08:45:07Z</time>
      </trkpt>
      <trkpt lat="48.41758" lon="2.76077">
        <ele>93</ele>
        <time>2020-07-12T08:45:12Z</time>
      </trkpt>
      <trkpt lat="48.41748" lon="2.76086">
        <ele>93</ele>
        <time>2020-07-12T08:45:20Z</time>
      </trkpt>
      <trkpt lat="48.41741" lon="2.76096">
        <ele>93</ele>
        <time>2020-07-12T08:45:28Z</time>
      </trkpt>
      <trkpt lat="48.41737" lon="2.76106">
        <ele>93</ele>
        <time>2020-07-12T08:45:36Z</time>
      </trkpt>
      <trkpt lat="48.41719" lon="2.76112">
        <ele>94</ele>
        <time>2020-07-12T08:45:53Z</time>
      </trkpt>
      <trkpt lat="48.41709" lon="2.76117">
        <ele>95</ele>
        <time>2020-07-12T08:46:01Z</time>
      </trkpt>
      <trkpt lat="48.41699" lon="2.76117">
        <ele>95</ele>
        <time>2020-07-12T08:46:08Z</time>
      </trkpt>
      <trkpt lat="48.4168" lon="2.76114">
        <ele>94</ele>
        <time>2020-07-12T08:46:23Z</time>
      </trkpt>
      <trkpt lat="48.41671" lon="2.76119">
        <ele>93</ele>
        <time>2020-07-12T08:46:30Z</time>
      </trkpt>
      <trkpt lat="48.41653" lon="2.76112">
        <ele>92</ele>
        <time>2020-07-12T08:46:46Z</time>
      </trkpt>
      <trkpt lat="48.41645" lon="2.76106">
        <ele>91</ele>
        <time>2020-07-12T08:46:53Z</time>
      </trkpt>
      <trkpt lat="48.41635" lon="2.76104">
        <ele>91</ele>
        <time>2020-07-12T08:47:01Z</time>
      </trkpt>
      <trkpt lat="48.41643" lon="2.76092">
        <ele>91</ele>
        <time>2020-07-12T08:47:48Z</time>
      </trkpt>
      <trkpt lat="48.41624" lon="2.76055">
        <ele>88</ele>
        <time>2020-07-12T08:48:25Z</time>
      </trkpt>
      <trkpt lat="48.41617" lon="2.76015">
        <ele>86</ele>
        <time>2020-07-12T08:49:00Z</time>
      </trkpt>
      <trkpt lat="48.41616" lon="2.76002">
        <ele>85</ele>
        <time>2020-07-12T08:49:06Z</time>
      </trkpt>
      <trkpt lat="48.41617" lon="2.76006">
        <ele>84</ele>
        <time>2020-07-12T08:50:27Z</time>
      </trkpt>
      <trkpt lat="48.4163" lon="2.76047">
        <ele>87</ele>
        <time>2020-07-12T08:50:51Z</time>
      </trkpt>
      <trkpt lat="48.41632" lon="2.76062">
        <ele>88</ele>
        <time>2020-07-12T08:50:59Z</time>
      </trkpt>
      <trkpt lat="48.41631" lon="2.76086">
        <ele>89</ele>
        <time>2020-07-12T08:51:16Z</time>
      </trkpt>
      <trkpt lat="48.41638" lon="2.76098">
        <ele>91</ele>
        <time>2020-07-12T08:51:25Z</time>
      </trkpt>
      <trkpt lat="48.41648" lon="2.76151">
        <ele>96</ele>
        <time>2020-07-12T08:52:05Z</time>
      </trkpt>
      <trkpt lat="48.41652" lon="2.76164">
        <ele>98</ele>
        <time>2020-07-12T08:52:13Z</time>
      </trkpt>
      <trkpt lat="48.41655" lon="2.76197">
        <ele>104</ele>
        <time>2020-07-12T08:52:43Z</time>
      </trkpt>
      <trkpt lat="48.41659" lon="2.76215">
        <ele>108</ele>
        <time>2020-07-12T08:53:03Z</time>
      </trkpt>
      <trkpt lat="48.41651" lon="2.76263">
        <ele>114</ele>
        <time>2020-07-12T08:53:37Z</time>
      </trkpt>
      <trkpt lat="48.41649" lon="2.76277">
        <ele>116</ele>
        <time>2020-07-12T08:53:48Z</time>
      </trkpt>
      <trkpt lat="48.4165" lon="2.7629">
        <ele>117</ele>
        <time>2020-07-12T08:53:57Z</time>
      </trkpt>
      <trkpt lat="48.4165" lon="2.76308">
        <ele>119</ele>
        <time>2020-07-12T08:54:08Z</time>
      </trkpt>
      <trkpt lat="48.41652" lon="2.76322">
        <ele>120</ele>
        <time>2020-07-12T08:54:15Z</time>
      </trkpt>
      <trkpt lat="48.4165" lon="2.7635">
        <ele>123</ele>
        <time>2020-07-12T08:54:34Z</time>
      </trkpt>
      <trkpt lat="48.41654" lon="2.76363">
        <ele>124</ele>
        <time>2020-07-12T08:54:43Z</time>
      </trkpt>
      <trkpt lat="48.41657" lon="2.76377">
        <ele>124</ele>
        <time>2020-07-12T08:54:51Z</time>
      </trkpt>
      <trkpt lat="48.41656" lon="2.7642">
        <ele>128</ele>
        <time>2020-07-12T08:55:18Z</time>
      </trkpt>
      <trkpt lat="48.4166" lon="2.76432">
        <ele>129</ele>
        <time>2020-07-12T08:55:25Z</time>
      </trkpt>
      <trkpt lat="48.41662" lon="2.76446">
        <ele>130</ele>
        <time>2020-07-12T08:55:33Z</time>
      </trkpt>
      <trkpt lat="48.41661" lon="2.76452">
        <ele>130</ele>
        <time>2020-07-12T08:55:37Z</time>
      </trkpt>
      <trkpt lat="48.4166" lon="2.76459">
        <ele>130</ele>
        <time>2020-07-12T08:55:41Z</time>
      </trkpt>
      <trkpt lat="48.4166" lon="2.76466">
        <ele>130</ele>
        <time>2020-07-12T08:55:45Z</time>
      </trkpt>
      <trkpt lat="48.41658" lon="2.76473">
        <ele>131</ele>
        <time>2020-07-12T08:55:49Z</time>
      </trkpt>
      <trkpt lat="48.41657" lon="2.7648">
        <ele>131</ele>
        <time>2020-07-12T08:55:53Z</time>
      </trkpt>
      <trkpt lat="48.41654" lon="2.76494">
        <ele>132</ele>
        <time>2020-07-12T08:56:01Z</time>
      </trkpt>
      <trkpt lat="48.41654" lon="2.76501">
        <ele>132</ele>
        <time>2020-07-12T08:56:05Z</time>
      </trkpt>
      <trkpt lat="48.41651" lon="2.76516">
        <ele>132</ele>
        <time>2020-07-12T08:56:13Z</time>
      </trkpt>
      <trkpt lat="48.41651" lon="2.76524">
        <ele>132</ele>
        <time>2020-07-12T08:56:17Z</time>
      </trkpt>
      <trkpt lat="48.41651" lon="2.76533">
        <ele>132</ele>
        <time>2020-07-12T08:56:21Z</time>
      </trkpt>
      <trkpt lat="48.4165" lon="2.76539">
        <ele>132</ele>
        <time>2020-07-12T08:56:25Z</time>
      </trkpt>
      <trkpt lat="48.4165" lon="2.76547">
        <ele>132</ele>
        <time>2020-07-12T08:56:30Z</time>
      </trkpt>
      <trkpt lat="48.41642" lon="2.766">
        <ele>131</ele>
        <time>2020-07-12T08:56:58Z</time>
      </trkpt>
      <trkpt lat="48.41644" lon="2.76615">
        <ele>132</ele>
        <time>2020-07-12T08:57:06Z</time>
      </trkpt>
      <trkpt lat="48.41658" lon="2.76646">
        <ele>136</ele>
        <time>2020-07-12T08:57:29Z</time>
      </trkpt>
      <trkpt lat="48.41662" lon="2.76674">
        <ele>138</ele>
        <time>2020-07-12T08:57:45Z</time>
      </trkpt>
      <trkpt lat="48.41672" lon="2.76699">
        <ele>139</ele>
        <time>2020-07-12T08:58:01Z</time>
      </trkpt>
      <trkpt lat="48.4168" lon="2.76703">
        <ele>140</ele>
        <time>2020-07-12T08:58:10Z</time>
      </trkpt>
      <trkpt lat="48.4169" lon="2.76704">
        <ele>139</ele>
        <time>2020-07-12T08:58:19Z</time>
      </trkpt>
      <trkpt lat="48.41694" lon="2.767">
        <ele>139</ele>
        <time>2020-07-12T08:58:23Z</time>
      </trkpt>
      <trkpt lat="48.417" lon="2.76688">
        <ele>139</ele>
        <time>2020-07-12T08:58:31Z</time>
      </trkpt>
      <trkpt lat="48.41705" lon="2.76686">
        <ele>140</ele>
        <time>2020-07-12T08:58:36Z</time>
      </trkpt>
      <trkpt lat="48.41714" lon="2.76688">
        <ele>140</ele>
        <time>2020-07-12T08:58:44Z</time>
      </trkpt>
      <trkpt lat="48.41726" lon="2.76692">
        <ele>140</ele>
        <time>2020-07-12T08:58:54Z</time>
      </trkpt>
      <trkpt lat="48.41731" lon="2.7669">
        <ele>140</ele>
        <time>2020-07-12T08:58:58Z</time>
      </trkpt>
      <trkpt lat="48.41737" lon="2.76693">
        <ele>141</ele>
        <time>2020-07-12T08:59:02Z</time>
      </trkpt>
      <trkpt lat="48.41755" lon="2.76703">
        <ele>140</ele>
        <time>2020-07-12T08:59:16Z</time>
      </trkpt>
      <trkpt lat="48.41762" lon="2.76712">
        <ele>140</ele>
        <time>2020-07-12T08:59:26Z</time>
      </trkpt>
      <trkpt lat="48.41762" lon="2.76721">
        <ele>140</ele>
        <time>2020-07-12T08:59:30Z</time>
      </trkpt>
      <trkpt lat="48.41761" lon="2.76728">
        <ele>140</ele>
        <time>2020-07-12T08:59:35Z</time>
      </trkpt>
      <trkpt lat="48.41756" lon="2.76735">
        <ele>140</ele>
        <time>2020-07-12T08:59:41Z</time>
      </trkpt>
      <trkpt lat="48.41741" lon="2.76755">
        <ele>142</ele>
        <time>2020-07-12T08:59:54Z</time>
      </trkpt>
      <trkpt lat="48.41738" lon="2.76769">
        <ele>141</ele>
        <time>2020-07-12T09:00:01Z</time>
      </trkpt>
      <trkpt lat="48.41742" lon="2.76782">
        <ele>141</ele>
        <time>2020-07-12T09:00:09Z</time>
      </trkpt>
      <trkpt lat="48.41754" lon="2.76836">
        <ele>143</ele>
        <time>2020-07-12T09:00:42Z</time>
      </trkpt>
      <trkpt lat="48.41757" lon="2.76851">
        <ele>143</ele>
        <time>2020-07-12T09:00:50Z</time>
      </trkpt>
      <trkpt lat="48.41757" lon="2.76892">
        <ele>142</ele>
        <time>2020-07-12T09:01:14Z</time>
      </trkpt>
      <trkpt lat="48.4176" lon="2.76905">
        <ele>141</ele>
        <time>2020-07-12T09:01:21Z</time>
      </trkpt>
      <trkpt lat="48.41767" lon="2.76914">
        <ele>143</ele>
        <time>2020-07-12T09:01:30Z</time>
      </trkpt>
      <trkpt lat="48.41776" lon="2.76919">
        <ele>143</ele>
        <time>2020-07-12T09:01:38Z</time>
      </trkpt>
      <trkpt lat="48.41783" lon="2.76933">
        <ele>142</ele>
        <time>2020-07-12T09:01:55Z</time>
      </trkpt>
      <trkpt lat="48.4179" lon="2.76943">
        <ele>141</ele>
        <time>2020-07-12T09:02:02Z</time>
      </trkpt>
      <trkpt lat="48.41799" lon="2.76942">
        <ele>142</ele>
        <time>2020-07-12T09:02:10Z</time>
      </trkpt>
      <trkpt lat="48.41824" lon="2.7695">
        <ele>142</ele>
        <time>2020-07-12T09:02:30Z</time>
      </trkpt>
      <trkpt lat="48.41819" lon="2.76955">
        <ele>142</ele>
        <time>2020-07-12T09:03:22Z</time>
      </trkpt>
      <trkpt lat="48.41815" lon="2.76952">
        <ele>142</ele>
        <time>2020-07-12T09:03:27Z</time>
      </trkpt>
      <trkpt lat="48.41805" lon="2.76951">
        <ele>142</ele>
        <time>2020-07-12T09:03:34Z</time>
      </trkpt>
      <trkpt lat="48.41794" lon="2.76953">
        <ele>142</ele>
        <time>2020-07-12T09:03:41Z</time>
      </trkpt>
      <trkpt lat="48.41784" lon="2.76952">
        <ele>142</ele>
        <time>2020-07-12T09:03:49Z</time>
      </trkpt>
      <trkpt lat="48.4178" lon="2.76949">
        <ele>141</ele>
        <time>2020-07-12T09:03:53Z</time>
      </trkpt>
      <trkpt lat="48.41774" lon="2.76936">
        <ele>142</ele>
        <time>2020-07-12T09:04:03Z</time>
      </trkpt>
      <trkpt lat="48.41769" lon="2.76931">
        <ele>142</ele>
        <time>2020-07-12T09:04:07Z</time>
      </trkpt>
      <trkpt lat="48.41765" lon="2.76927">
        <ele>142</ele>
        <time>2020-07-12T09:04:11Z</time>
      </trkpt>
      <trkpt lat="48.41765" lon="2.76934">
        <ele>143</ele>
        <time>2020-07-12T09:06:17Z</time>
      </trkpt>
      <trkpt lat="48.41768" lon="2.76948">
        <ele>143</ele>
        <time>2020-07-12T09:06:26Z</time>
      </trkpt>
      <trkpt lat="48.41773" lon="2.76971">
        <ele>141</ele>
        <time>2020-07-12T09:06:44Z</time>
      </trkpt>
      <trkpt lat="48.41772" lon="2.76985">
        <ele>142</ele>
        <time>2020-07-12T09:06:52Z</time>
      </trkpt>
      <trkpt lat="48.41767" lon="2.76998">
        <ele>141</ele>
        <time>2020-07-12T09:07:00Z</time>
      </trkpt>
      <trkpt lat="48.41763" lon="2.77011">
        <ele>141</ele>
        <time>2020-07-12T09:07:08Z</time>
      </trkpt>
      <trkpt lat="48.41767" lon="2.77039">
        <ele>138</ele>
        <time>2020-07-12T09:07:25Z</time>
      </trkpt>
      <trkpt lat="48.41766" lon="2.77054">
        <ele>137</ele>
        <time>2020-07-12T09:07:33Z</time>
      </trkpt>
      <trkpt lat="48.41768" lon="2.77067">
        <ele>137</ele>
        <time>2020-07-12T09:07:42Z</time>
      </trkpt>
      <trkpt lat="48.41769" lon="2.77083">
        <ele>138</ele>
        <time>2020-07-12T09:07:50Z</time>
      </trkpt>
      <trkpt lat="48.41771" lon="2.77096">
        <ele>138</ele>
        <time>2020-07-12T09:07:58Z</time>
      </trkpt>
      <trkpt lat="48.4177" lon="2.77115">
        <ele>139</ele>
        <time>2020-07-12T09:08:11Z</time>
      </trkpt>
      <trkpt lat="48.41765" lon="2.77127">
        <ele>139</ele>
        <time>2020-07-12T09:08:19Z</time>
      </trkpt>
      <trkpt lat="48.41763" lon="2.7714">
        <ele>140</ele>
        <time>2020-07-12T09:08:27Z</time>
      </trkpt>
      <trkpt lat="48.41769" lon="2.77154">
        <ele>141</ele>
        <time>2020-07-12T09:08:38Z</time>
      </trkpt>
      <trkpt lat="48.4178" lon="2.7717">
        <ele>138</ele>
        <time>2020-07-12T09:08:54Z</time>
      </trkpt>
      <trkpt lat="48.41779" lon="2.77185">
        <ele>138</ele>
        <time>2020-07-12T09:09:03Z</time>
      </trkpt>
      <trkpt lat="48.41779" lon="2.77214">
        <ele>137</ele>
        <time>2020-07-12T09:09:19Z</time>
      </trkpt>
      <trkpt lat="48.41778" lon="2.77229">
        <ele>136</ele>
        <time>2020-07-12T09:09:27Z</time>
      </trkpt>
      <trkpt lat="48.4178" lon="2.77258">
        <ele>136</ele>
        <time>2020-07-12T09:09:41Z</time>
      </trkpt>
      <trkpt lat="48.41777" lon="2.77271">
        <ele>136</ele>
        <time>2020-07-12T09:09:49Z</time>
      </trkpt>
      <trkpt lat="48.41781" lon="2.77303">
        <ele>138</ele>
        <time>2020-07-12T09:10:08Z</time>
      </trkpt>
      <trkpt lat="48.4178" lon="2.77318">
        <ele>138</ele>
        <time>2020-07-12T09:10:16Z</time>
      </trkpt>
      <trkpt lat="48.4178" lon="2.77332">
        <ele>138</ele>
        <time>2020-07-12T09:10:23Z</time>
      </trkpt>
      <trkpt lat="48.41783" lon="2.77345">
        <ele>138</ele>
        <time>2020-07-12T09:10:29Z</time>
      </trkpt>
      <trkpt lat="48.41795" lon="2.7737">
        <ele>138</ele>
        <time>2020-07-12T09:10:47Z</time>
      </trkpt>
      <trkpt lat="48.41812" lon="2.77389">
        <ele>135</ele>
        <time>2020-07-12T09:11:06Z</time>
      </trkpt>
      <trkpt lat="48.41814" lon="2.77403">
        <ele>133</ele>
        <time>2020-07-12T09:11:15Z</time>
      </trkpt>
      <trkpt lat="48.41831" lon="2.77429">
        <ele>129</ele>
        <time>2020-07-12T09:11:37Z</time>
      </trkpt>
      <trkpt lat="48.41843" lon="2.77454">
        <ele>127</ele>
        <time>2020-07-12T09:11:51Z</time>
      </trkpt>
      <trkpt lat="48.41862" lon="2.77465">
        <ele>123</ele>
        <time>2020-07-12T09:12:11Z</time>
      </trkpt>
      <trkpt lat="48.41864" lon="2.7748">
        <ele>122</ele>
        <time>2020-07-12T09:12:19Z</time>
      </trkpt>
      <trkpt lat="48.41863" lon="2.77495">
        <ele>121</ele>
        <time>2020-07-12T09:12:27Z</time>
      </trkpt>
      <trkpt lat="48.41873" lon="2.77518">
        <ele>119</ele>
        <time>2020-07-12T09:12:41Z</time>
      </trkpt>
      <trkpt lat="48.41888" lon="2.77548">
        <ele>115</ele>
        <time>2020-07-12T09:13:03Z</time>
      </trkpt>
      <trkpt lat="48.41892" lon="2.77563">
        <ele>114</ele>
        <time>2020-07-12T09:13:12Z</time>
      </trkpt>
      <trkpt lat="48.41898" lon="2.77572">
        <ele>114</ele>
        <time>2020-07-12T09:13:27Z</time>
      </trkpt>
      <trkpt lat="48.41883" lon="2.77592">
        <ele>116</ele>
        <time>2020-07-12T09:13:49Z</time>
      </trkpt>
      <trkpt lat="48.41881" lon="2.77605">
        <ele>116</ele>
        <time>2020-07-12T09:13:56Z</time>
      </trkpt>
      <trkpt lat="48.41871" lon="2.77614">
        <ele>118</ele>
        <time>2020-07-12T09:14:13Z</time>
      </trkpt>
      <trkpt lat="48.41862" lon="2.77619">
        <ele>119</ele>
        <time>2020-07-12T09:14:18Z</time>
      </trkpt>
      <trkpt lat="48.4184" lon="2.77644">
        <ele>121</ele>
        <time>2020-07-12T09:14:41Z</time>
      </trkpt>
      <trkpt lat="48.41829" lon="2.77661">
        <ele>121</ele>
        <time>2020-07-12T09:15:00Z</time>
      </trkpt>
      <trkpt lat="48.41822" lon="2.77671">
        <ele>122</ele>
        <time>2020-07-12T09:15:10Z</time>
      </trkpt>
      <trkpt lat="48.41808" lon="2.77698">
        <ele>122</ele>
        <time>2020-07-12T09:15:29Z</time>
      </trkpt>
      <trkpt lat="48.41801" lon="2.77724">
        <ele>122</ele>
        <time>2020-07-12T09:15:42Z</time>
      </trkpt>
      <trkpt lat="48.41793" lon="2.77729">
        <ele>122</ele>
        <time>2020-07-12T09:15:47Z</time>
      </trkpt>
      <trkpt lat="48.41787" lon="2.77745">
        <ele>123</ele>
        <time>2020-07-12T09:16:02Z</time>
      </trkpt>
      <trkpt lat="48.41788" lon="2.77758">
        <ele>124</ele>
        <time>2020-07-12T09:16:14Z</time>
      </trkpt>
      <trkpt lat="48.41783" lon="2.77772">
        <ele>125</ele>
        <time>2020-07-12T09:16:23Z</time>
      </trkpt>
      <trkpt lat="48.41778" lon="2.77786">
        <ele>125</ele>
        <time>2020-07-12T09:16:35Z</time>
      </trkpt>
      <trkpt lat="48.41775" lon="2.77799">
        <ele>124</ele>
        <time>2020-07-12T09:16:45Z</time>
      </trkpt>
      <trkpt lat="48.41774" lon="2.77813">
        <ele>123</ele>
        <time>2020-07-12T09:16:53Z</time>
      </trkpt>
      <trkpt lat="48.41772" lon="2.77827">
        <ele>125</ele>
        <time>2020-07-12T09:17:07Z</time>
      </trkpt>
      <trkpt lat="48.4177" lon="2.7787">
        <ele>130</ele>
        <time>2020-07-12T09:17:37Z</time>
      </trkpt>
      <trkpt lat="48.41764" lon="2.77892">
        <ele>132</ele>
        <time>2020-07-12T09:17:53Z</time>
      </trkpt>
      <trkpt lat="48.4177" lon="2.77921">
        <ele>131</ele>
        <time>2020-07-12T09:18:12Z</time>
      </trkpt>
      <trkpt lat="48.41767" lon="2.77937">
        <ele>131</ele>
        <time>2020-07-12T09:18:20Z</time>
      </trkpt>
      <trkpt lat="48.41772" lon="2.77964">
        <ele>130</ele>
        <time>2020-07-12T09:18:37Z</time>
      </trkpt>
      <trkpt lat="48.41772" lon="2.77977">
        <ele>130</ele>
        <time>2020-07-12T09:18:43Z</time>
      </trkpt>
      <trkpt lat="48.41773" lon="2.77991">
        <ele>130</ele>
        <time>2020-07-12T09:18:51Z</time>
      </trkpt>
      <trkpt lat="48.41773" lon="2.78006">
        <ele>131</ele>
        <time>2020-07-12T09:18:59Z</time>
      </trkpt>
      <trkpt lat="48.41769" lon="2.7802">
        <ele>132</ele>
        <time>2020-07-12T09:19:08Z</time>
      </trkpt>
      <trkpt lat="48.41766" lon="2.78048">
        <ele>134</ele>
        <time>2020-07-12T09:19:23Z</time>
      </trkpt>
      <trkpt lat="48.41767" lon="2.78062">
        <ele>134</ele>
        <time>2020-07-12T09:19:33Z</time>
      </trkpt>
      <trkpt lat="48.4177" lon="2.78075">
        <ele>134</ele>
        <time>2020-07-12T09:19:41Z</time>
      </trkpt>
      <trkpt lat="48.4177" lon="2.78091">
        <ele>134</ele>
        <time>2020-07-12T09:19:49Z</time>
      </trkpt>
      <trkpt lat="48.41768" lon="2.78118">
        <ele>134</ele>
        <time>2020-07-12T09:20:04Z</time>
      </trkpt>
      <trkpt lat="48.41771" lon="2.78132">
        <ele>134</ele>
        <time>2020-07-12T09:20:13Z</time>
      </trkpt>
      <trkpt lat="48.41771" lon="2.78147">
        <ele>134</ele>
        <time>2020-07-12T09:20:21Z</time>
      </trkpt>
      <trkpt lat="48.41769" lon="2.78161">
        <ele>135</ele>
        <time>2020-07-12T09:20:29Z</time>
      </trkpt>
      <trkpt lat="48.41771" lon="2.78175">
        <ele>134</ele>
        <time>2020-07-12T09:20:38Z</time>
      </trkpt>
      <trkpt lat="48.41782" lon="2.7819">
        <ele>132</ele>
        <time>2020-07-12T09:20:53Z</time>
      </trkpt>
      <trkpt lat="48.41787" lon="2.78203">
        <ele>131</ele>
        <time>2020-07-12T09:21:00Z</time>
      </trkpt>
      <trkpt lat="48.4179" lon="2.78217">
        <ele>130</ele>
        <time>2020-07-12T09:21:08Z</time>
      </trkpt>
      <trkpt lat="48.41801" lon="2.78239">
        <ele>129</ele>
        <time>2020-07-12T09:21:20Z</time>
      </trkpt>
      <trkpt lat="48.41804" lon="2.78253">
        <ele>128</ele>
        <time>2020-07-12T09:21:29Z</time>
      </trkpt>
      <trkpt lat="48.4181" lon="2.78264">
        <ele>126</ele>
        <time>2020-07-12T09:21:36Z</time>
      </trkpt>
      <trkpt lat="48.41818" lon="2.78307">
        <ele>123</ele>
        <time>2020-07-12T09:21:58Z</time>
      </trkpt>
      <trkpt lat="48.4182" lon="2.78335">
        <ele>123</ele>
        <time>2020-07-12T09:22:13Z</time>
      </trkpt>
      <trkpt lat="48.41815" lon="2.78347">
        <ele>122</ele>
        <time>2020-07-12T09:22:21Z</time>
      </trkpt>
      <trkpt lat="48.41815" lon="2.78362">
        <ele>122</ele>
        <time>2020-07-12T09:22:30Z</time>
      </trkpt>
      <trkpt lat="48.41815" lon="2.78378">
        <ele>121</ele>
        <time>2020-07-12T09:22:38Z</time>
      </trkpt>
      <trkpt lat="48.41808" lon="2.78389">
        <ele>120</ele>
        <time>2020-07-12T09:22:43Z</time>
      </trkpt>
      <trkpt lat="48.41798" lon="2.78393">
        <ele>120</ele>
        <time>2020-07-12T09:22:48Z</time>
      </trkpt>
      <trkpt lat="48.41789" lon="2.78397">
        <ele>120</ele>
        <time>2020-07-12T09:22:54Z</time>
      </trkpt>
      <trkpt lat="48.41785" lon="2.7841">
        <ele>120</ele>
        <time>2020-07-12T09:23:00Z</time>
      </trkpt>
      <trkpt lat="48.41784" lon="2.78425">
        <ele>118</ele>
        <time>2020-07-12T09:23:08Z</time>
      </trkpt>
      <trkpt lat="48.41785" lon="2.78454">
        <ele>117</ele>
        <time>2020-07-12T09:23:25Z</time>
      </trkpt>
      <trkpt lat="48.4177" lon="2.78502">
        <ele>116</ele>
        <time>2020-07-12T09:23:50Z</time>
      </trkpt>
      <trkpt lat="48.41764" lon="2.78515">
        <ele>116</ele>
        <time>2020-07-12T09:23:57Z</time>
      </trkpt>
      <trkpt lat="48.41756" lon="2.78523">
        <ele>115</ele>
        <time>2020-07-12T09:24:04Z</time>
      </trkpt>
      <trkpt lat="48.4175" lon="2.78534">
        <ele>115</ele>
        <time>2020-07-12T09:24:10Z</time>
      </trkpt>
      <trkpt lat="48.41742" lon="2.78559">
        <ele>113</ele>
        <time>2020-07-12T09:24:26Z</time>
      </trkpt>
      <trkpt lat="48.4174" lon="2.78589">
        <ele>112</ele>
        <time>2020-07-12T09:24:39Z</time>
      </trkpt>
      <trkpt lat="48.4173" lon="2.78614">
        <ele>112</ele>
        <time>2020-07-12T09:24:52Z</time>
      </trkpt>
      <trkpt lat="48.4173" lon="2.78628">
        <ele>112</ele>
        <time>2020-07-12T09:25:00Z</time>
      </trkpt>
      <trkpt lat="48.41734" lon="2.78641">
        <ele>111</ele>
        <time>2020-07-12T09:25:07Z</time>
      </trkpt>
      <trkpt lat="48.41733" lon="2.78659">
        <ele>111</ele>
        <time>2020-07-12T09:25:18Z</time>
      </trkpt>
      <trkpt lat="48.41717" lon="2.78714">
        <ele>111</ele>
        <time>2020-07-12T09:25:45Z</time>
      </trkpt>
      <trkpt lat="48.4172" lon="2.78727">
        <ele>111</ele>
        <time>2020-07-12T09:25:52Z</time>
      </trkpt>
      <trkpt lat="48.41719" lon="2.78756">
        <ele>111</ele>
        <time>2020-07-12T09:26:05Z</time>
      </trkpt>
      <trkpt lat="48.41708" lon="2.7878">
        <ele>111</ele>
        <time>2020-07-12T09:26:19Z</time>
      </trkpt>
      <trkpt lat="48.41709" lon="2.78795">
        <ele>112</ele>
        <time>2020-07-12T09:26:27Z</time>
      </trkpt>
      <trkpt lat="48.41709" lon="2.78809">
        <ele>111</ele>
        <time>2020-07-12T09:26:35Z</time>
      </trkpt>
      <trkpt lat="48.4171" lon="2.78823">
        <ele>111</ele>
        <time>2020-07-12T09:26:41Z</time>
      </trkpt>
      <trkpt lat="48.41709" lon="2.78837">
        <ele>111</ele>
        <time>2020-07-12T09:26:50Z</time>
      </trkpt>
      <trkpt lat="48.41716" lon="2.78866">
        <ele>111</ele>
        <time>2020-07-12T09:27:04Z</time>
      </trkpt>
      <trkpt lat="48.41712" lon="2.78879">
        <ele>111</ele>
        <time>2020-07-12T09:27:11Z</time>
      </trkpt>
      <trkpt lat="48.4171" lon="2.78893">
        <ele>111</ele>
        <time>2020-07-12T09:27:18Z</time>
      </trkpt>
      <trkpt lat="48.41711" lon="2.78908">
        <ele>111</ele>
        <time>2020-07-12T09:27:27Z</time>
      </trkpt>
      <trkpt lat="48.41711" lon="2.78923">
        <ele>111</ele>
        <time>2020-07-12T09:27:35Z</time>
      </trkpt>
      <trkpt lat="48.41697" lon="2.78962">
        <ele>110</ele>
        <time>2020-07-12T09:27:54Z</time>
      </trkpt>
      <trkpt lat="48.4169" lon="2.78972">
        <ele>110</ele>
        <time>2020-07-12T09:28:01Z</time>
      </trkpt>
      <trkpt lat="48.41687" lon="2.78986">
        <ele>111</ele>
        <time>2020-07-12T09:28:08Z</time>
      </trkpt>
      <trkpt lat="48.41683" lon="2.79">
        <ele>111</ele>
        <time>2020-07-12T09:28:15Z</time>
      </trkpt>
      <trkpt lat="48.41684" lon="2.79013">
        <ele>110</ele>
        <time>2020-07-12T09:28:22Z</time>
      </trkpt>
      <trkpt lat="48.41681" lon="2.79027">
        <ele>110</ele>
        <time>2020-07-12T09:28:30Z</time>
      </trkpt>
      <trkpt lat="48.41681" lon="2.79042">
        <ele>111</ele>
        <time>2020-07-12T09:28:37Z</time>
      </trkpt>
      <trkpt lat="48.41684" lon="2.79057">
        <ele>111</ele>
        <time>2020-07-12T09:28:44Z</time>
      </trkpt>
      <trkpt lat="48.41681" lon="2.79063">
        <ele>111</ele>
        <time>2020-07-12T09:28:48Z</time>
      </trkpt>
      <trkpt lat="48.41677" lon="2.79069">
        <ele>111</ele>
        <time>2020-07-12T09:28:52Z</time>
      </trkpt>
      <trkpt lat="48.41679" lon="2.79076">
        <ele>110</ele>
        <time>2020-07-12T09:28:57Z</time>
      </trkpt>
      <trkpt lat="48.41677" lon="2.79092">
        <ele>109</ele>
        <time>2020-07-12T09:29:05Z</time>
      </trkpt>
      <trkpt lat="48.41678" lon="2.79121">
        <ele>109</ele>
        <time>2020-07-12T09:29:21Z</time>
      </trkpt>
      <trkpt lat="48.41676" lon="2.79129">
        <ele>109</ele>
        <time>2020-07-12T09:29:26Z</time>
      </trkpt>
      <trkpt lat="48.41673" lon="2.79137">
        <ele>109</ele>
        <time>2020-07-12T09:29:29Z</time>
      </trkpt>
      <trkpt lat="48.41674" lon="2.79152">
        <ele>108</ele>
        <time>2020-07-12T09:29:37Z</time>
      </trkpt>
      <trkpt lat="48.41676" lon="2.79158">
        <ele>108</ele>
        <time>2020-07-12T09:29:41Z</time>
      </trkpt>
      <trkpt lat="48.41678" lon="2.79166">
        <ele>108</ele>
        <time>2020-07-12T09:29:45Z</time>
      </trkpt>
      <trkpt lat="48.41678" lon="2.79173">
        <ele>108</ele>
        <time>2020-07-12T09:29:49Z</time>
      </trkpt>
      <trkpt lat="48.41674" lon="2.79185">
        <ele>109</ele>
        <time>2020-07-12T09:30:05Z</time>
      </trkpt>
      <trkpt lat="48.41677" lon="2.79187">
        <ele>109</ele>
        <time>2020-07-12T09:34:02Z</time>
      </trkpt>
      <trkpt lat="48.41675" lon="2.79196">
        <ele>109</ele>
        <time>2020-07-12T09:38:05Z</time>
      </trkpt>
      <trkpt lat="48.41666" lon="2.79187">
        <ele>109</ele>
        <time>2020-07-12T09:39:00Z</time>
      </trkpt>
      <trkpt lat="48.4166" lon="2.79198">
        <ele>110</ele>
        <time>2020-07-12T09:39:07Z</time>
      </trkpt>
      <trkpt lat="48.41646" lon="2.79239">
        <ele>109</ele>
        <time>2020-07-12T09:39:28Z</time>
      </trkpt>
      <trkpt lat="48.41635" lon="2.79261">
        <ele>110</ele>
        <time>2020-07-12T09:39:46Z</time>
      </trkpt>
      <trkpt lat="48.41634" lon="2.79275">
        <ele>110</ele>
        <time>2020-07-12T09:39:52Z</time>
      </trkpt>
      <trkpt lat="48.41635" lon="2.79288">
        <ele>110</ele>
        <time>2020-07-12T09:39:59Z</time>
      </trkpt>
      <trkpt lat="48.41635" lon="2.79308">
        <ele>109</ele>
        <time>2020-07-12T09:40:15Z</time>
      </trkpt>
      <trkpt lat="48.41628" lon="2.79318">
        <ele>109</ele>
        <time>2020-07-12T09:40:21Z</time>
      </trkpt>
      <trkpt lat="48.41624" lon="2.7933">
        <ele>109</ele>
        <time>2020-07-12T09:40:30Z</time>
      </trkpt>
      <trkpt lat="48.41623" lon="2.79344">
        <ele>109</ele>
        <time>2020-07-12T09:40:37Z</time>
      </trkpt>
      <trkpt lat="48.4162" lon="2.79358">
        <ele>109</ele>
        <time>2020-07-12T09:40:44Z</time>
      </trkpt>
      <trkpt lat="48.41617" lon="2.79386">
        <ele>108</ele>
        <time>2020-07-12T09:40:58Z</time>
      </trkpt>
      <trkpt lat="48.41618" lon="2.79401">
        <ele>107</ele>
        <time>2020-07-12T09:41:05Z</time>
      </trkpt>
      <trkpt lat="48.41621" lon="2.79414">
        <ele>107</ele>
        <time>2020-07-12T09:41:11Z</time>
      </trkpt>
      <trkpt lat="48.41621" lon="2.79428">
        <ele>107</ele>
        <time>2020-07-12T09:41:18Z</time>
      </trkpt>
      <trkpt lat="48.41616" lon="2.7944">
        <ele>107</ele>
        <time>2020-07-12T09:41:25Z</time>
      </trkpt>
      <trkpt lat="48.41613" lon="2.79456">
        <ele>107</ele>
        <time>2020-07-12T09:41:33Z</time>
      </trkpt>
      <trkpt lat="48.41617" lon="2.79499">
        <ele>106</ele>
        <time>2020-07-12T09:41:53Z</time>
      </trkpt>
      <trkpt lat="48.41613" lon="2.79511">
        <ele>106</ele>
        <time>2020-07-12T09:41:59Z</time>
      </trkpt>
      <trkpt lat="48.41613" lon="2.79533">
        <ele>106</ele>
        <time>2020-07-12T09:42:09Z</time>
      </trkpt>
      <trkpt lat="48.41607" lon="2.79544">
        <ele>106</ele>
        <time>2020-07-12T09:42:16Z</time>
      </trkpt>
      <trkpt lat="48.41606" lon="2.7956">
        <ele>106</ele>
        <time>2020-07-12T09:42:24Z</time>
      </trkpt>
      <trkpt lat="48.41601" lon="2.79573">
        <ele>106</ele>
        <time>2020-07-12T09:42:30Z</time>
      </trkpt>
      <trkpt lat="48.41595" lon="2.79631">
        <ele>105</ele>
        <time>2020-07-12T09:42:58Z</time>
      </trkpt>
      <trkpt lat="48.41591" lon="2.79645">
        <ele>105</ele>
        <time>2020-07-12T09:43:05Z</time>
      </trkpt>
      <trkpt lat="48.41592" lon="2.7966">
        <ele>105</ele>
        <time>2020-07-12T09:43:12Z</time>
      </trkpt>
      <trkpt lat="48.41582" lon="2.79686">
        <ele>105</ele>
        <time>2020-07-12T09:43:29Z</time>
      </trkpt>
      <trkpt lat="48.41585" lon="2.7973">
        <ele>105</ele>
        <time>2020-07-12T09:43:50Z</time>
      </trkpt>
      <trkpt lat="48.41573" lon="2.79772">
        <ele>105</ele>
        <time>2020-07-12T09:44:11Z</time>
      </trkpt>
      <trkpt lat="48.41573" lon="2.79787">
        <ele>105</ele>
        <time>2020-07-12T09:44:18Z</time>
      </trkpt>
      <trkpt lat="48.41564" lon="2.7983">
        <ele>104</ele>
        <time>2020-07-12T09:44:36Z</time>
      </trkpt>
      <trkpt lat="48.41562" lon="2.79873">
        <ele>104</ele>
        <time>2020-07-12T09:44:56Z</time>
      </trkpt>
      <trkpt lat="48.41568" lon="2.79884">
        <ele>104</ele>
        <time>2020-07-12T09:45:02Z</time>
      </trkpt>
      <trkpt lat="48.41566" lon="2.79898">
        <ele>104</ele>
        <time>2020-07-12T09:45:10Z</time>
      </trkpt>
      <trkpt lat="48.41561" lon="2.79911">
        <ele>104</ele>
        <time>2020-07-12T09:45:17Z</time>
      </trkpt>
      <trkpt lat="48.41559" lon="2.79917">
        <ele>104</ele>
        <time>2020-07-12T09:45:21Z</time>
      </trkpt>
      <trkpt lat="48.41554" lon="2.79916">
        <ele>104</ele>
        <time>2020-07-12T09:45:33Z</time>
      </trkpt>
      <trkpt lat="48.41551" lon="2.79922">
        <ele>104</ele>
        <time>2020-07-12T09:46:06Z</time>
      </trkpt>
      <trkpt lat="48.4155" lon="2.79928">
        <ele>104</ele>
        <time>2020-07-12T09:46:10Z</time>
      </trkpt>
      <trkpt lat="48.41547" lon="2.79943">
        <ele>105</ele>
        <time>2020-07-12T09:46:18Z</time>
      </trkpt>
      <trkpt lat="48.41544" lon="2.79959">
        <ele>105</ele>
        <time>2020-07-12T09:46:26Z</time>
      </trkpt>
      <trkpt lat="48.41543" lon="2.79982">
        <ele>105</ele>
        <time>2020-07-12T09:46:38Z</time>
      </trkpt>
      <trkpt lat="48.41539" lon="2.79992">
        <ele>104</ele>
        <time>2020-07-12T09:46:44Z</time>
      </trkpt>
      <trkpt lat="48.41529" lon="2.80001">
        <ele>104</ele>
        <time>2020-07-12T09:46:52Z</time>
      </trkpt>
      <trkpt lat="48.41524" lon="2.80002">
        <ele>104</ele>
        <time>2020-07-12T09:46:56Z</time>
      </trkpt>
      <trkpt lat="48.41514" lon="2.80003">
        <ele>105</ele>
        <time>2020-07-12T09:47:04Z</time>
      </trkpt>
      <trkpt lat="48.4148" lon="2.80014">
        <ele>105</ele>
        <time>2020-07-12T09:47:34Z</time>
      </trkpt>
      <trkpt lat="48.41439" lon="2.80024">
        <ele>105</ele>
        <time>2020-07-12T09:48:08Z</time>
      </trkpt>
      <trkpt lat="48.41412" lon="2.80032">
        <ele>105</ele>
        <time>2020-07-12T09:48:33Z</time>
      </trkpt>
      <trkpt lat="48.41396" lon="2.80041">
        <ele>105</ele>
        <time>2020-07-12T09:48:43Z</time>
      </trkpt>
      <trkpt lat="48.41367" lon="2.80043">
        <ele>104</ele>
        <time>2020-07-12T09:49:06Z</time>
      </trkpt>
      <trkpt lat="48.4135" lon="2.80055">
        <ele>104</ele>
        <time>2020-07-12T09:49:19Z</time>
      </trkpt>
      <trkpt lat="48.41311" lon="2.80064">
        <ele>104</ele>
        <time>2020-07-12T09:49:52Z</time>
      </trkpt>
      <trkpt lat="48.41263" lon="2.80086">
        <ele>103</ele>
        <time>2020-07-12T09:50:27Z</time>
      </trkpt>
      <trkpt lat="48.41237" lon="2.80088">
        <ele>103</ele>
        <time>2020-07-12T09:50:47Z</time>
      </trkpt>
      <trkpt lat="48.41229" lon="2.80092">
        <ele>103</ele>
        <time>2020-07-12T09:50:56Z</time>
      </trkpt>
      <trkpt lat="48.41202" lon="2.80099">
        <ele>104</ele>
        <time>2020-07-12T09:51:21Z</time>
      </trkpt>
      <trkpt lat="48.41194" lon="2.80105">
        <ele>104</ele>
        <time>2020-07-12T09:51:29Z</time>
      </trkpt>
      <trkpt lat="48.41202" lon="2.80115">
        <ele>104</ele>
        <time>2020-07-12T09:51:44Z</time>
      </trkpt>
      <trkpt lat="48.41206" lon="2.80128">
        <ele>104</ele>
        <time>2020-07-12T09:51:52Z</time>
      </trkpt>
      <trkpt lat="48.41218" lon="2.8015">
        <ele>104</ele>
        <time>2020-07-12T09:52:08Z</time>
      </trkpt>
      <trkpt lat="48.41216" lon="2.80166">
        <ele>104</ele>
        <time>2020-07-12T09:52:16Z</time>
      </trkpt>
      <trkpt lat="48.41226" lon="2.80192">
        <ele>104</ele>
        <time>2020-07-12T09:52:29Z</time>
      </trkpt>
      <trkpt lat="48.41224" lon="2.80201">
        <ele>104</ele>
        <time>2020-07-12T09:52:56Z</time>
      </trkpt>
      <trkpt lat="48.41221" lon="2.80195">
        <ele>104</ele>
        <time>2020-07-12T09:53:01Z</time>
      </trkpt>
      <trkpt lat="48.41217" lon="2.80182">
        <ele>104</ele>
        <time>2020-07-12T09:53:10Z</time>
      </trkpt>
      <trkpt lat="48.41205" lon="2.80157">
        <ele>104</ele>
        <time>2020-07-12T09:53:27Z</time>
      </trkpt>
      <trkpt lat="48.41194" lon="2.80126">
        <ele>104</ele>
        <time>2020-07-12T09:53:45Z</time>
      </trkpt>
      <trkpt lat="48.41194" lon="2.80113">
        <ele>104</ele>
        <time>2020-07-12T09:54:36Z</time>
      </trkpt>
      <trkpt lat="48.41189" lon="2.80099">
        <ele>104</ele>
        <time>2020-07-12T09:54:43Z</time>
      </trkpt>
      <trkpt lat="48.41174" lon="2.80085">
        <ele>103</ele>
        <time>2020-07-12T09:54:57Z</time>
      </trkpt>
      <trkpt lat="48.4117" lon="2.80083">
        <ele>103</ele>
        <time>2020-07-12T09:55:00Z</time>
      </trkpt>
      <trkpt lat="48.41159" lon="2.80084">
        <ele>104</ele>
        <time>2020-07-12T09:55:11Z</time>
      </trkpt>
      <trkpt lat="48.41151" lon="2.80089">
        <ele>104</ele>
        <time>2020-07-12T09:55:19Z</time>
      </trkpt>
      <trkpt lat="48.41146" lon="2.80099">
        <ele>104</ele>
        <time>2020-07-12T09:55:25Z</time>
      </trkpt>
      <trkpt lat="48.4114" lon="2.80115">
        <ele>104</ele>
        <time>2020-07-12T09:55:37Z</time>
      </trkpt>
      <trkpt lat="48.41125" lon="2.80145">
        <ele>104</ele>
        <time>2020-07-12T09:55:58Z</time>
      </trkpt>
      <trkpt lat="48.41117" lon="2.80173">
        <ele>103</ele>
        <time>2020-07-12T09:56:13Z</time>
      </trkpt>
      <trkpt lat="48.41116" lon="2.80189">
        <ele>103</ele>
        <time>2020-07-12T09:56:19Z</time>
      </trkpt>
      <trkpt lat="48.41111" lon="2.80203">
        <ele>103</ele>
        <time>2020-07-12T09:56:24Z</time>
      </trkpt>
      <trkpt lat="48.41084" lon="2.80248">
        <ele>104</ele>
        <time>2020-07-12T09:56:54Z</time>
      </trkpt>
      <trkpt lat="48.4108" lon="2.80274">
        <ele>104</ele>
        <time>2020-07-12T09:57:08Z</time>
      </trkpt>
      <trkpt lat="48.4107" lon="2.80299">
        <ele>104</ele>
        <time>2020-07-12T09:57:25Z</time>
      </trkpt>
      <trkpt lat="48.41063" lon="2.80327">
        <ele>104</ele>
        <time>2020-07-12T09:57:43Z</time>
      </trkpt>
      <trkpt lat="48.41047" lon="2.80363">
        <ele>104</ele>
        <time>2020-07-12T09:58:10Z</time>
      </trkpt>
      <trkpt lat="48.41039" lon="2.80389">
        <ele>105</ele>
        <time>2020-07-12T09:58:24Z</time>
      </trkpt>
      <trkpt lat="48.41033" lon="2.80401">
        <ele>105</ele>
        <time>2020-07-12T09:58:33Z</time>
      </trkpt>
      <trkpt lat="48.41025" lon="2.80427">
        <ele>105</ele>
        <time>2020-07-12T09:58:48Z</time>
      </trkpt>
      <trkpt lat="48.4101" lon="2.80446">
        <ele>105</ele>
        <time>2020-07-12T09:59:04Z</time>
      </trkpt>
      <trkpt lat="48.41006" lon="2.80459">
        <ele>105</ele>
        <time>2020-07-12T09:59:09Z</time>
      </trkpt>
      <trkpt lat="48.41006" lon="2.80479">
        <ele>106</ele>
        <time>2020-07-12T09:59:24Z</time>
      </trkpt>
      <trkpt lat="48.41" lon="2.80488">
        <ele>106</ele>
        <time>2020-07-12T09:59:31Z</time>
      </trkpt>
      <trkpt lat="48.40997" lon="2.80505">
        <ele>106</ele>
        <time>2020-07-12T09:59:43Z</time>
      </trkpt>
      <trkpt lat="48.41003" lon="2.80538">
        <ele>106</ele>
        <time>2020-07-12T10:00:03Z</time>
      </trkpt>
      <trkpt lat="48.41012" lon="2.80541">
        <ele>106</ele>
        <time>2020-07-12T10:00:09Z</time>
      </trkpt>
      <trkpt lat="48.41015" lon="2.80557">
        <ele>106</ele>
        <time>2020-07-12T10:00:19Z</time>
      </trkpt>
      <trkpt lat="48.41008" lon="2.80568">
        <ele>106</ele>
        <time>2020-07-12T10:00:27Z</time>
      </trkpt>
      <trkpt lat="48.41006" lon="2.80582">
        <ele>106</ele>
        <time>2020-07-12T10:00:33Z</time>
      </trkpt>
      <trkpt lat="48.41008" lon="2.80597">
        <ele>107</ele>
        <time>2020-07-12T10:00:43Z</time>
      </trkpt>
      <trkpt lat="48.41004" lon="2.80612">
        <ele>107</ele>
        <time>2020-07-12T10:00:50Z</time>
      </trkpt>
      <trkpt lat="48.40992" lon="2.80635">
        <ele>107</ele>
        <time>2020-07-12T10:01:06Z</time>
      </trkpt>
      <trkpt lat="48.40977" lon="2.80655">
        <ele>107</ele>
        <time>2020-07-12T10:01:19Z</time>
      </trkpt>
      <trkpt lat="48.40972" lon="2.80667">
        <ele>107</ele>
        <time>2020-07-12T10:01:27Z</time>
      </trkpt>
      <trkpt lat="48.40963" lon="2.80674">
        <ele>107</ele>
        <time>2020-07-12T10:01:34Z</time>
      </trkpt>
      <trkpt lat="48.40953" lon="2.80678">
        <ele>107</ele>
        <time>2020-07-12T10:01:41Z</time>
      </trkpt>
      <trkpt lat="48.40935" lon="2.8071">
        <ele>107</ele>
        <time>2020-07-12T10:02:04Z</time>
      </trkpt>
      <trkpt lat="48.40931" lon="2.80722">
        <ele>107</ele>
        <time>2020-07-12T10:02:11Z</time>
      </trkpt>
      <trkpt lat="48.40923" lon="2.80731">
        <ele>108</ele>
        <time>2020-07-12T10:02:19Z</time>
      </trkpt>
      <trkpt lat="48.40913" lon="2.80732">
        <ele>107</ele>
        <time>2020-07-12T10:02:26Z</time>
      </trkpt>
      <trkpt lat="48.40894" lon="2.80738">
        <ele>107</ele>
        <time>2020-07-12T10:02:40Z</time>
      </trkpt>
      <trkpt lat="48.40876" lon="2.80736">
        <ele>107</ele>
        <time>2020-07-12T10:02:52Z</time>
      </trkpt>
      <trkpt lat="48.40867" lon="2.80731">
        <ele>107</ele>
        <time>2020-07-12T10:02:59Z</time>
      </trkpt>
      <trkpt lat="48.40853" lon="2.8069">
        <ele>107</ele>
        <time>2020-07-12T10:03:22Z</time>
      </trkpt>
      <trkpt lat="48.40822" lon="2.8063">
        <ele>107</ele>
        <time>2020-07-12T10:03:54Z</time>
      </trkpt>
      <trkpt lat="48.40803" lon="2.80583">
        <ele>107</ele>
        <time>2020-07-12T10:04:20Z</time>
      </trkpt>
      <trkpt lat="48.40796" lon="2.80573">
        <ele>107</ele>
        <time>2020-07-12T10:04:28Z</time>
      </trkpt>
      <trkpt lat="48.40783" lon="2.80562">
        <ele>107</ele>
        <time>2020-07-12T10:04:44Z</time>
      </trkpt>
      <trkpt lat="48.40779" lon="2.80556">
        <ele>107</ele>
        <time>2020-07-12T10:04:55Z</time>
      </trkpt>
      <trkpt lat="48.40774" lon="2.80553">
        <ele>107</ele>
        <time>2020-07-12T10:04:59Z</time>
      </trkpt>
      <trkpt lat="48.40769" lon="2.80552">
        <ele>106</ele>
        <time>2020-07-12T10:05:04Z</time>
      </trkpt>
      <trkpt lat="48.40766" lon="2.80546">
        <ele>106</ele>
        <time>2020-07-12T10:05:08Z</time>
      </trkpt>
      <trkpt lat="48.40759" lon="2.80523">
        <ele>106</ele>
        <time>2020-07-12T10:05:25Z</time>
      </trkpt>
      <trkpt lat="48.40757" lon="2.80507">
        <ele>106</ele>
        <time>2020-07-12T10:05:33Z</time>
      </trkpt>
      <trkpt lat="48.40757" lon="2.80485">
        <ele>106</ele>
        <time>2020-07-12T10:05:45Z</time>
      </trkpt>
      <trkpt lat="48.40751" lon="2.80455">
        <ele>105</ele>
        <time>2020-07-12T10:06:00Z</time>
      </trkpt>
      <trkpt lat="48.40747" lon="2.80422">
        <ele>104</ele>
        <time>2020-07-12T10:06:16Z</time>
      </trkpt>
      <trkpt lat="48.40743" lon="2.80406">
        <ele>104</ele>
        <time>2020-07-12T10:06:24Z</time>
      </trkpt>
      <trkpt lat="48.4074" lon="2.80399">
        <ele>104</ele>
        <time>2020-07-12T10:06:28Z</time>
      </trkpt>
      <trkpt lat="48.40735" lon="2.80377">
        <ele>103</ele>
        <time>2020-07-12T10:06:41Z</time>
      </trkpt>
      <trkpt lat="48.40733" lon="2.8037">
        <ele>102</ele>
        <time>2020-07-12T10:07:01Z</time>
      </trkpt>
      <trkpt lat="48.4072" lon="2.80332">
        <ele>102</ele>
        <time>2020-07-12T10:07:36Z</time>
      </trkpt>
      <trkpt lat="48.40714" lon="2.80306">
        <ele>100</ele>
        <time>2020-07-12T10:07:50Z</time>
      </trkpt>
      <trkpt lat="48.40694" lon="2.8025">
        <ele>97</ele>
        <time>2020-07-12T10:08:22Z</time>
      </trkpt>
      <trkpt lat="48.40676" lon="2.80214">
        <ele>95</ele>
        <time>2020-07-12T10:08:47Z</time>
      </trkpt>
      <trkpt lat="48.40661" lon="2.80209">
        <ele>94</ele>
        <time>2020-07-12T10:08:58Z</time>
      </trkpt>
      <trkpt lat="48.40651" lon="2.80207">
        <ele>94</ele>
        <time>2020-07-12T10:09:06Z</time>
      </trkpt>
      <trkpt lat="48.40642" lon="2.802">
        <ele>94</ele>
        <time>2020-07-12T10:09:13Z</time>
      </trkpt>
      <trkpt lat="48.40632" lon="2.80197">
        <ele>93</ele>
        <time>2020-07-12T10:09:21Z</time>
      </trkpt>
      <trkpt lat="48.40622" lon="2.80202">
        <ele>93</ele>
        <time>2020-07-12T10:09:29Z</time>
      </trkpt>
      <trkpt lat="48.40595" lon="2.80224">
        <ele>93</ele>
        <time>2020-07-12T10:09:53Z</time>
      </trkpt>
      <trkpt lat="48.40584" lon="2.80228">
        <ele>93</ele>
        <time>2020-07-12T10:10:01Z</time>
      </trkpt>
      <trkpt lat="48.4058" lon="2.80231">
        <ele>93</ele>
        <time>2020-07-12T10:10:04Z</time>
      </trkpt>
      <trkpt lat="48.40577" lon="2.80237">
        <ele>93</ele>
        <time>2020-07-12T10:10:08Z</time>
      </trkpt>
      <trkpt lat="48.40574" lon="2.80244">
        <ele>93</ele>
        <time>2020-07-12T10:10:12Z</time>
      </trkpt>
      <trkpt lat="48.40557" lon="2.80255">
        <ele>94</ele>
        <time>2020-07-12T10:10:27Z</time>
      </trkpt>
      <trkpt lat="48.40538" lon="2.80259">
        <ele>94</ele>
        <time>2020-07-12T10:10:44Z</time>
      </trkpt>
      <trkpt lat="48.40531" lon="2.80263">
        <ele>95</ele>
        <time>2020-07-12T10:11:22Z</time>
      </trkpt>
      <trkpt lat="48.40523" lon="2.80269">
        <ele>94</ele>
        <time>2020-07-12T10:11:30Z</time>
      </trkpt>
      <trkpt lat="48.40517" lon="2.80272">
        <ele>94</ele>
        <time>2020-07-12T10:11:34Z</time>
      </trkpt>
      <trkpt lat="48.40467" lon="2.80287">
        <ele>93</ele>
        <time>2020-07-12T10:12:08Z</time>
      </trkpt>
      <trkpt lat="48.40442" lon="2.80299">
        <ele>93</ele>
        <time>2020-07-12T10:12:28Z</time>
      </trkpt>
      <trkpt lat="48.40437" lon="2.80305">
        <ele>93</ele>
        <time>2020-07-12T10:12:33Z</time>
      </trkpt>
      <trkpt lat="48.40436" lon="2.80313">
        <ele>93</ele>
        <time>2020-07-12T10:12:37Z</time>
      </trkpt>
      <trkpt lat="48.40439" lon="2.8032">
        <ele>93</ele>
        <time>2020-07-12T10:12:41Z</time>
      </trkpt>
      <trkpt lat="48.40437" lon="2.80328">
        <ele>94</ele>
        <time>2020-07-12T10:12:46Z</time>
      </trkpt>
      <trkpt lat="48.40432" lon="2.80334">
        <ele>94</ele>
        <time>2020-07-12T10:12:51Z</time>
      </trkpt>
      <trkpt lat="48.40427" lon="2.80338">
        <ele>94</ele>
        <time>2020-07-12T10:12:56Z</time>
      </trkpt>
      <trkpt lat="48.40407" lon="2.80345">
        <ele>94</ele>
        <time>2020-07-12T10:13:11Z</time>
      </trkpt>
      <trkpt lat="48.40397" lon="2.80352">
        <ele>94</ele>
        <time>2020-07-12T10:13:19Z</time>
      </trkpt>
      <trkpt lat="48.40391" lon="2.80374">
        <ele>95</ele>
        <time>2020-07-12T10:13:31Z</time>
      </trkpt>
      <trkpt lat="48.40362" lon="2.80392">
        <ele>96</ele>
        <time>2020-07-12T10:13:52Z</time>
      </trkpt>
      <trkpt lat="48.40325" lon="2.80422">
        <ele>96</ele>
        <time>2020-07-12T10:14:23Z</time>
      </trkpt>
      <trkpt lat="48.40284" lon="2.8045">
        <ele>96</ele>
        <time>2020-07-12T10:14:56Z</time>
      </trkpt>
      <trkpt lat="48.40276" lon="2.80454">
        <ele>96</ele>
        <time>2020-07-12T10:15:04Z</time>
      </trkpt>
      <trkpt lat="48.40267" lon="2.80448">
        <ele>95</ele>
        <time>2020-07-12T10:15:11Z</time>
      </trkpt>
      <trkpt lat="48.40261" lon="2.80437">
        <ele>95</ele>
        <time>2020-07-12T10:15:17Z</time>
      </trkpt>
      <trkpt lat="48.40251" lon="2.80431">
        <ele>94</ele>
        <time>2020-07-12T10:15:26Z</time>
      </trkpt>
      <trkpt lat="48.40215" lon="2.8045">
        <ele>94</ele>
        <time>2020-07-12T10:15:54Z</time>
      </trkpt>
      <trkpt lat="48.40188" lon="2.80445">
        <ele>93</ele>
        <time>2020-07-12T10:16:14Z</time>
      </trkpt>
      <trkpt lat="48.40161" lon="2.80462">
        <ele>93</ele>
        <time>2020-07-12T10:16:34Z</time>
      </trkpt>
      <trkpt lat="48.40114" lon="2.80478">
        <ele>91</ele>
        <time>2020-07-12T10:17:07Z</time>
      </trkpt>
      <trkpt lat="48.40078" lon="2.80493">
        <ele>87</ele>
        <time>2020-07-12T10:17:35Z</time>
      </trkpt>
      <trkpt lat="48.40063" lon="2.80503">
        <ele>89</ele>
        <time>2020-07-12T10:18:16Z</time>
      </trkpt>
      <trkpt lat="48.40054" lon="2.80507">
        <ele>90</ele>
        <time>2020-07-12T10:18:24Z</time>
      </trkpt>
      <trkpt lat="48.40034" lon="2.80522">
        <ele>91</ele>
        <time>2020-07-12T10:18:46Z</time>
      </trkpt>
      <trkpt lat="48.40024" lon="2.80523">
        <ele>91</ele>
        <time>2020-07-12T10:18:52Z</time>
      </trkpt>
      <trkpt lat="48.40015" lon="2.80527">
        <ele>91</ele>
        <time>2020-07-12T10:18:59Z</time>
      </trkpt>
      <trkpt lat="48.40009" lon="2.80537">
        <ele>92</ele>
        <time>2020-07-12T10:19:07Z</time>
      </trkpt>
      <trkpt lat="48.39998" lon="2.80562">
        <ele>93</ele>
        <time>2020-07-12T10:19:22Z</time>
      </trkpt>
      <trkpt lat="48.39989" lon="2.80568">
        <ele>94</ele>
        <time>2020-07-12T10:19:29Z</time>
      </trkpt>
      <trkpt lat="48.3997" lon="2.80574">
        <ele>94</ele>
        <time>2020-07-12T10:19:43Z</time>
      </trkpt>
      <trkpt lat="48.39961" lon="2.80573">
        <ele>94</ele>
        <time>2020-07-12T10:19:51Z</time>
      </trkpt>
      <trkpt lat="48.39952" lon="2.80578">
        <ele>94</ele>
        <time>2020-07-12T10:19:58Z</time>
      </trkpt>
      <trkpt lat="48.39943" lon="2.80581">
        <ele>95</ele>
        <time>2020-07-12T10:20:07Z</time>
      </trkpt>
      <trkpt lat="48.39921" lon="2.80593">
        <ele>96</ele>
        <time>2020-07-12T10:20:22Z</time>
      </trkpt>
      <trkpt lat="48.39917" lon="2.80597">
        <ele>96</ele>
        <time>2020-07-12T10:20:26Z</time>
      </trkpt>
      <trkpt lat="48.39907" lon="2.80602">
        <ele>96</ele>
        <time>2020-07-12T10:20:34Z</time>
      </trkpt>
      <trkpt lat="48.39902" lon="2.80604">
        <ele>96</ele>
        <time>2020-07-12T10:20:42Z</time>
      </trkpt>
      <trkpt lat="48.39889" lon="2.80616">
        <ele>95</ele>
        <time>2020-07-12T10:21:06Z</time>
      </trkpt>
      <trkpt lat="48.39883" lon="2.8062">
        <ele>94</ele>
        <time>2020-07-12T10:23:57Z</time>
      </trkpt>
      <trkpt lat="48.39878" lon="2.80621">
        <ele>94</ele>
        <time>2020-07-12T10:24:01Z</time>
      </trkpt>
      <trkpt lat="48.39857" lon="2.80625">
        <ele>93</ele>
        <time>2020-07-12T10:24:17Z</time>
      </trkpt>
      <trkpt lat="48.39848" lon="2.80618">
        <ele>92</ele>
        <time>2020-07-12T10:24:25Z</time>
      </trkpt>
      <trkpt lat="48.39844" lon="2.80624">
        <ele>92</ele>
        <time>2020-07-12T10:24:29Z</time>
      </trkpt>
      <trkpt lat="48.39844" lon="2.80632">
        <ele>92</ele>
        <time>2020-07-12T10:24:33Z</time>
      </trkpt>
      <trkpt lat="48.39844" lon="2.80638">
        <ele>92</ele>
        <time>2020-07-12T10:24:37Z</time>
      </trkpt>
      <trkpt lat="48.39846" lon="2.80623">
        <ele>90</ele>
        <time>2020-07-12T10:24:54Z</time>
      </trkpt>
      <trkpt lat="48.39832" lon="2.80557">
        <ele>89</ele>
        <time>2020-07-12T10:25:28Z</time>
      </trkpt>
      <trkpt lat="48.39831" lon="2.8055">
        <ele>89</ele>
        <time>2020-07-12T10:25:32Z</time>
      </trkpt>
      <trkpt lat="48.39826" lon="2.80511">
        <ele>87</ele>
        <time>2020-07-12T10:25:53Z</time>
      </trkpt>
      <trkpt lat="48.39822" lon="2.80506">
        <ele>87</ele>
        <time>2020-07-12T10:25:56Z</time>
      </trkpt>
      <trkpt lat="48.39817" lon="2.80503">
        <ele>86</ele>
        <time>2020-07-12T10:25:59Z</time>
      </trkpt>
      <trkpt lat="48.39782" lon="2.80493">
        <ele>84</ele>
        <time>2020-07-12T10:26:23Z</time>
      </trkpt>
      <trkpt lat="48.39733" lon="2.80495">
        <ele>83</ele>
        <time>2020-07-12T10:26:55Z</time>
      </trkpt>
      <trkpt lat="48.39728" lon="2.80497">
        <ele>83</ele>
        <time>2020-07-12T10:26:59Z</time>
      </trkpt>
      <trkpt lat="48.39724" lon="2.80498">
        <ele>83</ele>
        <time>2020-07-12T10:27:03Z</time>
      </trkpt>
      <trkpt lat="48.39719" lon="2.80497">
        <ele>83</ele>
        <time>2020-07-12T10:27:06Z</time>
      </trkpt>
      <trkpt lat="48.39708" lon="2.80502">
        <ele>83</ele>
        <time>2020-07-12T10:27:15Z</time>
      </trkpt>
      <trkpt lat="48.39698" lon="2.80502">
        <ele>83</ele>
        <time>2020-07-12T10:27:24Z</time>
      </trkpt>
      <trkpt lat="48.3965" lon="2.8052">
        <ele>83</ele>
        <time>2020-07-12T10:28:04Z</time>
      </trkpt>
      <trkpt lat="48.39628" lon="2.80526">
        <ele>83</ele>
        <time>2020-07-12T10:28:20Z</time>
      </trkpt>
      <trkpt lat="48.39614" lon="2.80534">
        <ele>83</ele>
        <time>2020-07-12T10:28:31Z</time>
      </trkpt>
      <trkpt lat="48.39605" lon="2.8054">
        <ele>83</ele>
        <time>2020-07-12T10:28:39Z</time>
      </trkpt>
      <trkpt lat="48.39594" lon="2.80541">
        <ele>83</ele>
        <time>2020-07-12T10:28:46Z</time>
      </trkpt>
      <trkpt lat="48.39583" lon="2.80543">
        <ele>83</ele>
        <time>2020-07-12T10:28:53Z</time>
      </trkpt>
      <trkpt lat="48.39579" lon="2.80545">
        <ele>83</ele>
        <time>2020-07-12T10:28:56Z</time>
      </trkpt>
      <trkpt lat="48.39568" lon="2.80551">
        <ele>83</ele>
        <time>2020-07-12T10:29:04Z</time>
      </trkpt>
      <trkpt lat="48.39563" lon="2.80554">
        <ele>83</ele>
        <time>2020-07-12T10:29:09Z</time>
      </trkpt>
      <trkpt lat="48.39534" lon="2.80562">
        <ele>82</ele>
        <time>2020-07-12T10:29:28Z</time>
      </trkpt>
      <trkpt lat="48.39524" lon="2.80561">
        <ele>82</ele>
        <time>2020-07-12T10:29:35Z</time>
      </trkpt>
      <trkpt lat="48.3952" lon="2.80555">
        <ele>82</ele>
        <time>2020-07-12T10:29:39Z</time>
      </trkpt>
      <trkpt lat="48.39513" lon="2.80526">
        <ele>81</ele>
        <time>2020-07-12T10:29:56Z</time>
      </trkpt>
      <trkpt lat="48.39508" lon="2.80522">
        <ele>81</ele>
        <time>2020-07-12T10:30:00Z</time>
      </trkpt>
      <trkpt lat="48.39502" lon="2.80523">
        <ele>81</ele>
        <time>2020-07-12T10:30:04Z</time>
      </trkpt>
      <trkpt lat="48.39459" lon="2.80536">
        <ele>81</ele>
        <time>2020-07-12T10:30:36Z</time>
      </trkpt>
      <trkpt lat="48.39453" lon="2.80535">
        <ele>81</ele>
        <time>2020-07-12T10:30:43Z</time>
      </trkpt>
      <trkpt lat="48.39443" lon="2.80541">
        <ele>81</ele>
        <time>2020-07-12T10:30:51Z</time>
      </trkpt>
      <trkpt lat="48.39438" lon="2.80544">
        <ele>81</ele>
        <time>2020-07-12T10:30:55Z</time>
      </trkpt>
      <trkpt lat="48.39433" lon="2.80547">
        <ele>81</ele>
        <time>2020-07-12T10:30:59Z</time>
      </trkpt>
      <trkpt lat="48.39425" lon="2.80555">
        <ele>81</ele>
        <time>2020-07-12T10:31:07Z</time>
      </trkpt>
      <trkpt lat="48.3942" lon="2.80559">
        <ele>82</ele>
        <time>2020-07-12T10:31:11Z</time>
      </trkpt>
      <trkpt lat="48.39402" lon="2.80571">
        <ele>82</ele>
        <time>2020-07-12T10:31:28Z</time>
      </trkpt>
      <trkpt lat="48.39397" lon="2.80572">
        <ele>82</ele>
        <time>2020-07-12T10:31:31Z</time>
      </trkpt>
      <trkpt lat="48.39393" lon="2.80577">
        <ele>82</ele>
        <time>2020-07-12T10:31:35Z</time>
      </trkpt>
      <trkpt lat="48.39388" lon="2.80578">
        <ele>82</ele>
        <time>2020-07-12T10:31:39Z</time>
      </trkpt>
      <trkpt lat="48.3938" lon="2.80585">
        <ele>82</ele>
        <time>2020-07-12T10:31:47Z</time>
      </trkpt>
      <trkpt lat="48.39355" lon="2.80598">
        <ele>82</ele>
        <time>2020-07-12T10:32:06Z</time>
      </trkpt>
      <trkpt lat="48.39346" lon="2.80605">
        <ele>82</ele>
        <time>2020-07-12T10:32:15Z</time>
      </trkpt>
      <trkpt lat="48.39341" lon="2.80601">
        <ele>82</ele>
        <time>2020-07-12T10:32:33Z</time>
      </trkpt>
      <trkpt lat="48.39338" lon="2.80596">
        <ele>82</ele>
        <time>2020-07-12T10:32:36Z</time>
      </trkpt>
      <trkpt lat="48.39323" lon="2.80543">
        <ele>79</ele>
        <time>2020-07-12T10:33:06Z</time>
      </trkpt>
      <trkpt lat="48.3932" lon="2.80536">
        <ele>79</ele>
        <time>2020-07-12T10:33:10Z</time>
      </trkpt>
      <trkpt lat="48.39316" lon="2.80531">
        <ele>78</ele>
        <time>2020-07-12T10:33:14Z</time>
      </trkpt>
      <trkpt lat="48.39312" lon="2.80528">
        <ele>78</ele>
        <time>2020-07-12T10:33:19Z</time>
      </trkpt>
      <trkpt lat="48.39305" lon="2.80526">
        <ele>77</ele>
        <time>2020-07-12T10:33:28Z</time>
      </trkpt>
      <trkpt lat="48.39303" lon="2.80518">
        <ele>77</ele>
        <time>2020-07-12T10:33:32Z</time>
      </trkpt>
      <trkpt lat="48.39307" lon="2.80511">
        <ele>77</ele>
        <time>2020-07-12T10:33:37Z</time>
      </trkpt>
      <trkpt lat="48.3931" lon="2.80505">
        <ele>77</ele>
        <time>2020-07-12T10:33:41Z</time>
      </trkpt>
      <trkpt lat="48.39315" lon="2.80502">
        <ele>77</ele>
        <time>2020-07-12T10:33:45Z</time>
      </trkpt>
      <trkpt lat="48.39316" lon="2.80496">
        <ele>76</ele>
        <time>2020-07-12T10:33:49Z</time>
      </trkpt>
      <trkpt lat="48.39313" lon="2.80486">
        <ele>76</ele>
        <time>2020-07-12T10:34:00Z</time>
      </trkpt>
      <trkpt lat="48.39316" lon="2.80477">
        <ele>74</ele>
        <time>2020-07-12T10:34:40Z</time>
      </trkpt>
      <trkpt lat="48.39301" lon="2.80417">
        <ele>70</ele>
        <time>2020-07-12T10:35:12Z</time>
      </trkpt>
      <trkpt lat="48.39297" lon="2.80401">
        <ele>70</ele>
        <time>2020-07-12T10:35:20Z</time>
      </trkpt>
      <trkpt lat="48.39297" lon="2.80394">
        <ele>69</ele>
        <time>2020-07-12T10:35:24Z</time>
      </trkpt>
      <trkpt lat="48.39295" lon="2.80387">
        <ele>68</ele>
        <time>2020-07-12T10:35:28Z</time>
      </trkpt>
      <trkpt lat="48.39291" lon="2.80373">
        <ele>68</ele>
        <time>2020-07-12T10:35:36Z</time>
      </trkpt>
      <trkpt lat="48.39289" lon="2.80364">
        <ele>67</ele>
        <time>2020-07-12T10:35:42Z</time>
      </trkpt>
      <trkpt lat="48.39288" lon="2.80358">
        <ele>67</ele>
        <time>2020-07-12T10:35:46Z</time>
      </trkpt>
      <trkpt lat="48.39286" lon="2.8035">
        <ele>67</ele>
        <time>2020-07-12T10:35:51Z</time>
      </trkpt>
      <trkpt lat="48.39286" lon="2.80338">
        <ele>67</ele>
        <time>2020-07-12T10:36:09Z</time>
      </trkpt>
      <trkpt lat="48.39277" lon="2.80308">
        <ele>66</ele>
        <time>2020-07-12T10:36:25Z</time>
      </trkpt>
      <trkpt lat="48.39282" lon="2.80304">
        <ele>66</ele>
        <time>2020-07-12T10:36:29Z</time>
      </trkpt>
      <trkpt lat="48.39308" lon="2.80299">
        <ele>66</ele>
        <time>2020-07-12T10:36:46Z</time>
      </trkpt>
      <trkpt lat="48.39313" lon="2.80295">
        <ele>66</ele>
        <time>2020-07-12T10:36:50Z</time>
      </trkpt>
      <trkpt lat="48.39311" lon="2.80296">
        <ele>65</ele>
        <time>2020-07-12T10:37:08Z</time>
      </trkpt>
      <trkpt lat="48.39285" lon="2.80305">
        <ele>65</ele>
        <time>2020-07-12T10:37:30Z</time>
      </trkpt>
      <trkpt lat="48.3928" lon="2.80304">
        <ele>65</ele>
        <time>2020-07-12T10:37:34Z</time>
      </trkpt>
      <trkpt lat="48.39276" lon="2.80301">
        <ele>65</ele>
        <time>2020-07-12T10:37:38Z</time>
      </trkpt>
      <trkpt lat="48.39269" lon="2.80269">
        <ele>64</ele>
        <time>2020-07-12T10:37:54Z</time>
      </trkpt>
      <trkpt lat="48.39257" lon="2.80206">
        <ele>62</ele>
        <time>2020-07-12T10:38:26Z</time>
      </trkpt>
      <trkpt lat="48.39246" lon="2.80143">
        <ele>61</ele>
        <time>2020-07-12T10:38:58Z</time>
      </trkpt>
      <trkpt lat="48.3924" lon="2.80097">
        <ele>60</ele>
        <time>2020-07-12T10:39:22Z</time>
      </trkpt>
      <trkpt lat="48.39245" lon="2.80093">
        <ele>60</ele>
        <time>2020-07-12T10:39:26Z</time>
      </trkpt>
      <trkpt lat="48.39247" lon="2.80098">
        <ele>60</ele>
        <time>2020-07-12T10:40:27Z</time>
      </trkpt>
      <trkpt lat="48.39229" lon="2.80123">
        <ele>60</ele>
        <time>2020-07-12T10:40:47Z</time>
      </trkpt>
      <trkpt lat="48.39223" lon="2.80135">
        <ele>60</ele>
        <time>2020-07-12T10:40:56Z</time>
      </trkpt>
      <trkpt lat="48.39211" lon="2.80167">
        <ele>61</ele>
        <time>2020-07-12T10:41:17Z</time>
      </trkpt>
      <trkpt lat="48.3921" lon="2.80175">
        <ele>61</ele>
        <time>2020-07-12T10:41:21Z</time>
      </trkpt>
      <trkpt lat="48.3921" lon="2.80183">
        <ele>61</ele>
        <time>2020-07-12T10:41:26Z</time>
      </trkpt>
      <trkpt lat="48.39207" lon="2.80189">
        <ele>61</ele>
        <time>2020-07-12T10:41:30Z</time>
      </trkpt>
      <trkpt lat="48.39202" lon="2.80193">
        <ele>61</ele>
        <time>2020-07-12T10:41:34Z</time>
      </trkpt>
      <trkpt lat="48.39198" lon="2.80195">
        <ele>61</ele>
        <time>2020-07-12T10:41:49Z</time>
      </trkpt>
      <trkpt lat="48.39195" lon="2.80201">
        <ele>62</ele>
        <time>2020-07-12T10:41:54Z</time>
      </trkpt>
      <trkpt lat="48.39194" lon="2.80209">
        <ele>62</ele>
        <time>2020-07-12T10:41:58Z</time>
      </trkpt>
      <trkpt lat="48.39195" lon="2.80218">
        <ele>62</ele>
        <time>2020-07-12T10:42:02Z</time>
      </trkpt>
      <trkpt lat="48.39197" lon="2.80242">
        <ele>63</ele>
        <time>2020-07-12T10:42:14Z</time>
      </trkpt>
      <trkpt lat="48.39197" lon="2.80259">
        <ele>63</ele>
        <time>2020-07-12T10:42:22Z</time>
      </trkpt>
      <trkpt lat="48.39197" lon="2.80312">
        <ele>64</ele>
        <time>2020-07-12T10:42:51Z</time>
      </trkpt>
      <trkpt lat="48.39194" lon="2.80327">
        <ele>65</ele>
        <time>2020-07-12T10:42:59Z</time>
      </trkpt>
      <trkpt lat="48.3919" lon="2.80333">
        <ele>66</ele>
        <time>2020-07-12T10:43:03Z</time>
      </trkpt>
      <trkpt lat="48.39165" lon="2.80339">
        <ele>66</ele>
        <time>2020-07-12T10:43:22Z</time>
      </trkpt>
      <trkpt lat="48.39155" lon="2.80346">
        <ele>67</ele>
        <time>2020-07-12T10:43:30Z</time>
      </trkpt>
      <trkpt lat="48.39151" lon="2.80351">
        <ele>67</ele>
        <time>2020-07-12T10:43:34Z</time>
      </trkpt>
      <trkpt lat="48.39148" lon="2.80358">
        <ele>67</ele>
        <time>2020-07-12T10:43:38Z</time>
      </trkpt>
      <trkpt lat="48.39147" lon="2.80364">
        <ele>67</ele>
        <time>2020-07-12T10:43:42Z</time>
      </trkpt>
      <trkpt lat="48.39145" lon="2.8038">
        <ele>68</ele>
        <time>2020-07-12T10:43:51Z</time>
      </trkpt>
      <trkpt lat="48.39141" lon="2.80394">
        <ele>68</ele>
        <time>2020-07-12T10:44:00Z</time>
      </trkpt>
      <trkpt lat="48.39137" lon="2.80398">
        <ele>69</ele>
        <time>2020-07-12T10:44:04Z</time>
      </trkpt>
      <trkpt lat="48.39127" lon="2.80396">
        <ele>69</ele>
        <time>2020-07-12T10:44:11Z</time>
      </trkpt>
      <trkpt lat="48.39106" lon="2.80389">
        <ele>68</ele>
        <time>2020-07-12T10:44:27Z</time>
      </trkpt>
      <trkpt lat="48.39073" lon="2.8036">
        <ele>66</ele>
        <time>2020-07-12T10:44:59Z</time>
      </trkpt>
      <trkpt lat="48.39048" lon="2.80328">
        <ele>64</ele>
        <time>2020-07-12T10:45:32Z</time>
      </trkpt>
      <trkpt lat="48.39038" lon="2.80321">
        <ele>64</ele>
        <time>2020-07-12T10:45:40Z</time>
      </trkpt>
      <trkpt lat="48.39035" lon="2.80315">
        <ele>63</ele>
        <time>2020-07-12T10:45:45Z</time>
      </trkpt>
      <trkpt lat="48.3903" lon="2.80312">
        <ele>63</ele>
        <time>2020-07-12T10:45:49Z</time>
      </trkpt>
      <trkpt lat="48.39025" lon="2.80313">
        <ele>63</ele>
        <time>2020-07-12T10:45:53Z</time>
      </trkpt>
      <trkpt lat="48.39021" lon="2.80318">
        <ele>63</ele>
        <time>2020-07-12T10:45:56Z</time>
      </trkpt>
      <trkpt lat="48.39019" lon="2.80325">
        <ele>62</ele>
        <time>2020-07-12T10:45:59Z</time>
      </trkpt>
      <trkpt lat="48.39014" lon="2.80327">
        <ele>62</ele>
        <time>2020-07-12T10:46:04Z</time>
      </trkpt>
      <trkpt lat="48.3901" lon="2.80332">
        <ele>62</ele>
        <time>2020-07-12T10:46:08Z</time>
      </trkpt>
      <trkpt lat="48.39008" lon="2.8034">
        <ele>61</ele>
        <time>2020-07-12T10:46:12Z</time>
      </trkpt>
      <trkpt lat="48.39004" lon="2.80385">
        <ele>60</ele>
        <time>2020-07-12T10:46:36Z</time>
      </trkpt>
      <trkpt lat="48.39007" lon="2.804">
        <ele>59</ele>
        <time>2020-07-12T10:46:44Z</time>
      </trkpt>
      <trkpt lat="48.3902" lon="2.80454">
        <ele>56</ele>
        <time>2020-07-12T10:47:15Z</time>
      </trkpt>
      <trkpt lat="48.39023" lon="2.8046">
        <ele>56</ele>
        <time>2020-07-12T10:47:18Z</time>
      </trkpt>
      <trkpt lat="48.39026" lon="2.80468">
        <ele>56</ele>
        <time>2020-07-12T10:47:23Z</time>
      </trkpt>
      <trkpt lat="48.39031" lon="2.80504">
        <ele>55</ele>
        <time>2020-07-12T10:47:41Z</time>
      </trkpt>
      <trkpt lat="48.3904" lon="2.80524">
        <ele>54</ele>
        <time>2020-07-12T10:47:55Z</time>
      </trkpt>
      <trkpt lat="48.39039" lon="2.80531">
        <ele>53</ele>
        <time>2020-07-12T10:47:59Z</time>
      </trkpt>
      <trkpt lat="48.39038" lon="2.80539">
        <ele>53</ele>
        <time>2020-07-12T10:48:03Z</time>
      </trkpt>
      <trkpt lat="48.39039" lon="2.8057">
        <ele>52</ele>
        <time>2020-07-12T10:48:17Z</time>
      </trkpt>
      <trkpt lat="48.39046" lon="2.80598">
        <ele>51</ele>
        <time>2020-07-12T10:48:32Z</time>
      </trkpt>
      <trkpt lat="48.39046" lon="2.80609">
        <ele>50</ele>
        <time>2020-07-12T10:48:37Z</time>
      </trkpt>
      <trkpt lat="48.39045" lon="2.80617">
        <ele>50</ele>
        <time>2020-07-12T10:48:41Z</time>
      </trkpt>
      <trkpt lat="48.39045" lon="2.80625">
        <ele>50</ele>
        <time>2020-07-12T10:48:45Z</time>
      </trkpt>
      <trkpt lat="48.39047" lon="2.80633">
        <ele>50</ele>
        <time>2020-07-12T10:48:49Z</time>
      </trkpt>
      <trkpt lat="48.39046" lon="2.80641">
        <ele>49</ele>
        <time>2020-07-12T10:48:53Z</time>
      </trkpt>
      <trkpt lat="48.39043" lon="2.80649">
        <ele>49</ele>
        <time>2020-07-12T10:48:57Z</time>
      </trkpt>
      <trkpt lat="48.3904" lon="2.80654">
        <ele>49</ele>
        <time>2020-07-12T10:49:00Z</time>
      </trkpt>
      <trkpt lat="48.39006" lon="2.80693">
        <ele>50</ele>
        <time>2020-07-12T10:49:32Z</time>
      </trkpt>
      <trkpt lat="48.38982" lon="2.8072">
        <ele>50</ele>
        <time>2020-07-12T10:50:20Z</time>
      </trkpt>
      <trkpt lat="48.38957" lon="2.80745">
        <ele>48</ele>
        <time>2020-07-12T10:50:44Z</time>
      </trkpt>
      <trkpt lat="48.38952" lon="2.8075">
        <ele>47</ele>
        <time>2020-07-12T10:51:07Z</time>
      </trkpt>
      <trkpt lat="48.38934" lon="2.80771">
        <ele>46</ele>
        <time>2020-07-12T10:51:23Z</time>
      </trkpt>
      <trkpt lat="48.38925" lon="2.80776">
        <ele>45</ele>
        <time>2020-07-12T10:51:31Z</time>
      </trkpt>
      <trkpt lat="48.38915" lon="2.80776">
        <ele>44</ele>
        <time>2020-07-12T10:51:39Z</time>
      </trkpt>
      <trkpt lat="48.3891" lon="2.80773">
        <ele>44</ele>
        <time>2020-07-12T10:51:43Z</time>
      </trkpt>
      <trkpt lat="48.38901" lon="2.80764">
        <ele>43</ele>
        <time>2020-07-12T10:51:51Z</time>
      </trkpt>
      <trkpt lat="48.38897" lon="2.80758">
        <ele>43</ele>
        <time>2020-07-12T10:51:55Z</time>
      </trkpt>
      <trkpt lat="48.38894" lon="2.80752">
        <ele>43</ele>
        <time>2020-07-12T10:51:59Z</time>
      </trkpt>
      <trkpt lat="48.38891" lon="2.80727">
        <ele>42</ele>
        <time>2020-07-12T10:52:11Z</time>
      </trkpt>
      <trkpt lat="48.38889" lon="2.80719">
        <ele>42</ele>
        <time>2020-07-12T10:52:15Z</time>
      </trkpt>
      <trkpt lat="48.38886" lon="2.80713">
        <ele>42</ele>
        <time>2020-07-12T10:52:19Z</time>
      </trkpt>
      <trkpt lat="48.38877" lon="2.80705">
        <ele>42</ele>
        <time>2020-07-12T10:52:26Z</time>
      </trkpt>
      <trkpt lat="48.38874" lon="2.80699">
        <ele>42</ele>
        <time>2020-07-12T10:52:30Z</time>
      </trkpt>
      <trkpt lat="48.38873" lon="2.80692">
        <ele>42</ele>
        <time>2020-07-12T10:52:34Z</time>
      </trkpt>
      <trkpt lat="48.38849" lon="2.80649">
        <ele>43</ele>
        <time>2020-07-12T10:53:03Z</time>
      </trkpt>
      <trkpt lat="48.38845" lon="2.80645">
        <ele>43</ele>
        <time>2020-07-12T10:53:07Z</time>
      </trkpt>
      <trkpt lat="48.38837" lon="2.80623">
        <ele>43</ele>
        <time>2020-07-12T10:53:20Z</time>
      </trkpt>
      <trkpt lat="48.38835" lon="2.80608">
        <ele>43</ele>
        <time>2020-07-12T10:53:28Z</time>
      </trkpt>
      <trkpt lat="48.38817" lon="2.8057">
        <ele>44</ele>
        <time>2020-07-12T10:53:53Z</time>
      </trkpt>
      <trkpt lat="48.38812" lon="2.80562">
        <ele>44</ele>
        <time>2020-07-12T10:54:18Z</time>
      </trkpt>
      <trkpt lat="48.38811" lon="2.80552">
        <ele>46</ele>
        <time>2020-07-12T10:56:31Z</time>
      </trkpt>
      <trkpt lat="48.38796" lon="2.80522">
        <ele>46</ele>
        <time>2020-07-12T10:57:02Z</time>
      </trkpt>
      <trkpt lat="48.38778" lon="2.80485">
        <ele>47</ele>
        <time>2020-07-12T10:57:27Z</time>
      </trkpt>
      <trkpt lat="48.3877" lon="2.80475">
        <ele>47</ele>
        <time>2020-07-12T10:57:36Z</time>
      </trkpt>
      <trkpt lat="48.38765" lon="2.8047">
        <ele>47</ele>
        <time>2020-07-12T10:57:41Z</time>
      </trkpt>
      <trkpt lat="48.38753" lon="2.80442">
        <ele>47</ele>
        <time>2020-07-12T10:57:57Z</time>
      </trkpt>
      <trkpt lat="48.3875" lon="2.80436">
        <ele>47</ele>
        <time>2020-07-12T10:58:01Z</time>
      </trkpt>
      <trkpt lat="48.3874" lon="2.80417">
        <ele>47</ele>
        <time>2020-07-12T10:58:13Z</time>
      </trkpt>
      <trkpt lat="48.38739" lon="2.8041">
        <ele>47</ele>
        <time>2020-07-12T10:58:16Z</time>
      </trkpt>
      <trkpt lat="48.38736" lon="2.80405">
        <ele>47</ele>
        <time>2020-07-12T10:58:20Z</time>
      </trkpt>
      <trkpt lat="48.38732" lon="2.80399">
        <ele>47</ele>
        <time>2020-07-12T10:58:24Z</time>
      </trkpt>
      <trkpt lat="48.38721" lon="2.80382">
        <ele>47</ele>
        <time>2020-07-12T10:58:36Z</time>
      </trkpt>
      <trkpt lat="48.38717" lon="2.80377">
        <ele>47</ele>
        <time>2020-07-12T10:58:40Z</time>
      </trkpt>
      <trkpt lat="48.38707" lon="2.80369">
        <ele>48</ele>
        <time>2020-07-12T10:58:48Z</time>
      </trkpt>
      <trkpt lat="48.387" lon="2.80358">
        <ele>48</ele>
        <time>2020-07-12T10:58:55Z</time>
      </trkpt>
      <trkpt lat="48.38691" lon="2.80332">
        <ele>47</ele>
        <time>2020-07-12T10:59:09Z</time>
      </trkpt>
      <trkpt lat="48.38692" lon="2.80323">
        <ele>48</ele>
        <time>2020-07-12T10:59:26Z</time>
      </trkpt>
      <trkpt lat="48.38686" lon="2.80316">
        <ele>48</ele>
        <time>2020-07-12T10:59:40Z</time>
      </trkpt>
      <trkpt lat="48.3868" lon="2.80314">
        <ele>48</ele>
        <time>2020-07-12T10:59:44Z</time>
      </trkpt>
      <trkpt lat="48.38669" lon="2.80311">
        <ele>47</ele>
        <time>2020-07-12T10:59:52Z</time>
      </trkpt>
      <trkpt lat="48.38665" lon="2.80307">
        <ele>48</ele>
        <time>2020-07-12T10:59:57Z</time>
      </trkpt>
      <trkpt lat="48.38659" lon="2.80306">
        <ele>48</ele>
        <time>2020-07-12T11:00:02Z</time>
      </trkpt>
      <trkpt lat="48.38659" lon="2.80302">
        <ele>47</ele>
        <time>2020-07-12T11:01:14Z</time>
      </trkpt>
      <trkpt lat="48.38651" lon="2.80275">
        <ele>52</ele>
        <time>2020-07-12T11:01:58Z</time>
      </trkpt>
      <trkpt lat="48.38645" lon="2.80261">
        <ele>52</ele>
        <time>2020-07-12T11:02:06Z</time>
      </trkpt>
      <trkpt lat="48.38643" lon="2.80253">
        <ele>52</ele>
        <time>2020-07-12T11:02:23Z</time>
      </trkpt>
      <trkpt lat="48.38637" lon="2.80231">
        <ele>51</ele>
        <time>2020-07-12T11:02:35Z</time>
      </trkpt>
      <trkpt lat="48.38635" lon="2.80213">
        <ele>46</ele>
        <time>2020-07-12T11:02:55Z</time>
      </trkpt>
      <trkpt lat="48.38672" lon="2.80192">
        <ele>46</ele>
        <time>2020-07-12T11:03:22Z</time>
      </trkpt>
      <trkpt lat="48.38681" lon="2.80182">
        <ele>46</ele>
        <time>2020-07-12T11:03:30Z</time>
      </trkpt>
      <trkpt lat="48.38694" lon="2.8017">
        <ele>46</ele>
        <time>2020-07-12T11:03:42Z</time>
      </trkpt>
      <trkpt lat="48.38712" lon="2.80143">
        <ele>47</ele>
        <time>2020-07-12T11:04:01Z</time>
      </trkpt>
      <trkpt lat="48.38713" lon="2.80136">
        <ele>47</ele>
        <time>2020-07-12T11:04:05Z</time>
      </trkpt>
      <trkpt lat="48.38716" lon="2.80129">
        <ele>47</ele>
        <time>2020-07-12T11:04:09Z</time>
      </trkpt>
      <trkpt lat="48.38718" lon="2.80122">
        <ele>47</ele>
        <time>2020-07-12T11:04:13Z</time>
      </trkpt>
      <trkpt lat="48.3872" lon="2.80115">
        <ele>47</ele>
        <time>2020-07-12T11:04:17Z</time>
      </trkpt>
      <trkpt lat="48.38723" lon="2.80107">
        <ele>46</ele>
        <time>2020-07-12T11:04:21Z</time>
      </trkpt>
      <trkpt lat="48.3873" lon="2.80071">
        <ele>46</ele>
        <time>2020-07-12T11:04:42Z</time>
      </trkpt>
      <trkpt lat="48.38729" lon="2.80054">
        <ele>46</ele>
        <time>2020-07-12T11:04:50Z</time>
      </trkpt>
      <trkpt lat="48.38733" lon="2.80039">
        <ele>46</ele>
        <time>2020-07-12T11:04:58Z</time>
      </trkpt>
      <trkpt lat="48.38734" lon="2.79984">
        <ele>46</ele>
        <time>2020-07-12T11:05:26Z</time>
      </trkpt>
      <trkpt lat="48.38736" lon="2.79979">
        <ele>46</ele>
        <time>2020-07-12T11:05:31Z</time>
      </trkpt>
      <trkpt lat="48.38739" lon="2.79973">
        <ele>45</ele>
        <time>2020-07-12T11:05:39Z</time>
      </trkpt>
      <trkpt lat="48.3874" lon="2.79962">
        <ele>45</ele>
        <time>2020-07-12T11:06:07Z</time>
      </trkpt>
      <trkpt lat="48.38742" lon="2.79955">
        <ele>45</ele>
        <time>2020-07-12T11:06:12Z</time>
      </trkpt>
      <trkpt lat="48.38743" lon="2.79947">
        <ele>45</ele>
        <time>2020-07-12T11:06:17Z</time>
      </trkpt>
      <trkpt lat="48.38742" lon="2.7994">
        <ele>45</ele>
        <time>2020-07-12T11:06:21Z</time>
      </trkpt>
      <trkpt lat="48.38744" lon="2.79924">
        <ele>45</ele>
        <time>2020-07-12T11:06:30Z</time>
      </trkpt>
      <trkpt lat="48.38743" lon="2.79917">
        <ele>45</ele>
        <time>2020-07-12T11:06:35Z</time>
      </trkpt>
      <trkpt lat="48.38746" lon="2.79907">
        <ele>45</ele>
        <time>2020-07-12T11:06:42Z</time>
      </trkpt>
      <trkpt lat="48.38744" lon="2.799">
        <ele>45</ele>
        <time>2020-07-12T11:06:46Z</time>
      </trkpt>
      <trkpt lat="48.38745" lon="2.79892">
        <ele>45</ele>
        <time>2020-07-12T11:06:51Z</time>
      </trkpt>
      <trkpt lat="48.3875" lon="2.79869">
        <ele>46</ele>
        <time>2020-07-12T11:07:05Z</time>
      </trkpt>
      <trkpt lat="48.3875" lon="2.79862">
        <ele>46</ele>
        <time>2020-07-12T11:07:09Z</time>
      </trkpt>
      <trkpt lat="48.38752" lon="2.79855">
        <ele>46</ele>
        <time>2020-07-12T11:07:13Z</time>
      </trkpt>
      <trkpt lat="48.3875" lon="2.7984">
        <ele>46</ele>
        <time>2020-07-12T11:07:22Z</time>
      </trkpt>
      <trkpt lat="48.38754" lon="2.79821">
        <ele>46</ele>
        <time>2020-07-12T11:07:33Z</time>
      </trkpt>
      <trkpt lat="48.38754" lon="2.79806">
        <ele>46</ele>
        <time>2020-07-12T11:07:40Z</time>
      </trkpt>
      <trkpt lat="48.38753" lon="2.79791">
        <ele>46</ele>
        <time>2020-07-12T11:07:47Z</time>
      </trkpt>
      <trkpt lat="48.38752" lon="2.79783">
        <ele>45</ele>
        <time>2020-07-12T11:07:52Z</time>
      </trkpt>
      <trkpt lat="48.38749" lon="2.7976">
        <ele>44</ele>
        <time>2020-07-12T11:08:05Z</time>
      </trkpt>
      <trkpt lat="48.3875" lon="2.79752">
        <ele>44</ele>
        <time>2020-07-12T11:08:09Z</time>
      </trkpt>
      <trkpt lat="48.38744" lon="2.79691">
        <ele>45</ele>
        <time>2020-07-12T11:08:41Z</time>
      </trkpt>
      <trkpt lat="48.38744" lon="2.79684">
        <ele>45</ele>
        <time>2020-07-12T11:08:45Z</time>
      </trkpt>
      <trkpt lat="48.38747" lon="2.7967">
        <ele>45</ele>
        <time>2020-07-12T11:08:53Z</time>
      </trkpt>
      <trkpt lat="48.38746" lon="2.79651">
        <ele>45</ele>
        <time>2020-07-12T11:09:33Z</time>
      </trkpt>
      <trkpt lat="48.38745" lon="2.79643">
        <ele>45</ele>
        <time>2020-07-12T11:09:38Z</time>
      </trkpt>
      <trkpt lat="48.38743" lon="2.79612">
        <ele>45</ele>
        <time>2020-07-12T11:09:56Z</time>
      </trkpt>
      <trkpt lat="48.38742" lon="2.79604">
        <ele>45</ele>
        <time>2020-07-12T11:10:01Z</time>
      </trkpt>
      <trkpt lat="48.38744" lon="2.79597">
        <ele>46</ele>
        <time>2020-07-12T11:10:05Z</time>
      </trkpt>
      <trkpt lat="48.3875" lon="2.79597">
        <ele>46</ele>
        <time>2020-07-12T11:10:26Z</time>
      </trkpt>
      <trkpt lat="48.38742" lon="2.79598">
        <ele>48</ele>
        <time>2020-07-12T12:16:44Z</time>
      </trkpt>
      <trkpt lat="48.38747" lon="2.79605">
        <ele>48</ele>
        <time>2020-07-12T12:17:10Z</time>
      </trkpt>
      <trkpt lat="48.38751" lon="2.79601">
        <ele>48</ele>
        <time>2020-07-12T12:17:19Z</time>
      </trkpt>
      <trkpt lat="48.38745" lon="2.79598">
        <ele>48</ele>
        <time>2020-07-12T12:18:20Z</time>
      </trkpt>
      <trkpt lat="48.38747" lon="2.79591">
        <ele>49</ele>
        <time>2020-07-12T12:21:35Z</time>
      </trkpt>
      <trkpt lat="48.38745" lon="2.79574">
        <ele>49</ele>
        <time>2020-07-12T12:21:50Z</time>
      </trkpt>
      <trkpt lat="48.38745" lon="2.7955">
        <ele>49</ele>
        <time>2020-07-12T12:22:02Z</time>
      </trkpt>
      <trkpt lat="48.38746" lon="2.79542">
        <ele>49</ele>
        <time>2020-07-12T12:22:06Z</time>
      </trkpt>
      <trkpt lat="48.3874" lon="2.79476">
        <ele>49</ele>
        <time>2020-07-12T12:22:42Z</time>
      </trkpt>
      <trkpt lat="48.38741" lon="2.7946">
        <ele>49</ele>
        <time>2020-07-12T12:22:49Z</time>
      </trkpt>
      <trkpt lat="48.38737" lon="2.79419">
        <ele>48</ele>
        <time>2020-07-12T12:23:09Z</time>
      </trkpt>
      <trkpt lat="48.38737" lon="2.79405">
        <ele>48</ele>
        <time>2020-07-12T12:23:16Z</time>
      </trkpt>
      <trkpt lat="48.38733" lon="2.79384">
        <ele>48</ele>
        <time>2020-07-12T12:23:51Z</time>
      </trkpt>
      <trkpt lat="48.38732" lon="2.79376">
        <ele>48</ele>
        <time>2020-07-12T12:23:55Z</time>
      </trkpt>
      <trkpt lat="48.38733" lon="2.79367">
        <ele>48</ele>
        <time>2020-07-12T12:24:03Z</time>
      </trkpt>
      <trkpt lat="48.38733" lon="2.79352">
        <ele>48</ele>
        <time>2020-07-12T12:24:10Z</time>
      </trkpt>
      <trkpt lat="48.38731" lon="2.79344">
        <ele>48</ele>
        <time>2020-07-12T12:24:13Z</time>
      </trkpt>
      <trkpt lat="48.38729" lon="2.79338">
        <ele>48</ele>
        <time>2020-07-12T12:24:16Z</time>
      </trkpt>
      <trkpt lat="48.38728" lon="2.7933">
        <ele>48</ele>
        <time>2020-07-12T12:24:20Z</time>
      </trkpt>
      <trkpt lat="48.38732" lon="2.79315">
        <ele>48</ele>
        <time>2020-07-12T12:24:27Z</time>
      </trkpt>
      <trkpt lat="48.38732" lon="2.79304">
        <ele>48</ele>
        <time>2020-07-12T12:24:35Z</time>
      </trkpt>
      <trkpt lat="48.38734" lon="2.79296">
        <ele>48</ele>
        <time>2020-07-12T12:24:39Z</time>
      </trkpt>
      <trkpt lat="48.38734" lon="2.79289">
        <ele>48</ele>
        <time>2020-07-12T12:24:42Z</time>
      </trkpt>
      <trkpt lat="48.38729" lon="2.79273">
        <ele>48</ele>
        <time>2020-07-12T12:24:50Z</time>
      </trkpt>
      <trkpt lat="48.38728" lon="2.79265">
        <ele>48</ele>
        <time>2020-07-12T12:24:54Z</time>
      </trkpt>
      <trkpt lat="48.38729" lon="2.79257">
        <ele>47</ele>
        <time>2020-07-12T12:24:58Z</time>
      </trkpt>
      <trkpt lat="48.38731" lon="2.79248">
        <ele>47</ele>
        <time>2020-07-12T12:25:02Z</time>
      </trkpt>
      <trkpt lat="48.3873" lon="2.79241">
        <ele>47</ele>
        <time>2020-07-12T12:25:05Z</time>
      </trkpt>
      <trkpt lat="48.38728" lon="2.79234">
        <ele>47</ele>
        <time>2020-07-12T12:25:09Z</time>
      </trkpt>
      <trkpt lat="48.3873" lon="2.79225">
        <ele>47</ele>
        <time>2020-07-12T12:25:14Z</time>
      </trkpt>
      <trkpt lat="48.38734" lon="2.79219">
        <ele>47</ele>
        <time>2020-07-12T12:25:18Z</time>
      </trkpt>
      <trkpt lat="48.38742" lon="2.79193">
        <ele>47</ele>
        <time>2020-07-12T12:25:34Z</time>
      </trkpt>
      <trkpt lat="48.38744" lon="2.79186">
        <ele>47</ele>
        <time>2020-07-12T12:25:38Z</time>
      </trkpt>
      <trkpt lat="48.38749" lon="2.79173">
        <ele>48</ele>
        <time>2020-07-12T12:25:48Z</time>
      </trkpt>
      <trkpt lat="48.38752" lon="2.79165">
        <ele>48</ele>
        <time>2020-07-12T12:25:53Z</time>
      </trkpt>
      <trkpt lat="48.38756" lon="2.7916">
        <ele>47</ele>
        <time>2020-07-12T12:25:58Z</time>
      </trkpt>
      <trkpt lat="48.38764" lon="2.79143">
        <ele>48</ele>
        <time>2020-07-12T12:26:12Z</time>
      </trkpt>
      <trkpt lat="48.38766" lon="2.79137">
        <ele>48</ele>
        <time>2020-07-12T12:26:16Z</time>
      </trkpt>
      <trkpt lat="48.38771" lon="2.79134">
        <ele>48</ele>
        <time>2020-07-12T12:26:20Z</time>
      </trkpt>
      <trkpt lat="48.38776" lon="2.7912">
        <ele>48</ele>
        <time>2020-07-12T12:26:27Z</time>
      </trkpt>
      <trkpt lat="48.38774" lon="2.79112">
        <ele>48</ele>
        <time>2020-07-12T12:26:31Z</time>
      </trkpt>
      <trkpt lat="48.38773" lon="2.79106">
        <ele>48</ele>
        <time>2020-07-12T12:26:36Z</time>
      </trkpt>
      <trkpt lat="48.38779" lon="2.7909">
        <ele>49</ele>
        <time>2020-07-12T12:26:52Z</time>
      </trkpt>
      <trkpt lat="48.38793" lon="2.79059">
        <ele>50</ele>
        <time>2020-07-12T12:27:12Z</time>
      </trkpt>
      <trkpt lat="48.38799" lon="2.79049">
        <ele>50</ele>
        <time>2020-07-12T12:27:20Z</time>
      </trkpt>
      <trkpt lat="48.38847" lon="2.79016">
        <ele>49</ele>
        <time>2020-07-12T12:28:04Z</time>
      </trkpt>
      <trkpt lat="48.38882" lon="2.78988">
        <ele>49</ele>
        <time>2020-07-12T12:28:35Z</time>
      </trkpt>
      <trkpt lat="48.3889" lon="2.7898">
        <ele>49</ele>
        <time>2020-07-12T12:28:43Z</time>
      </trkpt>
      <trkpt lat="48.38925" lon="2.78957">
        <ele>50</ele>
        <time>2020-07-12T12:29:11Z</time>
      </trkpt>
      <trkpt lat="48.38929" lon="2.78951">
        <ele>50</ele>
        <time>2020-07-12T12:29:16Z</time>
      </trkpt>
      <trkpt lat="48.38939" lon="2.78947">
        <ele>50</ele>
        <time>2020-07-12T12:29:24Z</time>
      </trkpt>
      <trkpt lat="48.38944" lon="2.78947">
        <ele>50</ele>
        <time>2020-07-12T12:29:29Z</time>
      </trkpt>
      <trkpt lat="48.38987" lon="2.7893">
        <ele>50</ele>
        <time>2020-07-12T12:30:00Z</time>
      </trkpt>
      <trkpt lat="48.38997" lon="2.78926">
        <ele>50</ele>
        <time>2020-07-12T12:30:08Z</time>
      </trkpt>
      <trkpt lat="48.39001" lon="2.78922">
        <ele>50</ele>
        <time>2020-07-12T12:30:13Z</time>
      </trkpt>
      <trkpt lat="48.3901" lon="2.7892">
        <ele>50</ele>
        <time>2020-07-12T12:30:20Z</time>
      </trkpt>
      <trkpt lat="48.39051" lon="2.78896">
        <ele>50</ele>
        <time>2020-07-12T12:30:52Z</time>
      </trkpt>
      <trkpt lat="48.39062" lon="2.78895">
        <ele>50</ele>
        <time>2020-07-12T12:31:00Z</time>
      </trkpt>
      <trkpt lat="48.39103" lon="2.78879">
        <ele>49</ele>
        <time>2020-07-12T12:31:32Z</time>
      </trkpt>
      <trkpt lat="48.39122" lon="2.78868">
        <ele>49</ele>
        <time>2020-07-12T12:31:47Z</time>
      </trkpt>
      <trkpt lat="48.39127" lon="2.78869">
        <ele>49</ele>
        <time>2020-07-12T12:31:50Z</time>
      </trkpt>
      <trkpt lat="48.39131" lon="2.78872">
        <ele>49</ele>
        <time>2020-07-12T12:31:53Z</time>
      </trkpt>
      <trkpt lat="48.39136" lon="2.78873">
        <ele>48</ele>
        <time>2020-07-12T12:31:56Z</time>
      </trkpt>
      <trkpt lat="48.39152" lon="2.78869">
        <ele>48</ele>
        <time>2020-07-12T12:32:08Z</time>
      </trkpt>
      <trkpt lat="48.39161" lon="2.78871">
        <ele>49</ele>
        <time>2020-07-12T12:32:16Z</time>
      </trkpt>
      <trkpt lat="48.39179" lon="2.78874">
        <ele>48</ele>
        <time>2020-07-12T12:32:31Z</time>
      </trkpt>
      <trkpt lat="48.39213" lon="2.78873">
        <ele>48</ele>
        <time>2020-07-12T12:32:55Z</time>
      </trkpt>
      <trkpt lat="48.39223" lon="2.78877">
        <ele>48</ele>
        <time>2020-07-12T12:33:03Z</time>
      </trkpt>
      <trkpt lat="48.39247" lon="2.78874">
        <ele>48</ele>
        <time>2020-07-12T12:33:20Z</time>
      </trkpt>
      <trkpt lat="48.39256" lon="2.78879">
        <ele>48</ele>
        <time>2020-07-12T12:33:28Z</time>
      </trkpt>
      <trkpt lat="48.39277" lon="2.78878">
        <ele>48</ele>
        <time>2020-07-12T12:33:44Z</time>
      </trkpt>
      <trkpt lat="48.39298" lon="2.78875">
        <ele>48</ele>
        <time>2020-07-12T12:33:59Z</time>
      </trkpt>
      <trkpt lat="48.39329" lon="2.78878">
        <ele>47</ele>
        <time>2020-07-12T12:34:23Z</time>
      </trkpt>
      <trkpt lat="48.39345" lon="2.78875">
        <ele>47</ele>
        <time>2020-07-12T12:34:35Z</time>
      </trkpt>
      <trkpt lat="48.39355" lon="2.78876">
        <ele>47</ele>
        <time>2020-07-12T12:34:42Z</time>
      </trkpt>
      <trkpt lat="48.39366" lon="2.78871">
        <ele>47</ele>
        <time>2020-07-12T12:34:49Z</time>
      </trkpt>
      <trkpt lat="48.39371" lon="2.78871">
        <ele>47</ele>
        <time>2020-07-12T12:34:53Z</time>
      </trkpt>
      <trkpt lat="48.39377" lon="2.78872">
        <ele>47</ele>
        <time>2020-07-12T12:34:57Z</time>
      </trkpt>
      <trkpt lat="48.39386" lon="2.78877">
        <ele>47</ele>
        <time>2020-07-12T12:35:04Z</time>
      </trkpt>
      <trkpt lat="48.39391" lon="2.78878">
        <ele>47</ele>
        <time>2020-07-12T12:35:08Z</time>
      </trkpt>
      <trkpt lat="48.39403" lon="2.78879">
        <ele>47</ele>
        <time>2020-07-12T12:35:16Z</time>
      </trkpt>
      <trkpt lat="48.39408" lon="2.78878">
        <ele>47</ele>
        <time>2020-07-12T12:35:20Z</time>
      </trkpt>
      <trkpt lat="48.39414" lon="2.78878">
        <ele>47</ele>
        <time>2020-07-12T12:35:24Z</time>
      </trkpt>
      <trkpt lat="48.39425" lon="2.7888">
        <ele>46</ele>
        <time>2020-07-12T12:35:32Z</time>
      </trkpt>
      <trkpt lat="48.39439" lon="2.78878">
        <ele>46</ele>
        <time>2020-07-12T12:35:42Z</time>
      </trkpt>
      <trkpt lat="48.39453" lon="2.78881">
        <ele>46</ele>
        <time>2020-07-12T12:35:52Z</time>
      </trkpt>
      <trkpt lat="48.39459" lon="2.78881">
        <ele>46</ele>
        <time>2020-07-12T12:35:56Z</time>
      </trkpt>
      <trkpt lat="48.39485" lon="2.78882">
        <ele>46</ele>
        <time>2020-07-12T12:36:15Z</time>
      </trkpt>
      <trkpt lat="48.39522" lon="2.78896">
        <ele>46</ele>
        <time>2020-07-12T12:36:43Z</time>
      </trkpt>
      <trkpt lat="48.39533" lon="2.78896">
        <ele>46</ele>
        <time>2020-07-12T12:36:51Z</time>
      </trkpt>
      <trkpt lat="48.39549" lon="2.78902">
        <ele>46</ele>
        <time>2020-07-12T12:37:03Z</time>
      </trkpt>
      <trkpt lat="48.39559" lon="2.78902">
        <ele>46</ele>
        <time>2020-07-12T12:37:11Z</time>
      </trkpt>
      <trkpt lat="48.39602" lon="2.78909">
        <ele>46</ele>
        <time>2020-07-12T12:37:43Z</time>
      </trkpt>
      <trkpt lat="48.39644" lon="2.78914">
        <ele>46</ele>
        <time>2020-07-12T12:38:15Z</time>
      </trkpt>
      <trkpt lat="48.39649" lon="2.78917">
        <ele>46</ele>
        <time>2020-07-12T12:38:19Z</time>
      </trkpt>
      <trkpt lat="48.39655" lon="2.78917">
        <ele>46</ele>
        <time>2020-07-12T12:38:23Z</time>
      </trkpt>
      <trkpt lat="48.39666" lon="2.78916">
        <ele>47</ele>
        <time>2020-07-12T12:38:31Z</time>
      </trkpt>
      <trkpt lat="48.39672" lon="2.78916">
        <ele>47</ele>
        <time>2020-07-12T12:38:35Z</time>
      </trkpt>
      <trkpt lat="48.39681" lon="2.78923">
        <ele>47</ele>
        <time>2020-07-12T12:38:42Z</time>
      </trkpt>
      <trkpt lat="48.39692" lon="2.78925">
        <ele>47</ele>
        <time>2020-07-12T12:38:50Z</time>
      </trkpt>
      <trkpt lat="48.39702" lon="2.7893">
        <ele>48</ele>
        <time>2020-07-12T12:38:59Z</time>
      </trkpt>
      <trkpt lat="48.39704" lon="2.78925">
        <ele>47</ele>
        <time>2020-07-12T12:39:20Z</time>
      </trkpt>
      <trkpt lat="48.39709" lon="2.78927">
        <ele>48</ele>
        <time>2020-07-12T12:39:24Z</time>
      </trkpt>
      <trkpt lat="48.39715" lon="2.78926">
        <ele>47</ele>
        <time>2020-07-12T12:39:33Z</time>
      </trkpt>
      <trkpt lat="48.39754" lon="2.78943">
        <ele>47</ele>
        <time>2020-07-12T12:40:04Z</time>
      </trkpt>
      <trkpt lat="48.39774" lon="2.78951">
        <ele>48</ele>
        <time>2020-07-12T12:40:19Z</time>
      </trkpt>
      <trkpt lat="48.39779" lon="2.78955">
        <ele>48</ele>
        <time>2020-07-12T12:40:22Z</time>
      </trkpt>
      <trkpt lat="48.39784" lon="2.78954">
        <ele>48</ele>
        <time>2020-07-12T12:40:26Z</time>
      </trkpt>
      <trkpt lat="48.39795" lon="2.78956">
        <ele>47</ele>
        <time>2020-07-12T12:40:34Z</time>
      </trkpt>
      <trkpt lat="48.39839" lon="2.78978">
        <ele>47</ele>
        <time>2020-07-12T12:41:06Z</time>
      </trkpt>
      <trkpt lat="48.39861" lon="2.78983">
        <ele>47</ele>
        <time>2020-07-12T12:41:22Z</time>
      </trkpt>
      <trkpt lat="48.39866" lon="2.78988">
        <ele>47</ele>
        <time>2020-07-12T12:41:26Z</time>
      </trkpt>
      <trkpt lat="48.39872" lon="2.78987">
        <ele>47</ele>
        <time>2020-07-12T12:41:30Z</time>
      </trkpt>
      <trkpt lat="48.39877" lon="2.78986">
        <ele>47</ele>
        <time>2020-07-12T12:41:33Z</time>
      </trkpt>
      <trkpt lat="48.39921" lon="2.78996">
        <ele>47</ele>
        <time>2020-07-12T12:42:05Z</time>
      </trkpt>
      <trkpt lat="48.39957" lon="2.79011">
        <ele>47</ele>
        <time>2020-07-12T12:42:33Z</time>
      </trkpt>
      <trkpt lat="48.39963" lon="2.79011">
        <ele>47</ele>
        <time>2020-07-12T12:42:37Z</time>
      </trkpt>
      <trkpt lat="48.39981" lon="2.79014">
        <ele>48</ele>
        <time>2020-07-12T12:42:53Z</time>
      </trkpt>
      <trkpt lat="48.39986" lon="2.79014">
        <ele>48</ele>
        <time>2020-07-12T12:42:57Z</time>
      </trkpt>
      <trkpt lat="48.39992" lon="2.79012">
        <ele>48</ele>
        <time>2020-07-12T12:43:01Z</time>
      </trkpt>
      <trkpt lat="48.4002" lon="2.79015">
        <ele>47</ele>
        <time>2020-07-12T12:43:24Z</time>
      </trkpt>
      <trkpt lat="48.40034" lon="2.79025">
        <ele>47</ele>
        <time>2020-07-12T12:43:35Z</time>
      </trkpt>
      <trkpt lat="48.40081" lon="2.79028">
        <ele>47</ele>
        <time>2020-07-12T12:44:08Z</time>
      </trkpt>
      <trkpt lat="48.40117" lon="2.79034">
        <ele>47</ele>
        <time>2020-07-12T12:44:33Z</time>
      </trkpt>
      <trkpt lat="48.40127" lon="2.79039">
        <ele>47</ele>
        <time>2020-07-12T12:44:41Z</time>
      </trkpt>
      <trkpt lat="48.40132" lon="2.79041">
        <ele>47</ele>
        <time>2020-07-12T12:44:45Z</time>
      </trkpt>
      <trkpt lat="48.40136" lon="2.79039">
        <ele>47</ele>
        <time>2020-07-12T12:44:50Z</time>
      </trkpt>
      <trkpt lat="48.40141" lon="2.79041">
        <ele>47</ele>
        <time>2020-07-12T12:45:04Z</time>
      </trkpt>
      <trkpt lat="48.40146" lon="2.7904">
        <ele>47</ele>
        <time>2020-07-12T12:45:09Z</time>
      </trkpt>
      <trkpt lat="48.40169" lon="2.79048">
        <ele>47</ele>
        <time>2020-07-12T12:45:43Z</time>
      </trkpt>
      <trkpt lat="48.40199" lon="2.79058">
        <ele>47</ele>
        <time>2020-07-12T12:46:08Z</time>
      </trkpt>
      <trkpt lat="48.40204" lon="2.79058">
        <ele>47</ele>
        <time>2020-07-12T12:46:13Z</time>
      </trkpt>
      <trkpt lat="48.40224" lon="2.79067">
        <ele>47</ele>
        <time>2020-07-12T12:46:29Z</time>
      </trkpt>
      <trkpt lat="48.40268" lon="2.79078">
        <ele>47</ele>
        <time>2020-07-12T12:47:01Z</time>
      </trkpt>
      <trkpt lat="48.40278" lon="2.79079">
        <ele>47</ele>
        <time>2020-07-12T12:47:09Z</time>
      </trkpt>
      <trkpt lat="48.40321" lon="2.79079">
        <ele>46</ele>
        <time>2020-07-12T12:47:41Z</time>
      </trkpt>
      <trkpt lat="48.4036" lon="2.79084">
        <ele>46</ele>
        <time>2020-07-12T12:48:09Z</time>
      </trkpt>
      <trkpt lat="48.40386" lon="2.79092">
        <ele>45</ele>
        <time>2020-07-12T12:48:29Z</time>
      </trkpt>
      <trkpt lat="48.40429" lon="2.79095">
        <ele>45</ele>
        <time>2020-07-12T12:49:01Z</time>
      </trkpt>
      <trkpt lat="48.40439" lon="2.79097">
        <ele>45</ele>
        <time>2020-07-12T12:49:08Z</time>
      </trkpt>
      <trkpt lat="48.40449" lon="2.79099">
        <ele>44</ele>
        <time>2020-07-12T12:49:16Z</time>
      </trkpt>
      <trkpt lat="48.4046" lon="2.79099">
        <ele>44</ele>
        <time>2020-07-12T12:49:24Z</time>
      </trkpt>
      <trkpt lat="48.40471" lon="2.79096">
        <ele>45</ele>
        <time>2020-07-12T12:49:32Z</time>
      </trkpt>
      <trkpt lat="48.40513" lon="2.79086">
        <ele>44</ele>
        <time>2020-07-12T12:50:03Z</time>
      </trkpt>
      <trkpt lat="48.40523" lon="2.79083">
        <ele>45</ele>
        <time>2020-07-12T12:50:11Z</time>
      </trkpt>
      <trkpt lat="48.40539" lon="2.79083">
        <ele>45</ele>
        <time>2020-07-12T12:50:23Z</time>
      </trkpt>
      <trkpt lat="48.40582" lon="2.79087">
        <ele>45</ele>
        <time>2020-07-12T12:50:55Z</time>
      </trkpt>
      <trkpt lat="48.40603" lon="2.79087">
        <ele>45</ele>
        <time>2020-07-12T12:51:11Z</time>
      </trkpt>
      <trkpt lat="48.40609" lon="2.79092">
        <ele>45</ele>
        <time>2020-07-12T12:51:19Z</time>
      </trkpt>
      <trkpt lat="48.40617" lon="2.79104">
        <ele>45</ele>
        <time>2020-07-12T12:51:33Z</time>
      </trkpt>
      <trkpt lat="48.40619" lon="2.79113">
        <ele>45</ele>
        <time>2020-07-12T12:52:23Z</time>
      </trkpt>
      <trkpt lat="48.40628" lon="2.79126">
        <ele>44</ele>
        <time>2020-07-12T12:52:34Z</time>
      </trkpt>
      <trkpt lat="48.40647" lon="2.79138">
        <ele>45</ele>
        <time>2020-07-12T12:52:49Z</time>
      </trkpt>
      <trkpt lat="48.40657" lon="2.79138">
        <ele>45</ele>
        <time>2020-07-12T12:52:57Z</time>
      </trkpt>
      <trkpt lat="48.40667" lon="2.79131">
        <ele>44</ele>
        <time>2020-07-12T12:53:05Z</time>
      </trkpt>
      <trkpt lat="48.40673" lon="2.79132">
        <ele>44</ele>
        <time>2020-07-12T12:53:09Z</time>
      </trkpt>
      <trkpt lat="48.40691" lon="2.79144">
        <ele>43</ele>
        <time>2020-07-12T12:53:25Z</time>
      </trkpt>
      <trkpt lat="48.40701" lon="2.79144">
        <ele>43</ele>
        <time>2020-07-12T12:53:34Z</time>
      </trkpt>
      <trkpt lat="48.4071" lon="2.79151">
        <ele>43</ele>
        <time>2020-07-12T12:53:42Z</time>
      </trkpt>
      <trkpt lat="48.40729" lon="2.79154">
        <ele>43</ele>
        <time>2020-07-12T12:53:54Z</time>
      </trkpt>
      <trkpt lat="48.40775" lon="2.79157">
        <ele>42</ele>
        <time>2020-07-12T12:54:25Z</time>
      </trkpt>
      <trkpt lat="48.40817" lon="2.79163">
        <ele>42</ele>
        <time>2020-07-12T12:54:57Z</time>
      </trkpt>
      <trkpt lat="48.40863" lon="2.79167">
        <ele>43</ele>
        <time>2020-07-12T12:55:30Z</time>
      </trkpt>
      <trkpt lat="48.4091" lon="2.79169">
        <ele>42</ele>
        <time>2020-07-12T12:56:04Z</time>
      </trkpt>
      <trkpt lat="48.40952" lon="2.79167">
        <ele>42</ele>
        <time>2020-07-12T12:56:35Z</time>
      </trkpt>
      <trkpt lat="48.40958" lon="2.79167">
        <ele>42</ele>
        <time>2020-07-12T12:56:39Z</time>
      </trkpt>
      <trkpt lat="48.40967" lon="2.79161">
        <ele>42</ele>
        <time>2020-07-12T12:56:47Z</time>
      </trkpt>
      <trkpt lat="48.40984" lon="2.7916">
        <ele>42</ele>
        <time>2020-07-12T12:56:59Z</time>
      </trkpt>
      <trkpt lat="48.40987" lon="2.79167">
        <ele>42</ele>
        <time>2020-07-12T12:57:03Z</time>
      </trkpt>
      <trkpt lat="48.40993" lon="2.79167">
        <ele>42</ele>
        <time>2020-07-12T12:57:06Z</time>
      </trkpt>
      <trkpt lat="48.40998" lon="2.79165">
        <ele>42</ele>
        <time>2020-07-12T12:57:08Z</time>
      </trkpt>
      <trkpt lat="48.41011" lon="2.79152">
        <ele>42</ele>
        <time>2020-07-12T12:57:18Z</time>
      </trkpt>
      <trkpt lat="48.41016" lon="2.79151">
        <ele>42</ele>
        <time>2020-07-12T12:57:23Z</time>
      </trkpt>
      <trkpt lat="48.41022" lon="2.79148">
        <ele>42</ele>
        <time>2020-07-12T12:57:29Z</time>
      </trkpt>
      <trkpt lat="48.41032" lon="2.7915">
        <ele>42</ele>
        <time>2020-07-12T12:57:35Z</time>
      </trkpt>
      <trkpt lat="48.41052" lon="2.79141">
        <ele>42</ele>
        <time>2020-07-12T12:57:50Z</time>
      </trkpt>
      <trkpt lat="48.41061" lon="2.7914">
        <ele>42</ele>
        <time>2020-07-12T12:57:57Z</time>
      </trkpt>
      <trkpt lat="48.41068" lon="2.79136">
        <ele>42</ele>
        <time>2020-07-12T12:58:05Z</time>
      </trkpt>
      <trkpt lat="48.41072" lon="2.79133">
        <ele>43</ele>
        <time>2020-07-12T12:58:31Z</time>
      </trkpt>
      <trkpt lat="48.41077" lon="2.79131">
        <ele>42</ele>
        <time>2020-07-12T12:58:57Z</time>
      </trkpt>
      <trkpt lat="48.41087" lon="2.79125">
        <ele>43</ele>
        <time>2020-07-12T12:59:06Z</time>
      </trkpt>
      <trkpt lat="48.41092" lon="2.79126">
        <ele>43</ele>
        <time>2020-07-12T12:59:09Z</time>
      </trkpt>
      <trkpt lat="48.41097" lon="2.79128">
        <ele>43</ele>
        <time>2020-07-12T12:59:12Z</time>
      </trkpt>
      <trkpt lat="48.41102" lon="2.79127">
        <ele>43</ele>
        <time>2020-07-12T12:59:16Z</time>
      </trkpt>
      <trkpt lat="48.41112" lon="2.79121">
        <ele>43</ele>
        <time>2020-07-12T12:59:24Z</time>
      </trkpt>
      <trkpt lat="48.41117" lon="2.79122">
        <ele>43</ele>
        <time>2020-07-12T12:59:28Z</time>
      </trkpt>
      <trkpt lat="48.41126" lon="2.79135">
        <ele>43</ele>
        <time>2020-07-12T12:59:36Z</time>
      </trkpt>
      <trkpt lat="48.41133" lon="2.79148">
        <ele>42</ele>
        <time>2020-07-12T12:59:44Z</time>
      </trkpt>
      <trkpt lat="48.41142" lon="2.79169">
        <ele>42</ele>
        <time>2020-07-12T12:59:56Z</time>
      </trkpt>
      <trkpt lat="48.41146" lon="2.79172">
        <ele>42</ele>
        <time>2020-07-12T12:59:59Z</time>
      </trkpt>
      <trkpt lat="48.41147" lon="2.79181">
        <ele>42</ele>
        <time>2020-07-12T13:00:03Z</time>
      </trkpt>
      <trkpt lat="48.41151" lon="2.79186">
        <ele>42</ele>
        <time>2020-07-12T13:00:06Z</time>
      </trkpt>
      <trkpt lat="48.41155" lon="2.79189">
        <ele>42</ele>
        <time>2020-07-12T13:00:09Z</time>
      </trkpt>
      <trkpt lat="48.41161" lon="2.79183">
        <ele>42</ele>
        <time>2020-07-12T13:00:20Z</time>
      </trkpt>
      <trkpt lat="48.41165" lon="2.79177">
        <ele>42</ele>
        <time>2020-07-12T13:00:24Z</time>
      </trkpt>
      <trkpt lat="48.41177" lon="2.79164">
        <ele>42</ele>
        <time>2020-07-12T13:00:36Z</time>
      </trkpt>
      <trkpt lat="48.41183" lon="2.79161">
        <ele>42</ele>
        <time>2020-07-12T13:00:40Z</time>
      </trkpt>
      <trkpt lat="48.41186" lon="2.79155">
        <ele>42</ele>
        <time>2020-07-12T13:00:44Z</time>
      </trkpt>
      <trkpt lat="48.41199" lon="2.79142">
        <ele>41</ele>
        <time>2020-07-12T13:00:56Z</time>
      </trkpt>
      <trkpt lat="48.41205" lon="2.79128">
        <ele>42</ele>
        <time>2020-07-12T13:01:07Z</time>
      </trkpt>
      <trkpt lat="48.41213" lon="2.79118">
        <ele>41</ele>
        <time>2020-07-12T13:01:19Z</time>
      </trkpt>
      <trkpt lat="48.41214" lon="2.7911">
        <ele>41</ele>
        <time>2020-07-12T13:01:24Z</time>
      </trkpt>
      <trkpt lat="48.41224" lon="2.79098">
        <ele>42</ele>
        <time>2020-07-12T13:01:35Z</time>
      </trkpt>
      <trkpt lat="48.41237" lon="2.79078">
        <ele>41</ele>
        <time>2020-07-12T13:01:49Z</time>
      </trkpt>
      <trkpt lat="48.41263" lon="2.79032">
        <ele>42</ele>
        <time>2020-07-12T13:02:25Z</time>
      </trkpt>
      <trkpt lat="48.41284" lon="2.79005">
        <ele>42</ele>
        <time>2020-07-12T13:02:46Z</time>
      </trkpt>
      <trkpt lat="48.41292" lon="2.78993">
        <ele>41</ele>
        <time>2020-07-12T13:03:11Z</time>
      </trkpt>
      <trkpt lat="48.41293" lon="2.7898">
        <ele>42</ele>
        <time>2020-07-12T13:03:24Z</time>
      </trkpt>
      <trkpt lat="48.41301" lon="2.78969">
        <ele>41</ele>
        <time>2020-07-12T13:03:42Z</time>
      </trkpt>
      <trkpt lat="48.41312" lon="2.78951">
        <ele>41</ele>
        <time>2020-07-12T13:04:10Z</time>
      </trkpt>
      <trkpt lat="48.41316" lon="2.78936">
        <ele>41</ele>
        <time>2020-07-12T13:04:30Z</time>
      </trkpt>
      <trkpt lat="48.41331" lon="2.78891">
        <ele>41</ele>
        <time>2020-07-12T13:05:02Z</time>
      </trkpt>
      <trkpt lat="48.41351" lon="2.78836">
        <ele>41</ele>
        <time>2020-07-12T13:05:33Z</time>
      </trkpt>
      <trkpt lat="48.41352" lon="2.78827">
        <ele>41</ele>
        <time>2020-07-12T13:05:38Z</time>
      </trkpt>
      <trkpt lat="48.41364" lon="2.78802">
        <ele>41</ele>
        <time>2020-07-12T13:05:52Z</time>
      </trkpt>
      <trkpt lat="48.41378" lon="2.78743">
        <ele>41</ele>
        <time>2020-07-12T13:06:23Z</time>
      </trkpt>
      <trkpt lat="48.41378" lon="2.78736">
        <ele>41</ele>
        <time>2020-07-12T13:06:28Z</time>
      </trkpt>
      <trkpt lat="48.41379" lon="2.78727">
        <ele>42</ele>
        <time>2020-07-12T13:06:51Z</time>
      </trkpt>
      <trkpt lat="48.41384" lon="2.78685">
        <ele>42</ele>
        <time>2020-07-12T13:07:11Z</time>
      </trkpt>
      <trkpt lat="48.41383" lon="2.78678">
        <ele>42</ele>
        <time>2020-07-12T13:07:24Z</time>
      </trkpt>
      <trkpt lat="48.41386" lon="2.7867">
        <ele>41</ele>
        <time>2020-07-12T13:07:28Z</time>
      </trkpt>
      <trkpt lat="48.41389" lon="2.78664">
        <ele>41</ele>
        <time>2020-07-12T13:07:32Z</time>
      </trkpt>
      <trkpt lat="48.41398" lon="2.78626">
        <ele>41</ele>
        <time>2020-07-12T13:07:52Z</time>
      </trkpt>
      <trkpt lat="48.41401" lon="2.7862">
        <ele>41</ele>
        <time>2020-07-12T13:07:56Z</time>
      </trkpt>
      <trkpt lat="48.41402" lon="2.78612">
        <ele>41</ele>
        <time>2020-07-12T13:08:00Z</time>
      </trkpt>
      <trkpt lat="48.41401" lon="2.78605">
        <ele>41</ele>
        <time>2020-07-12T13:08:04Z</time>
      </trkpt>
      <trkpt lat="48.414" lon="2.78596">
        <ele>41</ele>
        <time>2020-07-12T13:08:10Z</time>
      </trkpt>
      <trkpt lat="48.41404" lon="2.7859">
        <ele>41</ele>
        <time>2020-07-12T13:08:15Z</time>
      </trkpt>
      <trkpt lat="48.41404" lon="2.78583">
        <ele>41</ele>
        <time>2020-07-12T13:08:18Z</time>
      </trkpt>
      <trkpt lat="48.41408" lon="2.78569">
        <ele>41</ele>
        <time>2020-07-12T13:08:27Z</time>
      </trkpt>
      <trkpt lat="48.41406" lon="2.78561">
        <ele>41</ele>
        <time>2020-07-12T13:08:32Z</time>
      </trkpt>
      <trkpt lat="48.41403" lon="2.78555">
        <ele>41</ele>
        <time>2020-07-12T13:08:37Z</time>
      </trkpt>
      <trkpt lat="48.41404" lon="2.78546">
        <ele>41</ele>
        <time>2020-07-12T13:08:42Z</time>
      </trkpt>
      <trkpt lat="48.41406" lon="2.78538">
        <ele>41</ele>
        <time>2020-07-12T13:08:46Z</time>
      </trkpt>
      <trkpt lat="48.41407" lon="2.78515">
        <ele>41</ele>
        <time>2020-07-12T13:08:58Z</time>
      </trkpt>
      <trkpt lat="48.4141" lon="2.78503">
        <ele>41</ele>
        <time>2020-07-12T13:09:07Z</time>
      </trkpt>
      <trkpt lat="48.41408" lon="2.78489">
        <ele>42</ele>
        <time>2020-07-12T13:09:15Z</time>
      </trkpt>
      <trkpt lat="48.41401" lon="2.7848">
        <ele>42</ele>
        <time>2020-07-12T13:09:30Z</time>
      </trkpt>
      <trkpt lat="48.41397" lon="2.78466">
        <ele>41</ele>
        <time>2020-07-12T13:09:38Z</time>
      </trkpt>
      <trkpt lat="48.41399" lon="2.78442">
        <ele>42</ele>
        <time>2020-07-12T13:09:54Z</time>
      </trkpt>
      <trkpt lat="48.41398" lon="2.78435">
        <ele>42</ele>
        <time>2020-07-12T13:09:59Z</time>
      </trkpt>
      <trkpt lat="48.414" lon="2.78422">
        <ele>42</ele>
        <time>2020-07-12T13:15:08Z</time>
      </trkpt>
      <trkpt lat="48.41406" lon="2.78389">
        <ele>41</ele>
        <time>2020-07-12T13:15:28Z</time>
      </trkpt>
      <trkpt lat="48.41406" lon="2.78381">
        <ele>41</ele>
        <time>2020-07-12T13:15:32Z</time>
      </trkpt>
      <trkpt lat="48.41405" lon="2.78374">
        <ele>41</ele>
        <time>2020-07-12T13:15:36Z</time>
      </trkpt>
      <trkpt lat="48.41401" lon="2.78356">
        <ele>41</ele>
        <time>2020-07-12T13:15:51Z</time>
      </trkpt>
      <trkpt lat="48.41396" lon="2.78355">
        <ele>41</ele>
        <time>2020-07-12T13:15:56Z</time>
      </trkpt>
      <trkpt lat="48.41395" lon="2.78347">
        <ele>41</ele>
        <time>2020-07-12T13:16:01Z</time>
      </trkpt>
      <trkpt lat="48.41393" lon="2.78339">
        <ele>42</ele>
        <time>2020-07-12T13:16:23Z</time>
      </trkpt>
      <trkpt lat="48.41394" lon="2.78332">
        <ele>41</ele>
        <time>2020-07-12T13:16:39Z</time>
      </trkpt>
      <trkpt lat="48.41394" lon="2.78325">
        <ele>41</ele>
        <time>2020-07-12T13:16:42Z</time>
      </trkpt>
      <trkpt lat="48.41393" lon="2.78317">
        <ele>41</ele>
        <time>2020-07-12T13:16:46Z</time>
      </trkpt>
      <trkpt lat="48.41388" lon="2.78303">
        <ele>41</ele>
        <time>2020-07-12T13:16:54Z</time>
      </trkpt>
      <trkpt lat="48.41388" lon="2.78295">
        <ele>41</ele>
        <time>2020-07-12T13:16:58Z</time>
      </trkpt>
      <trkpt lat="48.41387" lon="2.78287">
        <ele>42</ele>
        <time>2020-07-12T13:17:06Z</time>
      </trkpt>
      <trkpt lat="48.41381" lon="2.78266">
        <ele>41</ele>
        <time>2020-07-12T13:17:20Z</time>
      </trkpt>
      <trkpt lat="48.41375" lon="2.78255">
        <ele>40</ele>
        <time>2020-07-12T13:17:29Z</time>
      </trkpt>
      <trkpt lat="48.4137" lon="2.78241">
        <ele>41</ele>
        <time>2020-07-12T13:17:37Z</time>
      </trkpt>
      <trkpt lat="48.41368" lon="2.78226">
        <ele>41</ele>
        <time>2020-07-12T13:17:44Z</time>
      </trkpt>
      <trkpt lat="48.41368" lon="2.78213">
        <ele>41</ele>
        <time>2020-07-12T13:18:00Z</time>
      </trkpt>
      <trkpt lat="48.41364" lon="2.78197">
        <ele>40</ele>
        <time>2020-07-12T13:18:20Z</time>
      </trkpt>
      <trkpt lat="48.41359" lon="2.78184">
        <ele>41</ele>
        <time>2020-07-12T13:18:35Z</time>
      </trkpt>
      <trkpt lat="48.41358" lon="2.78155">
        <ele>41</ele>
        <time>2020-07-12T13:18:48Z</time>
      </trkpt>
      <trkpt lat="48.41354" lon="2.78142">
        <ele>40</ele>
        <time>2020-07-12T13:18:54Z</time>
      </trkpt>
      <trkpt lat="48.41354" lon="2.78127">
        <ele>41</ele>
        <time>2020-07-12T13:19:24Z</time>
      </trkpt>
      <trkpt lat="48.41345" lon="2.78112">
        <ele>40</ele>
        <time>2020-07-12T13:19:41Z</time>
      </trkpt>
      <trkpt lat="48.41333" lon="2.78098">
        <ele>44</ele>
        <time>2020-07-12T13:19:55Z</time>
      </trkpt>
      <trkpt lat="48.41331" lon="2.78084">
        <ele>44</ele>
        <time>2020-07-12T13:20:02Z</time>
      </trkpt>
      <trkpt lat="48.41328" lon="2.78055">
        <ele>44</ele>
        <time>2020-07-12T13:20:18Z</time>
      </trkpt>
      <trkpt lat="48.41327" lon="2.78047">
        <ele>44</ele>
        <time>2020-07-12T13:20:22Z</time>
      </trkpt>
      <trkpt lat="48.41324" lon="2.7804">
        <ele>44</ele>
        <time>2020-07-12T13:20:26Z</time>
      </trkpt>
      <trkpt lat="48.41319" lon="2.78019">
        <ele>44</ele>
        <time>2020-07-12T13:20:37Z</time>
      </trkpt>
      <trkpt lat="48.41317" lon="2.78011">
        <ele>44</ele>
        <time>2020-07-12T13:20:42Z</time>
      </trkpt>
      <trkpt lat="48.41315" lon="2.78005">
        <ele>44</ele>
        <time>2020-07-12T13:20:52Z</time>
      </trkpt>
      <trkpt lat="48.41313" lon="2.77997">
        <ele>43</ele>
        <time>2020-07-12T13:20:56Z</time>
      </trkpt>
      <trkpt lat="48.41312" lon="2.7799">
        <ele>43</ele>
        <time>2020-07-12T13:21:00Z</time>
      </trkpt>
      <trkpt lat="48.41306" lon="2.77977">
        <ele>43</ele>
        <time>2020-07-12T13:21:09Z</time>
      </trkpt>
      <trkpt lat="48.41304" lon="2.77969">
        <ele>43</ele>
        <time>2020-07-12T13:21:13Z</time>
      </trkpt>
      <trkpt lat="48.41294" lon="2.77904">
        <ele>43</ele>
        <time>2020-07-12T13:21:44Z</time>
      </trkpt>
      <trkpt lat="48.41291" lon="2.77881">
        <ele>43</ele>
        <time>2020-07-12T13:21:55Z</time>
      </trkpt>
      <trkpt lat="48.41274" lon="2.77818">
        <ele>43</ele>
        <time>2020-07-12T13:22:27Z</time>
      </trkpt>
      <trkpt lat="48.4127" lon="2.77803">
        <ele>43</ele>
        <time>2020-07-12T13:22:35Z</time>
      </trkpt>
      <trkpt lat="48.41262" lon="2.77789">
        <ele>42</ele>
        <time>2020-07-12T13:22:47Z</time>
      </trkpt>
      <trkpt lat="48.41257" lon="2.7777">
        <ele>42</ele>
        <time>2020-07-12T13:22:59Z</time>
      </trkpt>
      <trkpt lat="48.41251" lon="2.77758">
        <ele>42</ele>
        <time>2020-07-12T13:23:07Z</time>
      </trkpt>
      <trkpt lat="48.41239" lon="2.77723">
        <ele>43</ele>
        <time>2020-07-12T13:23:31Z</time>
      </trkpt>
      <trkpt lat="48.41237" lon="2.77717">
        <ele>43</ele>
        <time>2020-07-12T13:23:34Z</time>
      </trkpt>
      <trkpt lat="48.41236" lon="2.77709">
        <ele>43</ele>
        <time>2020-07-12T13:23:38Z</time>
      </trkpt>
      <trkpt lat="48.41228" lon="2.7769">
        <ele>43</ele>
        <time>2020-07-12T13:23:48Z</time>
      </trkpt>
      <trkpt lat="48.41228" lon="2.77682">
        <ele>43</ele>
        <time>2020-07-12T13:23:52Z</time>
      </trkpt>
      <trkpt lat="48.41219" lon="2.77654">
        <ele>42</ele>
        <time>2020-07-12T13:24:07Z</time>
      </trkpt>
      <trkpt lat="48.41222" lon="2.77647">
        <ele>42</ele>
        <time>2020-07-12T13:24:12Z</time>
      </trkpt>
      <trkpt lat="48.4122" lon="2.77632">
        <ele>42</ele>
        <time>2020-07-12T13:24:20Z</time>
      </trkpt>
      <trkpt lat="48.41217" lon="2.77626">
        <ele>42</ele>
        <time>2020-07-12T13:24:24Z</time>
      </trkpt>
      <trkpt lat="48.41211" lon="2.77602">
        <ele>41</ele>
        <time>2020-07-12T13:24:37Z</time>
      </trkpt>
      <trkpt lat="48.41207" lon="2.77589">
        <ele>41</ele>
        <time>2020-07-12T13:24:43Z</time>
      </trkpt>
      <trkpt lat="48.41201" lon="2.77574">
        <ele>41</ele>
        <time>2020-07-12T13:24:51Z</time>
      </trkpt>
      <trkpt lat="48.41191" lon="2.77557">
        <ele>42</ele>
        <time>2020-07-12T13:25:03Z</time>
      </trkpt>
      <trkpt lat="48.41187" lon="2.77554">
        <ele>42</ele>
        <time>2020-07-12T13:25:07Z</time>
      </trkpt>
      <trkpt lat="48.41182" lon="2.7755">
        <ele>42</ele>
        <time>2020-07-12T13:25:12Z</time>
      </trkpt>
      <trkpt lat="48.41179" lon="2.77543">
        <ele>43</ele>
        <time>2020-07-12T13:25:16Z</time>
      </trkpt>
      <trkpt lat="48.41172" lon="2.7753">
        <ele>44</ele>
        <time>2020-07-12T13:25:52Z</time>
      </trkpt>
      <trkpt lat="48.41168" lon="2.77526">
        <ele>44</ele>
        <time>2020-07-12T13:25:57Z</time>
      </trkpt>
      <trkpt lat="48.41168" lon="2.77518">
        <ele>45</ele>
        <time>2020-07-12T13:26:02Z</time>
      </trkpt>
      <trkpt lat="48.41163" lon="2.77504">
        <ele>45</ele>
        <time>2020-07-12T13:26:11Z</time>
      </trkpt>
      <trkpt lat="48.41165" lon="2.77496">
        <ele>45</ele>
        <time>2020-07-12T13:26:15Z</time>
      </trkpt>
      <trkpt lat="48.41168" lon="2.7749">
        <ele>45</ele>
        <time>2020-07-12T13:26:19Z</time>
      </trkpt>
      <trkpt lat="48.41162" lon="2.7746">
        <ele>46</ele>
        <time>2020-07-12T13:26:34Z</time>
      </trkpt>
      <trkpt lat="48.41158" lon="2.77444">
        <ele>46</ele>
        <time>2020-07-12T13:26:42Z</time>
      </trkpt>
      <trkpt lat="48.41158" lon="2.77428">
        <ele>46</ele>
        <time>2020-07-12T13:26:50Z</time>
      </trkpt>
      <trkpt lat="48.41153" lon="2.77399">
        <ele>46</ele>
        <time>2020-07-12T13:27:06Z</time>
      </trkpt>
      <trkpt lat="48.41154" lon="2.77391">
        <ele>46</ele>
        <time>2020-07-12T13:27:10Z</time>
      </trkpt>
      <trkpt lat="48.41147" lon="2.77358">
        <ele>46</ele>
        <time>2020-07-12T13:27:26Z</time>
      </trkpt>
      <trkpt lat="48.41144" lon="2.7735">
        <ele>46</ele>
        <time>2020-07-12T13:27:30Z</time>
      </trkpt>
      <trkpt lat="48.4114" lon="2.7731">
        <ele>46</ele>
        <time>2020-07-12T13:27:51Z</time>
      </trkpt>
      <trkpt lat="48.41142" lon="2.77293">
        <ele>45</ele>
        <time>2020-07-12T13:27:59Z</time>
      </trkpt>
      <trkpt lat="48.41134" lon="2.77263">
        <ele>45</ele>
        <time>2020-07-12T13:28:14Z</time>
      </trkpt>
      <trkpt lat="48.41134" lon="2.77239">
        <ele>45</ele>
        <time>2020-07-12T13:28:26Z</time>
      </trkpt>
      <trkpt lat="48.41132" lon="2.77231">
        <ele>45</ele>
        <time>2020-07-12T13:28:30Z</time>
      </trkpt>
      <trkpt lat="48.41127" lon="2.77217">
        <ele>44</ele>
        <time>2020-07-12T13:28:37Z</time>
      </trkpt>
      <trkpt lat="48.41122" lon="2.77181">
        <ele>44</ele>
        <time>2020-07-12T13:29:03Z</time>
      </trkpt>
      <trkpt lat="48.41119" lon="2.77173">
        <ele>44</ele>
        <time>2020-07-12T13:29:08Z</time>
      </trkpt>
      <trkpt lat="48.41119" lon="2.77166">
        <ele>44</ele>
        <time>2020-07-12T13:29:11Z</time>
      </trkpt>
      <trkpt lat="48.41117" lon="2.77151">
        <ele>44</ele>
        <time>2020-07-12T13:29:18Z</time>
      </trkpt>
      <trkpt lat="48.41115" lon="2.77108">
        <ele>43</ele>
        <time>2020-07-12T13:29:48Z</time>
      </trkpt>
      <trkpt lat="48.41114" lon="2.77084">
        <ele>43</ele>
        <time>2020-07-12T13:30:00Z</time>
      </trkpt>
      <trkpt lat="48.41112" lon="2.77078">
        <ele>43</ele>
        <time>2020-07-12T13:30:03Z</time>
      </trkpt>
      <trkpt lat="48.4111" lon="2.7707">
        <ele>43</ele>
        <time>2020-07-12T13:30:23Z</time>
      </trkpt>
      <trkpt lat="48.41109" lon="2.77061">
        <ele>43</ele>
        <time>2020-07-12T13:30:27Z</time>
      </trkpt>
      <trkpt lat="48.41106" lon="2.77056">
        <ele>43</ele>
        <time>2020-07-12T13:30:30Z</time>
      </trkpt>
      <trkpt lat="48.41104" lon="2.77049">
        <ele>43</ele>
        <time>2020-07-12T13:30:35Z</time>
      </trkpt>
      <trkpt lat="48.41104" lon="2.77023">
        <ele>44</ele>
        <time>2020-07-12T13:30:47Z</time>
      </trkpt>
      <trkpt lat="48.41097" lon="2.76987">
        <ele>44</ele>
        <time>2020-07-12T13:31:04Z</time>
      </trkpt>
      <trkpt lat="48.41099" lon="2.76973">
        <ele>43</ele>
        <time>2020-07-12T13:31:10Z</time>
      </trkpt>
      <trkpt lat="48.41092" lon="2.76926">
        <ele>44</ele>
        <time>2020-07-12T13:31:34Z</time>
      </trkpt>
      <trkpt lat="48.4109" lon="2.76919">
        <ele>44</ele>
        <time>2020-07-12T13:31:38Z</time>
      </trkpt>
      <trkpt lat="48.41084" lon="2.76887">
        <ele>45</ele>
        <time>2020-07-12T13:31:54Z</time>
      </trkpt>
      <trkpt lat="48.41077" lon="2.76874">
        <ele>45</ele>
        <time>2020-07-12T13:32:02Z</time>
      </trkpt>
      <trkpt lat="48.41074" lon="2.7687">
        <ele>46</ele>
        <time>2020-07-12T13:32:06Z</time>
      </trkpt>
      <trkpt lat="48.41063" lon="2.76868">
        <ele>46</ele>
        <time>2020-07-12T13:32:15Z</time>
      </trkpt>
      <trkpt lat="48.41056" lon="2.76869">
        <ele>47</ele>
        <time>2020-07-12T13:32:19Z</time>
      </trkpt>
      <trkpt lat="48.41021" lon="2.76863">
        <ele>50</ele>
        <time>2020-07-12T13:32:50Z</time>
      </trkpt>
      <trkpt lat="48.40986" lon="2.76854">
        <ele>53</ele>
        <time>2020-07-12T13:33:21Z</time>
      </trkpt>
      <trkpt lat="48.40978" lon="2.76851">
        <ele>54</ele>
        <time>2020-07-12T13:33:41Z</time>
      </trkpt>
      <trkpt lat="48.40971" lon="2.76847">
        <ele>55</ele>
        <time>2020-07-12T13:33:50Z</time>
      </trkpt>
      <trkpt lat="48.40963" lon="2.76838">
        <ele>56</ele>
        <time>2020-07-12T13:33:57Z</time>
      </trkpt>
      <trkpt lat="48.4096" lon="2.76829">
        <ele>57</ele>
        <time>2020-07-12T13:34:04Z</time>
      </trkpt>
      <trkpt lat="48.40958" lon="2.76815">
        <ele>58</ele>
        <time>2020-07-12T13:34:12Z</time>
      </trkpt>
      <trkpt lat="48.40953" lon="2.7681">
        <ele>59</ele>
        <time>2020-07-12T13:34:20Z</time>
      </trkpt>
      <trkpt lat="48.40922" lon="2.76768">
        <ele>64</ele>
        <time>2020-07-12T13:34:55Z</time>
      </trkpt>
      <trkpt lat="48.40914" lon="2.76761">
        <ele>65</ele>
        <time>2020-07-12T13:35:02Z</time>
      </trkpt>
      <trkpt lat="48.40901" lon="2.7674">
        <ele>67</ele>
        <time>2020-07-12T13:35:19Z</time>
      </trkpt>
      <trkpt lat="48.40891" lon="2.76736">
        <ele>68</ele>
        <time>2020-07-12T13:35:26Z</time>
      </trkpt>
      <trkpt lat="48.40882" lon="2.76735">
        <ele>70</ele>
        <time>2020-07-12T13:35:42Z</time>
      </trkpt>
      <trkpt lat="48.40867" lon="2.76729">
        <ele>70</ele>
        <time>2020-07-12T13:37:28Z</time>
      </trkpt>
      <trkpt lat="48.40841" lon="2.76714">
        <ele>73</ele>
        <time>2020-07-12T13:37:51Z</time>
      </trkpt>
      <trkpt lat="48.40809" lon="2.7668">
        <ele>76</ele>
        <time>2020-07-12T13:38:23Z</time>
      </trkpt>
      <trkpt lat="48.40773" lon="2.76656">
        <ele>79</ele>
        <time>2020-07-12T13:38:54Z</time>
      </trkpt>
      <trkpt lat="48.40747" lon="2.76635">
        <ele>81</ele>
        <time>2020-07-12T13:39:22Z</time>
      </trkpt>
      <trkpt lat="48.40736" lon="2.76632">
        <ele>81</ele>
        <time>2020-07-12T13:39:29Z</time>
      </trkpt>
      <trkpt lat="48.40704" lon="2.76603">
        <ele>84</ele>
        <time>2020-07-12T13:39:58Z</time>
      </trkpt>
      <trkpt lat="48.40688" lon="2.76595">
        <ele>85</ele>
        <time>2020-07-12T13:40:11Z</time>
      </trkpt>
      <trkpt lat="48.40653" lon="2.76565">
        <ele>87</ele>
        <time>2020-07-12T13:40:46Z</time>
      </trkpt>
      <trkpt lat="48.40638" lon="2.7656">
        <ele>87</ele>
        <time>2020-07-12T13:41:38Z</time>
      </trkpt>
      <trkpt lat="48.40631" lon="2.76553">
        <ele>87</ele>
        <time>2020-07-12T13:41:44Z</time>
      </trkpt>
      <trkpt lat="48.40616" lon="2.76532">
        <ele>88</ele>
        <time>2020-07-12T13:42:01Z</time>
      </trkpt>
      <trkpt lat="48.40607" lon="2.76528">
        <ele>88</ele>
        <time>2020-07-12T13:42:07Z</time>
      </trkpt>
      <trkpt lat="48.40591" lon="2.76513">
        <ele>89</ele>
        <time>2020-07-12T13:42:39Z</time>
      </trkpt>
      <trkpt lat="48.40577" lon="2.765">
        <ele>89</ele>
        <time>2020-07-12T13:43:21Z</time>
      </trkpt>
      <trkpt lat="48.40569" lon="2.76493">
        <ele>89</ele>
        <time>2020-07-12T13:43:28Z</time>
      </trkpt>
      <trkpt lat="48.4056" lon="2.7649">
        <ele>89</ele>
        <time>2020-07-12T13:43:34Z</time>
      </trkpt>
      <trkpt lat="48.40522" lon="2.76464">
        <ele>90</ele>
        <time>2020-07-12T13:44:04Z</time>
      </trkpt>
      <trkpt lat="48.40506" lon="2.76449">
        <ele>90</ele>
        <time>2020-07-12T13:44:20Z</time>
      </trkpt>
      <trkpt lat="48.40498" lon="2.76444">
        <ele>90</ele>
        <time>2020-07-12T13:44:26Z</time>
      </trkpt>
      <trkpt lat="48.40483" lon="2.76422">
        <ele>90</ele>
        <time>2020-07-12T13:44:42Z</time>
      </trkpt>
      <trkpt lat="48.40474" lon="2.76408">
        <ele>91</ele>
        <time>2020-07-12T13:46:42Z</time>
      </trkpt>
      <trkpt lat="48.40476" lon="2.76393">
        <ele>91</ele>
        <time>2020-07-12T13:46:51Z</time>
      </trkpt>
      <trkpt lat="48.40482" lon="2.7638">
        <ele>91</ele>
        <time>2020-07-12T13:46:59Z</time>
      </trkpt>
      <trkpt lat="48.40509" lon="2.76339">
        <ele>90</ele>
        <time>2020-07-12T13:47:30Z</time>
      </trkpt>
      <trkpt lat="48.40515" lon="2.76328">
        <ele>90</ele>
        <time>2020-07-12T13:47:38Z</time>
      </trkpt>
      <trkpt lat="48.4053" lon="2.7631">
        <ele>90</ele>
        <time>2020-07-12T13:47:55Z</time>
      </trkpt>
      <trkpt lat="48.40543" lon="2.76288">
        <ele>90</ele>
        <time>2020-07-12T13:48:12Z</time>
      </trkpt>
      <trkpt lat="48.40552" lon="2.76281">
        <ele>90</ele>
        <time>2020-07-12T13:48:21Z</time>
      </trkpt>
      <trkpt lat="48.40588" lon="2.76235">
        <ele>89</ele>
        <time>2020-07-12T13:48:59Z</time>
      </trkpt>
      <trkpt lat="48.40604" lon="2.76215">
        <ele>89</ele>
        <time>2020-07-12T13:49:14Z</time>
      </trkpt>
      <trkpt lat="48.40608" lon="2.76217">
        <ele>88</ele>
        <time>2020-07-12T13:49:54Z</time>
      </trkpt>
      <trkpt lat="48.40605" lon="2.76213">
        <ele>88</ele>
        <time>2020-07-12T13:51:23Z</time>
      </trkpt>
      <trkpt lat="48.40606" lon="2.762">
        <ele>89</ele>
        <time>2020-07-12T13:55:07Z</time>
      </trkpt>
      <trkpt lat="48.40616" lon="2.76191">
        <ele>89</ele>
        <time>2020-07-12T13:55:51Z</time>
      </trkpt>
      <trkpt lat="48.40632" lon="2.76172">
        <ele>89</ele>
        <time>2020-07-12T13:56:05Z</time>
      </trkpt>
      <trkpt lat="48.40639" lon="2.76161">
        <ele>89</ele>
        <time>2020-07-12T13:56:12Z</time>
      </trkpt>
      <trkpt lat="48.40643" lon="2.76148">
        <ele>89</ele>
        <time>2020-07-12T13:56:18Z</time>
      </trkpt>
      <trkpt lat="48.4067" lon="2.76113">
        <ele>89</ele>
        <time>2020-07-12T13:56:49Z</time>
      </trkpt>
      <trkpt lat="48.40703" lon="2.7608">
        <ele>88</ele>
        <time>2020-07-12T13:57:23Z</time>
      </trkpt>
      <trkpt lat="48.40709" lon="2.7607">
        <ele>87</ele>
        <time>2020-07-12T13:57:32Z</time>
      </trkpt>
      <trkpt lat="48.40726" lon="2.76064">
        <ele>87</ele>
        <time>2020-07-12T13:57:51Z</time>
      </trkpt>
      <trkpt lat="48.40738" lon="2.76026">
        <ele>86</ele>
        <time>2020-07-12T13:58:12Z</time>
      </trkpt>
      <trkpt lat="48.40745" lon="2.76017">
        <ele>86</ele>
        <time>2020-07-12T13:58:19Z</time>
      </trkpt>
      <trkpt lat="48.40749" lon="2.76004">
        <ele>86</ele>
        <time>2020-07-12T13:58:26Z</time>
      </trkpt>
      <trkpt lat="48.40751" lon="2.75946">
        <ele>85</ele>
        <time>2020-07-12T13:58:50Z</time>
      </trkpt>
      <trkpt lat="48.40757" lon="2.75933">
        <ele>85</ele>
        <time>2020-07-12T13:58:58Z</time>
      </trkpt>
      <trkpt lat="48.40762" lon="2.75904">
        <ele>84</ele>
        <time>2020-07-12T13:59:10Z</time>
      </trkpt>
      <trkpt lat="48.40766" lon="2.75892">
        <ele>84</ele>
        <time>2020-07-12T13:59:17Z</time>
      </trkpt>
      <trkpt lat="48.40777" lon="2.75868">
        <ele>84</ele>
        <time>2020-07-12T13:59:32Z</time>
      </trkpt>
      <trkpt lat="48.40789" lon="2.75828">
        <ele>83</ele>
        <time>2020-07-12T13:59:56Z</time>
      </trkpt>
      <trkpt lat="48.40795" lon="2.75816">
        <ele>83</ele>
        <time>2020-07-12T14:00:04Z</time>
      </trkpt>
      <trkpt lat="48.40806" lon="2.75745">
        <ele>83</ele>
        <time>2020-07-12T14:00:38Z</time>
      </trkpt>
      <trkpt lat="48.40813" lon="2.75734">
        <ele>83</ele>
        <time>2020-07-12T14:00:45Z</time>
      </trkpt>
      <trkpt lat="48.40818" lon="2.75721">
        <ele>82</ele>
        <time>2020-07-12T14:00:52Z</time>
      </trkpt>
      <trkpt lat="48.40833" lon="2.75703">
        <ele>81</ele>
        <time>2020-07-12T14:01:06Z</time>
      </trkpt>
      <trkpt lat="48.40837" lon="2.7569">
        <ele>81</ele>
        <time>2020-07-12T14:01:13Z</time>
      </trkpt>
      <trkpt lat="48.40859" lon="2.75665">
        <ele>79</ele>
        <time>2020-07-12T14:01:35Z</time>
      </trkpt>
      <trkpt lat="48.40857" lon="2.7564">
        <ele>80</ele>
        <time>2020-07-12T14:01:55Z</time>
      </trkpt>
      <trkpt lat="48.40856" lon="2.75611">
        <ele>81</ele>
        <time>2020-07-12T14:02:09Z</time>
      </trkpt>
      <trkpt lat="48.40859" lon="2.75597">
        <ele>82</ele>
        <time>2020-07-12T14:02:15Z</time>
      </trkpt>
      <trkpt lat="48.40865" lon="2.75586">
        <ele>82</ele>
        <time>2020-07-12T14:02:22Z</time>
      </trkpt>
      <trkpt lat="48.40872" lon="2.75558">
        <ele>82</ele>
        <time>2020-07-12T14:02:36Z</time>
      </trkpt>
      <trkpt lat="48.40893" lon="2.75509">
        <ele>82</ele>
        <time>2020-07-12T14:03:05Z</time>
      </trkpt>
      <trkpt lat="48.40896" lon="2.75495">
        <ele>81</ele>
        <time>2020-07-12T14:03:12Z</time>
      </trkpt>
      <trkpt lat="48.40915" lon="2.75462">
        <ele>81</ele>
        <time>2020-07-12T14:03:35Z</time>
      </trkpt>
      <trkpt lat="48.4093" lon="2.75407">
        <ele>80</ele>
        <time>2020-07-12T14:04:04Z</time>
      </trkpt>
      <trkpt lat="48.40928" lon="2.75378">
        <ele>80</ele>
        <time>2020-07-12T14:04:18Z</time>
      </trkpt>
      <trkpt lat="48.40929" lon="2.75359">
        <ele>81</ele>
        <time>2020-07-12T14:04:27Z</time>
      </trkpt>
      <trkpt lat="48.40927" lon="2.75317">
        <ele>81</ele>
        <time>2020-07-12T14:04:46Z</time>
      </trkpt>
      <trkpt lat="48.40932" lon="2.7526">
        <ele>81</ele>
        <time>2020-07-12T14:05:17Z</time>
      </trkpt>
      <trkpt lat="48.40933" lon="2.75245">
        <ele>81</ele>
        <time>2020-07-12T14:05:25Z</time>
      </trkpt>
      <trkpt lat="48.40932" lon="2.75174">
        <ele>81</ele>
        <time>2020-07-12T14:06:00Z</time>
      </trkpt>
      <trkpt lat="48.40933" lon="2.75117">
        <ele>82</ele>
        <time>2020-07-12T14:06:32Z</time>
      </trkpt>
      <trkpt lat="48.40933" lon="2.75089">
        <ele>83</ele>
        <time>2020-07-12T14:06:45Z</time>
      </trkpt>
      <trkpt lat="48.40934" lon="2.75073">
        <ele>83</ele>
        <time>2020-07-12T14:06:53Z</time>
      </trkpt>
      <trkpt lat="48.40931" lon="2.75032">
        <ele>83</ele>
        <time>2020-07-12T14:07:12Z</time>
      </trkpt>
      <trkpt lat="48.40934" lon="2.75004">
        <ele>84</ele>
        <time>2020-07-12T14:07:27Z</time>
      </trkpt>
      <trkpt lat="48.40933" lon="2.74989">
        <ele>84</ele>
        <time>2020-07-12T14:07:34Z</time>
      </trkpt>
      <trkpt lat="48.40929" lon="2.74976">
        <ele>84</ele>
        <time>2020-07-12T14:07:40Z</time>
      </trkpt>
      <trkpt lat="48.40915" lon="2.74957">
        <ele>84</ele>
        <time>2020-07-12T14:07:54Z</time>
      </trkpt>
      <trkpt lat="48.40912" lon="2.74944">
        <ele>84</ele>
        <time>2020-07-12T14:08:01Z</time>
      </trkpt>
      <trkpt lat="48.40902" lon="2.74933">
        <ele>85</ele>
        <time>2020-07-12T14:08:10Z</time>
      </trkpt>
      <trkpt lat="48.40885" lon="2.74895">
        <ele>84</ele>
        <time>2020-07-12T14:08:35Z</time>
      </trkpt>
      <trkpt lat="48.40878" lon="2.74885">
        <ele>83</ele>
        <time>2020-07-12T14:08:42Z</time>
      </trkpt>
      <trkpt lat="48.40874" lon="2.74872">
        <ele>83</ele>
        <time>2020-07-12T14:08:49Z</time>
      </trkpt>
      <trkpt lat="48.40853" lon="2.74839">
        <ele>84</ele>
        <time>2020-07-12T14:09:12Z</time>
      </trkpt>
      <trkpt lat="48.40852" lon="2.74822">
        <ele>85</ele>
        <time>2020-07-12T14:09:22Z</time>
      </trkpt>
      <trkpt lat="48.40844" lon="2.74813">
        <ele>87</ele>
        <time>2020-07-12T14:09:31Z</time>
      </trkpt>
      <trkpt lat="48.40837" lon="2.74805">
        <ele>87</ele>
        <time>2020-07-12T14:09:38Z</time>
      </trkpt>
      <trkpt lat="48.40826" lon="2.74807">
        <ele>87</ele>
        <time>2020-07-12T14:09:46Z</time>
      </trkpt>
      <trkpt lat="48.40818" lon="2.74801">
        <ele>87</ele>
        <time>2020-07-12T14:09:55Z</time>
      </trkpt>
      <trkpt lat="48.40821" lon="2.74792">
        <ele>88</ele>
        <time>2020-07-12T14:10:04Z</time>
      </trkpt>
      <trkpt lat="48.40826" lon="2.74782">
        <ele>89</ele>
        <time>2020-07-12T14:12:11Z</time>
      </trkpt>
      <trkpt lat="48.40833" lon="2.7477">
        <ele>89</ele>
        <time>2020-07-12T14:12:17Z</time>
      </trkpt>
      <trkpt lat="48.40835" lon="2.7476">
        <ele>89</ele>
        <time>2020-07-12T14:12:21Z</time>
      </trkpt>
      <trkpt lat="48.40866" lon="2.74714">
        <ele>90</ele>
        <time>2020-07-12T14:12:54Z</time>
      </trkpt>
      <trkpt lat="48.40871" lon="2.7471">
        <ele>90</ele>
        <time>2020-07-12T14:12:58Z</time>
      </trkpt>
      <trkpt lat="48.40879" lon="2.7472">
        <ele>89</ele>
        <time>2020-07-12T14:13:04Z</time>
      </trkpt>
      <trkpt lat="48.40889" lon="2.7474">
        <ele>88</ele>
        <time>2020-07-12T14:13:18Z</time>
      </trkpt>
      <trkpt lat="48.40898" lon="2.74748">
        <ele>88</ele>
        <time>2020-07-12T14:13:24Z</time>
      </trkpt>
      <trkpt lat="48.40902" lon="2.74754">
        <ele>87</ele>
        <time>2020-07-12T14:13:28Z</time>
      </trkpt>
      <trkpt lat="48.40912" lon="2.74761">
        <ele>86</ele>
        <time>2020-07-12T14:13:35Z</time>
      </trkpt>
      <trkpt lat="48.40917" lon="2.74765">
        <ele>86</ele>
        <time>2020-07-12T14:13:38Z</time>
      </trkpt>
      <trkpt lat="48.40935" lon="2.74782">
        <ele>85</ele>
        <time>2020-07-12T14:13:51Z</time>
      </trkpt>
      <trkpt lat="48.40956" lon="2.74799">
        <ele>85</ele>
        <time>2020-07-12T14:14:07Z</time>
      </trkpt>
      <trkpt lat="48.40981" lon="2.74823">
        <ele>83</ele>
        <time>2020-07-12T14:14:26Z</time>
      </trkpt>
      <trkpt lat="48.40996" lon="2.74841">
        <ele>82</ele>
        <time>2020-07-12T14:14:40Z</time>
      </trkpt>
      <trkpt lat="48.41028" lon="2.74872">
        <ele>80</ele>
        <time>2020-07-12T14:15:12Z</time>
      </trkpt>
      <trkpt lat="48.4107" lon="2.74908">
        <ele>77</ele>
        <time>2020-07-12T14:15:48Z</time>
      </trkpt>
      <trkpt lat="48.41087" lon="2.74921">
        <ele>75</ele>
        <time>2020-07-12T14:16:01Z</time>
      </trkpt>
      <trkpt lat="48.41127" lon="2.74962">
        <ele>71</ele>
        <time>2020-07-12T14:16:37Z</time>
      </trkpt>
      <trkpt lat="48.41145" lon="2.74977">
        <ele>69</ele>
        <time>2020-07-12T14:16:51Z</time>
      </trkpt>
      <trkpt lat="48.41163" lon="2.74987">
        <ele>66</ele>
        <time>2020-07-12T14:17:03Z</time>
      </trkpt>
      <trkpt lat="48.41173" lon="2.74988">
        <ele>65</ele>
        <time>2020-07-12T14:17:09Z</time>
      </trkpt>
      <trkpt lat="48.41179" lon="2.7498">
        <ele>65</ele>
        <time>2020-07-12T14:17:16Z</time>
      </trkpt>
      <trkpt lat="48.41186" lon="2.74969">
        <ele>64</ele>
        <time>2020-07-12T14:17:24Z</time>
      </trkpt>
      <trkpt lat="48.41188" lon="2.74962">
        <ele>64</ele>
        <time>2020-07-12T14:17:28Z</time>
      </trkpt>
      <trkpt lat="48.41198" lon="2.74945">
        <ele>64</ele>
        <time>2020-07-12T14:17:40Z</time>
      </trkpt>
      <trkpt lat="48.41206" lon="2.74924">
        <ele>64</ele>
        <time>2020-07-12T14:17:51Z</time>
      </trkpt>
      <trkpt lat="48.41226" lon="2.74898">
        <ele>63</ele>
        <time>2020-07-12T14:18:10Z</time>
      </trkpt>
      <trkpt lat="48.41241" lon="2.74866">
        <ele>63</ele>
        <time>2020-07-12T14:18:27Z</time>
      </trkpt>
      <trkpt lat="48.41258" lon="2.7485">
        <ele>63</ele>
        <time>2020-07-12T14:18:40Z</time>
      </trkpt>
      <trkpt lat="48.41264" lon="2.74837">
        <ele>63</ele>
        <time>2020-07-12T14:18:48Z</time>
      </trkpt>
      <trkpt lat="48.41279" lon="2.74819">
        <ele>63</ele>
        <time>2020-07-12T14:19:02Z</time>
      </trkpt>
      <trkpt lat="48.41287" lon="2.7481">
        <ele>64</ele>
        <time>2020-07-12T14:19:09Z</time>
      </trkpt>
      <trkpt lat="48.41293" lon="2.74799">
        <ele>64</ele>
        <time>2020-07-12T14:19:16Z</time>
      </trkpt>
      <trkpt lat="48.41302" lon="2.74794">
        <ele>64</ele>
        <time>2020-07-12T14:19:22Z</time>
      </trkpt>
      <trkpt lat="48.41316" lon="2.74776">
        <ele>63</ele>
        <time>2020-07-12T14:19:34Z</time>
      </trkpt>
      <trkpt lat="48.41357" lon="2.74736">
        <ele>63</ele>
        <time>2020-07-12T14:20:08Z</time>
      </trkpt>
      <trkpt lat="48.4138" lon="2.7471">
        <ele>63</ele>
        <time>2020-07-12T14:20:28Z</time>
      </trkpt>
      <trkpt lat="48.41397" lon="2.74697">
        <ele>64</ele>
        <time>2020-07-12T14:20:41Z</time>
      </trkpt>
      <trkpt lat="48.4142" lon="2.74673">
        <ele>64</ele>
        <time>2020-07-12T14:21:01Z</time>
      </trkpt>
      <trkpt lat="48.41429" lon="2.7467">
        <ele>64</ele>
        <time>2020-07-12T14:21:08Z</time>
      </trkpt>
      <trkpt lat="48.41444" lon="2.74654">
        <ele>65</ele>
        <time>2020-07-12T14:21:23Z</time>
      </trkpt>
      <trkpt lat="48.41451" lon="2.74643">
        <ele>66</ele>
        <time>2020-07-12T14:21:30Z</time>
      </trkpt>
      <trkpt lat="48.41459" lon="2.74636">
        <ele>66</ele>
        <time>2020-07-12T14:21:37Z</time>
      </trkpt>
      <trkpt lat="48.41498" lon="2.74628">
        <ele>64</ele>
        <time>2020-07-12T14:22:02Z</time>
      </trkpt>
      <trkpt lat="48.41522" lon="2.74615">
        <ele>64</ele>
        <time>2020-07-12T14:22:22Z</time>
      </trkpt>
      <trkpt lat="48.4153" lon="2.74619">
        <ele>64</ele>
        <time>2020-07-12T14:22:47Z</time>
      </trkpt>
      <trkpt lat="48.41537" lon="2.74618">
        <ele>64</ele>
        <time>2020-07-12T14:22:50Z</time>
      </trkpt>
      <trkpt lat="48.41551" lon="2.74607">
        <ele>65</ele>
        <time>2020-07-12T14:23:00Z</time>
      </trkpt>
      <trkpt lat="48.41559" lon="2.74597">
        <ele>65</ele>
        <time>2020-07-12T14:23:08Z</time>
      </trkpt>
      <trkpt lat="48.41573" lon="2.74589">
        <ele>65</ele>
        <time>2020-07-12T14:23:20Z</time>
      </trkpt>
      <trkpt lat="48.41603" lon="2.74589">
        <ele>64</ele>
        <time>2020-07-12T14:23:37Z</time>
      </trkpt>
      <trkpt lat="48.41621" lon="2.74583">
        <ele>64</ele>
        <time>2020-07-12T14:23:53Z</time>
      </trkpt>
      <trkpt lat="48.41639" lon="2.74572">
        <ele>64</ele>
        <time>2020-07-12T14:24:07Z</time>
      </trkpt>
      <trkpt lat="48.41658" lon="2.74565">
        <ele>64</ele>
        <time>2020-07-12T14:24:18Z</time>
      </trkpt>
      <trkpt lat="48.41667" lon="2.74558">
        <ele>64</ele>
        <time>2020-07-12T14:24:27Z</time>
      </trkpt>
      <trkpt lat="48.4171" lon="2.74544">
        <ele>64</ele>
        <time>2020-07-12T14:25:01Z</time>
      </trkpt>
      <trkpt lat="48.4172" lon="2.74544">
        <ele>64</ele>
        <time>2020-07-12T14:25:07Z</time>
      </trkpt>
      <trkpt lat="48.41728" lon="2.74535">
        <ele>64</ele>
        <time>2020-07-12T14:25:14Z</time>
      </trkpt>
      <trkpt lat="48.41757" lon="2.74527">
        <ele>64</ele>
        <time>2020-07-12T14:25:38Z</time>
      </trkpt>
      <trkpt lat="48.41766" lon="2.74523">
        <ele>64</ele>
        <time>2020-07-12T14:25:43Z</time>
      </trkpt>
      <trkpt lat="48.41794" lon="2.74521">
        <ele>64</ele>
        <time>2020-07-12T14:26:00Z</time>
      </trkpt>
      <trkpt lat="48.41832" lon="2.74509">
        <ele>64</ele>
        <time>2020-07-12T14:26:27Z</time>
      </trkpt>
      <trkpt lat="48.41843" lon="2.74508">
        <ele>64</ele>
        <time>2020-07-12T14:26:38Z</time>
      </trkpt>
      <trkpt lat="48.41853" lon="2.74503">
        <ele>64</ele>
        <time>2020-07-12T14:26:46Z</time>
      </trkpt>
      <trkpt lat="48.41863" lon="2.74502">
        <ele>65</ele>
        <time>2020-07-12T14:26:53Z</time>
      </trkpt>
      <trkpt lat="48.41871" lon="2.74494">
        <ele>65</ele>
        <time>2020-07-12T14:26:59Z</time>
      </trkpt>
      <trkpt lat="48.41901" lon="2.74485">
        <ele>66</ele>
        <time>2020-07-12T14:27:22Z</time>
      </trkpt>
      <trkpt lat="48.419" lon="2.74494">
        <ele>66</ele>
        <time>2020-07-12T14:27:58Z</time>
      </trkpt>
      <trkpt lat="48.41895" lon="2.74484">
        <ele>66</ele>
        <time>2020-07-12T14:29:44Z</time>
      </trkpt>
      <trkpt lat="48.41891" lon="2.74475">
        <ele>66</ele>
        <time>2020-07-12T14:29:52Z</time>
      </trkpt>
      <trkpt lat="48.41894" lon="2.74468">
        <ele>66</ele>
        <time>2020-07-12T14:29:57Z</time>
      </trkpt>
      <trkpt lat="48.41899" lon="2.74483">
        <ele>66</ele>
        <time>2020-07-12T14:30:23Z</time>
      </trkpt>
      <trkpt lat="48.41909" lon="2.74486">
        <ele>65</ele>
        <time>2020-07-12T14:31:39Z</time>
      </trkpt>
      <trkpt lat="48.4193" lon="2.7448">
        <ele>64</ele>
        <time>2020-07-12T14:32:00Z</time>
      </trkpt>
      <trkpt lat="48.41945" lon="2.74478">
        <ele>64</ele>
        <time>2020-07-12T14:32:17Z</time>
      </trkpt>
      <trkpt lat="48.41951" lon="2.74466">
        <ele>65</ele>
        <time>2020-07-12T14:32:26Z</time>
      </trkpt>
      <trkpt lat="48.41964" lon="2.74469">
        <ele>65</ele>
        <time>2020-07-12T14:32:41Z</time>
      </trkpt>
      <trkpt lat="48.41975" lon="2.74469">
        <ele>65</ele>
        <time>2020-07-12T14:32:48Z</time>
      </trkpt>
      <trkpt lat="48.41982" lon="2.74462">
        <ele>65</ele>
        <time>2020-07-12T14:32:57Z</time>
      </trkpt>
      <trkpt lat="48.41992" lon="2.74463">
        <ele>65</ele>
        <time>2020-07-12T14:33:05Z</time>
      </trkpt>
      <trkpt lat="48.42019" lon="2.74452">
        <ele>65</ele>
        <time>2020-07-12T14:33:27Z</time>
      </trkpt>
      <trkpt lat="48.42029" lon="2.74449">
        <ele>65</ele>
        <time>2020-07-12T14:33:34Z</time>
      </trkpt>
      <trkpt lat="48.42056" lon="2.74438">
        <ele>64</ele>
        <time>2020-07-12T14:33:55Z</time>
      </trkpt>
      <trkpt lat="48.42067" lon="2.74439">
        <ele>64</ele>
        <time>2020-07-12T14:34:02Z</time>
      </trkpt>
      <trkpt lat="48.42087" lon="2.74434">
        <ele>65</ele>
        <time>2020-07-12T14:34:17Z</time>
      </trkpt>
      <trkpt lat="48.42095" lon="2.74429">
        <ele>65</ele>
        <time>2020-07-12T14:34:22Z</time>
      </trkpt>
      <trkpt lat="48.42143" lon="2.74412">
        <ele>64</ele>
        <time>2020-07-12T14:34:56Z</time>
      </trkpt>
      <trkpt lat="48.42154" lon="2.7441">
        <ele>64</ele>
        <time>2020-07-12T14:35:02Z</time>
      </trkpt>
      <trkpt lat="48.42163" lon="2.74412">
        <ele>63</ele>
        <time>2020-07-12T14:35:11Z</time>
      </trkpt>
      <trkpt lat="48.42206" lon="2.74399">
        <ele>63</ele>
        <time>2020-07-12T14:35:45Z</time>
      </trkpt>
      <trkpt lat="48.42243" lon="2.74389">
        <ele>63</ele>
        <time>2020-07-12T14:36:14Z</time>
      </trkpt>
      <trkpt lat="48.4226" lon="2.74377">
        <ele>63</ele>
        <time>2020-07-12T14:36:29Z</time>
      </trkpt>
      <trkpt lat="48.42307" lon="2.74361">
        <ele>63</ele>
        <time>2020-07-12T14:37:04Z</time>
      </trkpt>
      <trkpt lat="48.42325" lon="2.74354">
        <ele>63</ele>
        <time>2020-07-12T14:37:16Z</time>
      </trkpt>
      <trkpt lat="48.42333" lon="2.74346">
        <ele>63</ele>
        <time>2020-07-12T14:37:22Z</time>
      </trkpt>
      <trkpt lat="48.42352" lon="2.74338">
        <ele>63</ele>
        <time>2020-07-12T14:37:35Z</time>
      </trkpt>
      <trkpt lat="48.42386" lon="2.74306">
        <ele>61</ele>
        <time>2020-07-12T14:38:07Z</time>
      </trkpt>
      <trkpt lat="48.42393" lon="2.74296">
        <ele>60</ele>
        <time>2020-07-12T14:38:13Z</time>
      </trkpt>
      <trkpt lat="48.42398" lon="2.74293">
        <ele>60</ele>
        <time>2020-07-12T14:38:16Z</time>
      </trkpt>
      <trkpt lat="48.42411" lon="2.7428">
        <ele>59</ele>
        <time>2020-07-12T14:38:27Z</time>
      </trkpt>
      <trkpt lat="48.42414" lon="2.74274">
        <ele>58</ele>
        <time>2020-07-12T14:38:30Z</time>
      </trkpt>
      <trkpt lat="48.42445" lon="2.74258">
        <ele>54</ele>
        <time>2020-07-12T14:38:53Z</time>
      </trkpt>
      <trkpt lat="48.4245" lon="2.74258">
        <ele>54</ele>
        <time>2020-07-12T14:38:56Z</time>
      </trkpt>
      <trkpt lat="48.42455" lon="2.74257">
        <ele>53</ele>
        <time>2020-07-12T14:38:59Z</time>
      </trkpt>
      <trkpt lat="48.42459" lon="2.74258">
        <ele>53</ele>
        <time>2020-07-12T14:39:02Z</time>
      </trkpt>
      <trkpt lat="48.42464" lon="2.74253">
        <ele>53</ele>
        <time>2020-07-12T14:39:06Z</time>
      </trkpt>
      <trkpt lat="48.42469" lon="2.74249">
        <ele>52</ele>
        <time>2020-07-12T14:39:11Z</time>
      </trkpt>
      <trkpt lat="48.42477" lon="2.74258">
        <ele>50</ele>
        <time>2020-07-12T14:39:17Z</time>
      </trkpt>
      <trkpt lat="48.42483" lon="2.7426">
        <ele>49</ele>
        <time>2020-07-12T14:39:21Z</time>
      </trkpt>
      <trkpt lat="48.42494" lon="2.7426">
        <ele>48</ele>
        <time>2020-07-12T14:39:28Z</time>
      </trkpt>
      <trkpt lat="48.42499" lon="2.74259">
        <ele>48</ele>
        <time>2020-07-12T14:39:32Z</time>
      </trkpt>
      <trkpt lat="48.42507" lon="2.74252">
        <ele>47</ele>
        <time>2020-07-12T14:39:41Z</time>
      </trkpt>
      <trkpt lat="48.4252" lon="2.74239">
        <ele>48</ele>
        <time>2020-07-12T14:39:53Z</time>
      </trkpt>
      <trkpt lat="48.42544" lon="2.74201">
        <ele>50</ele>
        <time>2020-07-12T14:40:21Z</time>
      </trkpt>
      <trkpt lat="48.42549" lon="2.74198">
        <ele>50</ele>
        <time>2020-07-12T14:40:25Z</time>
      </trkpt>
      <trkpt lat="48.42553" lon="2.74202">
        <ele>50</ele>
        <time>2020-07-12T14:40:28Z</time>
      </trkpt>
      <trkpt lat="48.42556" lon="2.74209">
        <ele>50</ele>
        <time>2020-07-12T14:40:31Z</time>
      </trkpt>
      <trkpt lat="48.42558" lon="2.74216">
        <ele>50</ele>
        <time>2020-07-12T14:40:34Z</time>
      </trkpt>
      <trkpt lat="48.42566" lon="2.74236">
        <ele>50</ele>
        <time>2020-07-12T14:40:43Z</time>
      </trkpt>
      <trkpt lat="48.42574" lon="2.74265">
        <ele>49</ele>
        <time>2020-07-12T14:40:57Z</time>
      </trkpt>
      <trkpt lat="48.42592" lon="2.74304">
        <ele>49</ele>
        <time>2020-07-12T14:41:19Z</time>
      </trkpt>
      <trkpt lat="48.42606" lon="2.74314">
        <ele>49</ele>
        <time>2020-07-12T14:41:31Z</time>
      </trkpt>
      <trkpt lat="48.42622" lon="2.74319">
        <ele>49</ele>
        <time>2020-07-12T14:41:46Z</time>
      </trkpt>
      <trkpt lat="48.42628" lon="2.74322">
        <ele>49</ele>
        <time>2020-07-12T14:41:50Z</time>
      </trkpt>
      <trkpt lat="48.4265" lon="2.74321">
        <ele>49</ele>
        <time>2020-07-12T14:42:06Z</time>
      </trkpt>
      <trkpt lat="48.42687" lon="2.74312">
        <ele>49</ele>
        <time>2020-07-12T14:42:32Z</time>
      </trkpt>
      <trkpt lat="48.42692" lon="2.74312">
        <ele>49</ele>
        <time>2020-07-12T14:42:36Z</time>
      </trkpt>
      <trkpt lat="48.42713" lon="2.74306">
        <ele>49</ele>
        <time>2020-07-12T14:42:51Z</time>
      </trkpt>
      <trkpt lat="48.4276" lon="2.74313">
        <ele>49</ele>
        <time>2020-07-12T14:43:23Z</time>
      </trkpt>
      <trkpt lat="48.42803" lon="2.74323">
        <ele>48</ele>
        <time>2020-07-12T14:43:54Z</time>
      </trkpt>
      <trkpt lat="48.42813" lon="2.74326">
        <ele>47</ele>
        <time>2020-07-12T14:44:02Z</time>
      </trkpt>
      <trkpt lat="48.42834" lon="2.74327">
        <ele>48</ele>
        <time>2020-07-12T14:44:18Z</time>
      </trkpt>
      <trkpt lat="48.42877" lon="2.74347">
        <ele>48</ele>
        <time>2020-07-12T14:44:50Z</time>
      </trkpt>
      <trkpt lat="48.4292" lon="2.74372">
        <ele>49</ele>
        <time>2020-07-12T14:45:21Z</time>
      </trkpt>
      <trkpt lat="48.42924" lon="2.74376">
        <ele>49</ele>
        <time>2020-07-12T14:45:25Z</time>
      </trkpt>
      <trkpt lat="48.4293" lon="2.7439">
        <ele>50</ele>
        <time>2020-07-12T14:45:33Z</time>
      </trkpt>
      <trkpt lat="48.42937" lon="2.7442">
        <ele>50</ele>
        <time>2020-07-12T14:45:49Z</time>
      </trkpt>
      <trkpt lat="48.42938" lon="2.74438">
        <ele>50</ele>
        <time>2020-07-12T14:45:57Z</time>
      </trkpt>
      <trkpt lat="48.42943" lon="2.74451">
        <ele>50</ele>
        <time>2020-07-12T14:46:05Z</time>
      </trkpt>
      <trkpt lat="48.42948" lon="2.74451">
        <ele>51</ele>
        <time>2020-07-12T14:46:13Z</time>
      </trkpt>
      <trkpt lat="48.42953" lon="2.74461">
        <ele>54</ele>
        <time>2020-07-12T14:46:26Z</time>
      </trkpt>
      <trkpt lat="48.42952" lon="2.74472">
        <ele>54</ele>
        <time>2020-07-12T14:46:38Z</time>
      </trkpt>
      <trkpt lat="48.42951" lon="2.74485">
        <ele>54</ele>
        <time>2020-07-12T14:47:18Z</time>
      </trkpt>
      <trkpt lat="48.42954" lon="2.74501">
        <ele>54</ele>
        <time>2020-07-12T14:47:34Z</time>
      </trkpt>
      <trkpt lat="48.42955" lon="2.74517">
        <ele>55</ele>
        <time>2020-07-12T14:47:40Z</time>
      </trkpt>
      <trkpt lat="48.42958" lon="2.7454">
        <ele>54</ele>
        <time>2020-07-12T14:47:52Z</time>
      </trkpt>
      <trkpt lat="48.42958" lon="2.74554">
        <ele>54</ele>
        <time>2020-07-12T14:48:05Z</time>
      </trkpt>
      <trkpt lat="48.42959" lon="2.74561">
        <ele>54</ele>
        <time>2020-07-12T14:48:09Z</time>
      </trkpt>
      <trkpt lat="48.42961" lon="2.74575">
        <ele>54</ele>
        <time>2020-07-12T14:48:17Z</time>
      </trkpt>
      <trkpt lat="48.4296" lon="2.74599">
        <ele>54</ele>
        <time>2020-07-12T14:48:30Z</time>
      </trkpt>
      <trkpt lat="48.4296" lon="2.74615">
        <ele>54</ele>
        <time>2020-07-12T14:48:38Z</time>
      </trkpt>
      <trkpt lat="48.42965" lon="2.7466">
        <ele>53</ele>
        <time>2020-07-12T14:49:02Z</time>
      </trkpt>
      <trkpt lat="48.4297" lon="2.74664">
        <ele>53</ele>
        <time>2020-07-12T14:49:08Z</time>
      </trkpt>
      <trkpt lat="48.42977" lon="2.74667">
        <ele>52</ele>
        <time>2020-07-12T14:49:12Z</time>
      </trkpt>
      <trkpt lat="48.42982" lon="2.74667">
        <ele>52</ele>
        <time>2020-07-12T14:49:16Z</time>
      </trkpt>
      <trkpt lat="48.42995" lon="2.7465">
        <ele>51</ele>
        <time>2020-07-12T14:51:33Z</time>
      </trkpt>
      <trkpt lat="48.43034" lon="2.74653">
        <ele>49</ele>
        <time>2020-07-12T14:52:04Z</time>
      </trkpt>
      <trkpt lat="48.43062" lon="2.7465">
        <ele>48</ele>
        <time>2020-07-12T14:52:28Z</time>
      </trkpt>
      <trkpt lat="48.43059" lon="2.74643">
        <ele>47</ele>
        <time>2020-07-12T14:52:32Z</time>
      </trkpt>
      <trkpt lat="48.43061" lon="2.74643">
        <ele>47</ele>
        <time>2020-07-12T14:52:53Z</time>
      </trkpt>
      <trkpt lat="48.4307" lon="2.74643">
        <ele>47</ele>
        <time>2020-07-12T14:53:00Z</time>
      </trkpt>
      <trkpt lat="48.43075" lon="2.74642">
        <ele>47</ele>
        <time>2020-07-12T14:53:05Z</time>
      </trkpt>
      <trkpt lat="48.4308" lon="2.74639">
        <ele>47</ele>
        <time>2020-07-12T14:53:10Z</time>
      </trkpt>
      <trkpt lat="48.4309" lon="2.74638">
        <ele>47</ele>
        <time>2020-07-12T14:53:18Z</time>
      </trkpt>
      <trkpt lat="48.43094" lon="2.74633">
        <ele>47</ele>
        <time>2020-07-12T14:53:22Z</time>
      </trkpt>
      <trkpt lat="48.43096" lon="2.74627">
        <ele>47</ele>
        <time>2020-07-12T14:53:26Z</time>
      </trkpt>
      <trkpt lat="48.43101" lon="2.74633">
        <ele>47</ele>
        <time>2020-07-12T14:53:36Z</time>
      </trkpt>
      <trkpt lat="48.43105" lon="2.74647">
        <ele>47</ele>
        <time>2020-07-12T14:53:45Z</time>
      </trkpt>
      <trkpt lat="48.43109" lon="2.74653">
        <ele>47</ele>
        <time>2020-07-12T14:53:50Z</time>
      </trkpt>
      <trkpt lat="48.43113" lon="2.74657">
        <ele>47</ele>
        <time>2020-07-12T14:53:54Z</time>
      </trkpt>
      <trkpt lat="48.43119" lon="2.74659">
        <ele>47</ele>
        <time>2020-07-12T14:54:03Z</time>
      </trkpt>
      <trkpt lat="48.43122" lon="2.74664">
        <ele>48</ele>
        <time>2020-07-12T14:54:07Z</time>
      </trkpt>
      <trkpt lat="48.43126" lon="2.74671">
        <ele>47</ele>
        <time>2020-07-12T14:54:15Z</time>
      </trkpt>
    </trkseg>
  </trk>
</gpx>